Provisional Data: Driftwood Branch Sinnemahoning Creek


Please select a monitoring station.
Please select start date.
Please select start date.

Toggle Unit: C/F Toggle Unit: C/F
Sample Time Temperature (C) Temperature (F) Specific Conductivity (mS/cm) pH   Turbidity (NTU+) DO (mg/L)
9/6/2021 12:00:00 AM 16.65 61.97 0.068 7.01 3.55 9.07
9/6/2021 12:15:00 AM 16.61 61.898 0.067 7.02 3.34 9.08
9/6/2021 12:30:00 AM 16.56 61.808 0.068 7.05 3.12 9.1
9/6/2021 12:45:00 AM 16.51 61.718 0.068 7.07 3.25 9.11
9/6/2021 1:00:00 AM 16.47 61.646 0.068 7.07 3.33 9.12
9/6/2021 1:15:00 AM 16.42 61.556 0.068 7.06 3.35 9.13
9/6/2021 1:30:00 AM 16.37 61.466 0.068 7.01 3.11 9.14
9/6/2021 1:45:00 AM 16.32 61.376 0.068 7.07 3.52 9.15
9/6/2021 2:00:00 AM 16.27 61.286 0.068 7 3.04 9.16
9/6/2021 2:15:00 AM 16.22 61.196 0.068 7.07 3.16 9.18
9/6/2021 2:30:00 AM 16.17 61.106 0.068 7.07 3.18 9.19
9/6/2021 2:45:00 AM 16.13 61.034 0.068 7.02 3.12 9.2
9/6/2021 3:00:00 AM 16.08 60.944 0.068 7.06 3.01 9.2
9/6/2021 3:15:00 AM 16.04 60.872 0.068 7.06 3.01 9.21
9/6/2021 3:30:00 AM 16 60.8 0.068 7.03 2.86 9.22
9/6/2021 3:45:00 AM 15.96 60.728 0.068 7.07 2.82 9.23
9/6/2021 4:00:00 AM 15.92 60.656 0.068 7.06 2.71 9.24
9/6/2021 4:15:00 AM 15.88 60.584 0.068 7.06 3.06 9.25
9/6/2021 4:30:00 AM 15.84 60.512 0.068 7.07 2.83 9.25
9/6/2021 4:45:00 AM 15.81 60.458 0.068 7.04 2.71 9.26
9/6/2021 5:00:00 AM 15.77 60.386 0.068 7.05 2.65 9.27
9/6/2021 5:15:00 AM 15.73 60.314 0.068 7.06 2.63 9.27
9/6/2021 5:30:00 AM 15.69 60.242 0.068 7.07 2.74 9.29
9/6/2021 5:45:00 AM 15.65 60.17 0.068 7.07 2.7 9.3
9/6/2021 6:00:00 AM 15.61 60.098 0.068 7.04 2.49 9.31
9/6/2021 6:15:00 AM 15.57 60.026 0.068 7.06 2.48 9.31
9/6/2021 6:30:00 AM 15.53 59.954 0.068 7.07 2.55 9.33
9/6/2021 6:45:00 AM 15.48 59.864 0.068 7 2.45 9.34
9/6/2021 7:00:00 AM 15.43 59.774 0.067 7.05 2.52 9.35
9/6/2021 7:15:00 AM 15.39 59.702 0.068 7.05 2.39 9.39
9/6/2021 7:30:00 AM 15.36 59.648 0.068 7.08 2.31 9.43
9/6/2021 7:45:00 AM 15.33 59.594 0.067 7.03 2.23 9.47
9/6/2021 8:00:00 AM 15.3 59.54 0.068 7.1 2.27 9.5
9/6/2021 8:15:00 AM 15.26 59.468 0.067 7.1 2.04 9.53
9/6/2021 8:30:00 AM 15.23 59.414 0.068 7.09 2.05 9.57
9/6/2021 8:45:00 AM 15.22 59.396 0.067 7.12 1.98 9.64
9/6/2021 9:00:00 AM 15.23 59.414 0.067 7.09 1.83 9.75
9/6/2021 9:15:00 AM 15.24 59.432 0.067 7.16 1.86 9.84
9/6/2021 9:30:00 AM 15.27 59.486 0.067 7.19 1.87 9.89
9/6/2021 9:45:00 AM 15.33 59.594 0.067 7.2 2.07 9.95
9/6/2021 10:00:00 AM 15.44 59.792 0.067 7.23 1.82 10.06
9/6/2021 10:15:00 AM 15.5 59.9 0.067 7.27 1.82 10.07
9/6/2021 10:30:00 AM 15.61 60.098 0.067 7.31 2.09 10.09
9/6/2021 10:45:00 AM 15.74 60.332 0.066 7.32 1.8 10.12
9/6/2021 11:00:00 AM 15.88 60.584 0.066 7.36 1.77 10.13
9/6/2021 11:15:00 AM 16.05 60.89 0.066 7.38 1.68 10.14
9/6/2021 11:30:00 AM 16.24 61.232 0.066 7.36 1.56 10.16
9/6/2021 11:45:00 AM 16.45 61.61 0.066 7.43 1.69 10.18
9/6/2021 12:00:00 PM 16.67 62.006 0.066 7.43 1.74 10.21
9/6/2021 12:15:00 PM 16.8 62.24 0.066 7.51 1.75 10.2
9/6/2021 12:30:00 PM 16.94 62.492 0.066 7.5 1.68 10.2
9/6/2021 12:45:00 PM 17.01 62.618 0.066 7.53 1.61 10.19
9/6/2021 1:00:00 PM 17.02 62.636 0.066 7.56 1.61 10.13
9/6/2021 1:15:00 PM 17.22 62.996 0.066 7.52 1.57 10.13
9/6/2021 1:30:00 PM 17.47 63.446 0.066 7.61 1.74 10.15
9/6/2021 1:45:00 PM 17.66 63.788 0.066 7.63 2.69 10.13
9/6/2021 2:00:00 PM 17.81 64.058 0.065 7.66 1.62 10.11
9/6/2021 2:15:00 PM 17.9 64.22 0.065 7.66 1.58 10.07
9/6/2021 2:30:00 PM 17.88 64.184 0.066 7.59 1.51 10.01
9/6/2021 2:45:00 PM 18.06 64.508 0.065 7.66 1.66 9.99
9/6/2021 3:00:00 PM 18.25 64.85 0.065 7.68 1.49 9.98
9/6/2021 3:15:00 PM 18.32 64.976 0.065 7.69 1.6 9.93
9/6/2021 3:30:00 PM 18.5 65.3 0.065 7.69 1.4 9.89
9/6/2021 3:45:00 PM 18.62 65.516 0.065 7.63 1.54 9.86
9/6/2021 4:00:00 PM 18.67 65.606 0.065 7.68 1.4 9.8
9/6/2021 4:15:00 PM 18.76 65.768 0.065 7.68 1.31 9.76
9/6/2021 4:30:00 PM 18.82 65.876 0.065 7.67 1.55 9.74
9/6/2021 4:45:00 PM 18.83 65.894 0.065 7.62 1.58 9.71
9/6/2021 5:00:00 PM 18.83 65.894 0.065 7.63 1.52 9.64
9/6/2021 5:15:00 PM 18.8 65.84 0.065 7.6 1.46 9.58
9/6/2021 5:30:00 PM 18.77 65.786 0.066 7.56 1.61 9.5
9/6/2021 5:45:00 PM 18.75 65.75 0.066 7.53 1.39 9.45
9/6/2021 6:00:00 PM 18.71 65.67799 0.066 7.43 1.47 9.4
9/6/2021 6:15:00 PM 18.65 65.57 0.065 7.47 1.61 9.32
9/6/2021 6:30:00 PM 18.59 65.462 0.066 7.41 1.64 9.22
9/6/2021 6:45:00 PM 18.52 65.336 0.066 7.36 1.72 9.15
9/6/2021 7:00:00 PM 18.44 65.192 0.066 7.33 1.68 9.07
9/6/2021 7:15:00 PM 18.36 65.048 0.066 7.29 1.55 9.01
9/6/2021 7:30:00 PM 18.29 64.922 0.066 7.23 1.64 8.95
9/6/2021 7:45:00 PM 18.22 64.796 0.067 7.23 1.73 8.9
9/6/2021 8:00:00 PM 18.15 64.67 0.067 7.21 1.64 8.85
9/6/2021 8:15:00 PM 18.07 64.526 0.067 7.19 1.78 8.81
9/6/2021 8:30:00 PM 17.99 64.382 0.067 7.17 1.75 8.8
9/6/2021 8:45:00 PM 17.9 64.22 0.067 7.15 1.77 8.79
9/6/2021 9:00:00 PM 17.81 64.058 0.067 7.08 2.02 8.79
9/6/2021 9:15:00 PM 17.71 63.878 0.067 7.12 2.02 8.81
9/6/2021 9:30:00 PM 17.6 63.68 0.067 7.11 1.87 8.82
9/6/2021 9:45:00 PM 17.5 63.5 0.067 7.12 2.05 8.84
9/6/2021 10:00:00 PM 17.39 63.302 0.067 7.11 2.14 8.86
9/6/2021 10:15:00 PM 17.28 63.104 0.068 7.07 1.8 8.87
9/6/2021 10:30:00 PM 17.17 62.906 0.068 7.1 1.88 8.9
9/6/2021 10:45:00 PM 17.06 62.708 0.068 7.09 1.67 8.92
9/6/2021 11:00:00 PM 16.95 62.51 0.068 7.09 1.99 8.94
9/6/2021 11:15:00 PM 16.84 62.312 0.068 7.08 1.93 8.96
9/6/2021 11:30:00 PM 16.73 62.114 0.067 7.09 1.78 8.99
9/6/2021 11:45:00 PM 16.62 61.916 0.068 7.08 1.86 9.02
9/7/2021 12:00:00 AM 16.51 61.718 0.068 7.08 2.01 9.04
9/7/2021 12:15:00 AM 16.41 61.538 0.068 7.04 1.85 9.06
9/7/2021 12:30:00 AM 16.3 61.34 0.068 7.07 2.02 9.09
9/7/2021 12:45:00 AM 16.19 61.142 0.068 7.06 1.87 9.12
9/7/2021 1:00:00 AM 16.1 60.98 0.068 7.07 1.99 9.14
9/7/2021 1:15:00 AM 16.01 60.818 0.069 7.06 1.74 9.16
9/7/2021 1:30:00 AM 15.92 60.656 0.068 7.07 1.72 9.19
9/7/2021 1:45:00 AM 15.85 60.53 0.068 7.06 1.51 9.21
9/7/2021 2:00:00 AM 15.77 60.386 0.068 7.08 1.56 9.22
9/7/2021 2:15:00 AM 15.7 60.26 0.068 7.02 1.56 9.25
9/7/2021 2:30:00 AM 15.63 60.134 0.068 7.08 1.52 9.26
9/7/2021 2:45:00 AM 15.56 60.008 0.068 7.04 1.59 9.28
9/7/2021 3:00:00 AM 15.49 59.882 0.068 7.09 1.61 9.31
9/7/2021 3:15:00 AM 15.41 59.738 0.068 7.08 1.63 9.32
9/7/2021 3:30:00 AM 15.34 59.612 0.069 7.08 1.63 9.34
9/7/2021 3:45:00 AM 15.27 59.486 0.069 7.03 1.57 9.36
9/7/2021 4:00:00 AM 15.21 59.378 0.069 7.09 1.62 9.38
9/7/2021 4:15:00 AM 15.14 59.252 0.069 7.03 1.89 9.39
9/7/2021 4:30:00 AM 15.08 59.144 0.069 7.04 1.88 9.4
9/7/2021 4:45:00 AM 15.02 59.036 0.069 7.09 1.87 9.42
9/7/2021 5:00:00 AM 14.95 58.91 0.068 7.08 1.68 9.44
9/7/2021 5:15:00 AM 14.9 58.82 0.069 7.08 1.89 9.45
9/7/2021 5:30:00 AM 14.84 58.712 0.069 7.04 1.7 9.47
9/7/2021 5:45:00 AM 14.79 58.622 0.068 7.09 1.8 9.48
9/7/2021 6:00:00 AM 14.73 58.514 0.069 7.09 1.68 9.49
9/7/2021 6:15:00 AM 14.68 58.424 0.068 7.06 1.79 9.51
9/7/2021 6:30:00 AM 14.62 58.316 0.069 7.09 1.7 9.52
9/7/2021 6:45:00 AM 14.57 58.226 0.068 7.01 1.94 9.53
9/7/2021 7:00:00 AM 14.52 58.136 0.069 7.1 1.67 9.56
9/7/2021 7:15:00 AM 14.47 58.046 0.068 7.09 1.97 9.6
9/7/2021 7:30:00 AM 14.42 57.956 0.069 7.04 1.74 9.64
9/7/2021 7:45:00 AM 14.38 57.884 0.068 7.11 1.53 9.7
9/7/2021 8:00:00 AM 14.34 57.812 0.068 7.12 1.63 9.77
9/7/2021 8:15:00 AM 14.32 57.776 0.068 7.15 1.35 9.85
9/7/2021 8:30:00 AM 14.3 57.74 0.068 7.17 1.33 9.94
9/7/2021 8:45:00 AM 14.29 57.722 0.068 7.18 1.27 10.02
9/7/2021 9:00:00 AM 14.29 57.722 0.068 7.2 1.14 10.11
9/7/2021 9:15:00 AM 14.3 57.74 0.068 7.21 1.42 10.21
9/7/2021 9:30:00 AM 14.33 57.794 0.068 7.26 1.51 10.31
9/7/2021 9:45:00 AM 14.36 57.848 0.067 7.3 4.41 10.4
9/7/2021 10:00:00 AM 14.4 57.92 0.067 7.34 1.11 10.49
9/7/2021 10:15:00 AM 14.44 57.992 0.067 7.36 1.12 10.49
9/7/2021 10:30:00 AM 14.54 58.172 0.067 7.37 1.05 10.45
9/7/2021 10:45:00 AM 14.68 58.424 0.067 7.39 1.01 10.44
9/7/2021 11:00:00 AM 14.84 58.712 0.067 7.41 0.95 10.43
9/7/2021 11:15:00 AM 15.01 59.018 0.067 7.4 0.96 10.43
9/7/2021 11:30:00 AM 15.2 59.36 0.067 7.37 1.03 10.44
9/7/2021 11:45:00 AM 15.42 59.756 0.067 7.46 0.99 10.44
9/7/2021 12:00:00 PM 15.65 60.17 0.067 7.47 0.9 10.43
9/7/2021 12:15:00 PM 15.89 60.602 0.066 7.5 1.02 10.41
9/7/2021 12:30:00 PM 16.16 61.088 0.066 7.52 1.16 10.4
9/7/2021 12:45:00 PM 16.42 61.556 0.066 7.55 0.99 10.39
9/7/2021 1:00:00 PM 16.68 62.024 0.066 7.59 1.02 10.37
9/7/2021 1:15:00 PM 16.9 62.42 0.066 7.6 1.03 10.34
9/7/2021 1:30:00 PM 17.11 62.798 0.066 7.61 1 10.32
9/7/2021 1:45:00 PM 17.32 63.176 0.066 7.66 1.08 10.29
9/7/2021 2:00:00 PM 17.57 63.626 0.066 7.66 0.95 10.25
9/7/2021 2:15:00 PM 17.78 64.004 0.066 7.69 1 10.21
9/7/2021 2:30:00 PM 17.97 64.346 0.066 7.71 0.99 10.17
9/7/2021 2:45:00 PM 18.09 64.562 0.066 7.71 0.97 10.14
9/7/2021 3:00:00 PM 18.24 64.832 0.066 7.73 0.96 10.11
9/7/2021 3:15:00 PM 18.32 64.976 0.066 7.69 0.92 10.07
9/7/2021 3:30:00 PM 18.33 64.994 0.065 7.71 0.98 10.01
9/7/2021 3:45:00 PM 18.43 65.174 0.066 7.69 0.91 9.96
9/7/2021 4:00:00 PM 18.43 65.174 0.066 7.69 0.97 9.91
9/7/2021 4:15:00 PM 18.5 65.3 0.065 7.67 0.92 9.87
9/7/2021 4:30:00 PM 18.6 65.48 0.065 7.67 1.13 9.85
9/7/2021 4:45:00 PM 18.62 65.516 0.065 7.67 0.97 9.8
9/7/2021 5:00:00 PM 18.64 65.552 0.065 7.65 1.04 9.75
9/7/2021 5:15:00 PM 18.65 65.57 0.065 7.61 0.9 9.67
9/7/2021 5:30:00 PM 18.64 65.552 0.066 7.57 3.28 9.6
9/7/2021 5:45:00 PM 18.63 65.534 0.065 7.53 2.98 9.55
9/7/2021 6:00:00 PM 18.62 65.516 0.065 7.49 1.01 9.49
9/7/2021 6:15:00 PM 18.63 65.534 0.065 7.46 1.03 9.43
9/7/2021 6:30:00 PM 18.61 65.498 0.065 7.43 1.02 9.31
9/7/2021 6:45:00 PM 18.6 65.48 0.066 7.34 1 9.22
9/7/2021 7:00:00 PM 18.58 65.444 0.065 7.36 1.08 9.12
9/7/2021 7:15:00 PM 18.54 65.372 0.066 7.3 1.07 9.02
9/7/2021 7:30:00 PM 18.52 65.336 0.066 7.28 0.99 8.94
9/7/2021 7:45:00 PM 18.48 65.264 0.066 7.18 1.61 8.86
9/7/2021 8:00:00 PM 18.46 65.228 0.066 7.23 1.48 8.79
9/7/2021 8:15:00 PM 18.42 65.156 0.066 7.14 1.46 8.74
9/7/2021 8:30:00 PM 18.38 65.084 0.067 7.16 1.56 8.71
9/7/2021 8:45:00 PM 18.33 64.994 0.067 7.14 1.18 8.69
9/7/2021 9:00:00 PM 18.28 64.904 0.067 7.13 1.43 8.67
9/7/2021 9:15:00 PM 18.25 64.85 0.067 7.07 1.57 8.67
9/7/2021 9:30:00 PM 18.18 64.724 0.067 7.12 1.37 8.68
9/7/2021 9:45:00 PM 18.12 64.616 0.067 7.11 1.8 8.67
9/7/2021 10:00:00 PM 18.05 64.49 0.062 7.12 2.66 8.69
9/7/2021 10:15:00 PM 17.97 64.346 0.064 7.03 1.96 8.7
9/7/2021 10:30:00 PM 17.9 64.22 0.068 7.08 1.85 8.71
9/7/2021 10:45:00 PM 17.81 64.058 0.067 7.04 1.71 8.74
9/7/2021 11:00:00 PM 17.74 63.932 0.066 7.09 63.68 8.74
9/7/2021 11:15:00 PM 17.66 63.788 0.03 7.07 2.31 8.76
9/7/2021 11:30:00 PM 17.6 63.68 0.068 7.05 1.98 8.76
9/7/2021 11:45:00 PM 17.52 63.536 0.068 7.06 1.71 8.79
9/8/2021 12:00:00 AM 17.45 63.41 0.068 7.07 1.5 8.8
9/8/2021 12:15:00 AM 17.38 63.284 0.068 7.06 1.59 8.82
9/8/2021 12:30:00 AM 17.31 63.158 0.068 7.05 1.64 8.83
9/8/2021 12:45:00 AM 17.23 63.014 0.068 7.04 1.47 8.85
9/8/2021 1:00:00 AM 17.16 62.888 0.068 7.06 1.44 8.86
9/8/2021 1:15:00 AM 17.09 62.762 0.068 7.05 1.76 8.88
9/8/2021 1:30:00 AM 17.02 62.636 0.068 7 1.55 8.9
9/8/2021 1:45:00 AM 16.95 62.51 0.068 7.06 1.5 8.91
9/8/2021 2:00:00 AM 16.89 62.402 0.068 7.06 1.44 8.93
9/8/2021 2:15:00 AM 16.83 62.294 0.068 7.06 1.5 8.94
9/8/2021 2:30:00 AM 16.76 62.168 0.068 7.06 1.67 8.95
9/8/2021 2:45:00 AM 16.69 62.042 0.068 7.06 1.51 8.97
9/8/2021 3:00:00 AM 16.63 61.934 0.068 7.04 1.7 8.98
9/8/2021 3:15:00 AM 16.57 61.826 0.069 7.05 1.71 8.99
9/8/2021 3:30:00 AM 16.51 61.718 0.068 7.05 1.46 9.01
9/8/2021 3:45:00 AM 16.46 61.628 0.068 7.06 1.55 9.03
9/8/2021 4:00:00 AM 16.41 61.538 0.068 7.06 1.56 9.04
9/8/2021 4:15:00 AM 16.36 61.448 0.069 7.06 1.64 9.05
9/8/2021 4:30:00 AM 16.31 61.358 0.068 7.06 1.51 9.06
9/8/2021 4:45:00 AM 16.27 61.286 0.068 7.06 1.58 9.07
9/8/2021 5:00:00 AM 16.23 61.214 0.069 7.04 1.39 9.07
9/8/2021 5:15:00 AM 16.18 61.124 0.068 7.07 1.43 9.09
9/8/2021 5:30:00 AM 16.13 61.034 0.068 7.06 1.52 9.1
9/8/2021 5:45:00 AM 16.08 60.944 0.069 7.06 1.55 9.11
9/8/2021 6:00:00 AM 16.02 60.836 0.068 7.07 1.49 9.12
9/8/2021 6:15:00 AM 15.98 60.764 0.069 7.07 1.63 9.13
9/8/2021 6:30:00 AM 15.94 60.692 0.069 7.07 1.55 9.14
9/8/2021 6:45:00 AM 15.9 60.62 0.069 7.06 10.12 9.16
9/8/2021 7:00:00 AM 15.86 60.548 0.069 7.06 6.51 9.17
9/8/2021 7:15:00 AM 15.81 60.458 0.069 7.08 8.61 9.2
9/8/2021 7:30:00 AM 15.77 60.386 0.068 7.09 4.3 9.25
9/8/2021 7:45:00 AM 15.75 60.35 0.068 7.1 3.15 9.34
9/8/2021 8:00:00 AM 15.75 60.35 0.068 7.14 5.59 9.47
9/8/2021 8:15:00 AM 15.75 60.35 0.068 7.09 3.9 9.57
9/8/2021 8:30:00 AM 15.78 60.404 0.068 7.18 4.35 9.69
9/8/2021 8:45:00 AM 15.82 60.476 0.068 7.21 4.68 9.83
9/8/2021 9:00:00 AM 15.85 60.53 0.068 7.25 5.09 9.87
9/8/2021 9:15:00 AM 15.87 60.566 0.068 7.25 1.19 9.89
9/8/2021 9:30:00 AM 15.9 60.62 0.068 7.28 1.24 9.93
9/8/2021 9:45:00 AM 15.96 60.728 0.067 7.32 1.12 10.03
9/8/2021 10:00:00 AM 16.05 60.89 0.067 7.35 1.1 10.14
9/8/2021 10:15:00 AM 16.14 61.052 0.067 7.4 1.18 10.22
9/8/2021 10:30:00 AM 16.24 61.232 0.067 7.4 1.03 10.29
9/8/2021 10:45:00 AM 16.31 61.358 0.067 7.49 1.03 10.31
9/8/2021 11:00:00 AM 16.33 61.394 0.066 7.46 0.95 10.26
9/8/2021 11:15:00 AM 16.45 61.61 0.066 7.53 1.02 10.3
9/8/2021 11:30:00 AM 16.62 61.916 0.066 7.59 1.13 10.37
9/8/2021 11:45:00 AM 16.65 61.97 0.066 7.58 1 10.28
9/8/2021 12:00:00 PM 16.67 62.006 0.066 7.55 1.02 10.14
9/8/2021 12:15:00 PM 16.67 62.006 0.066 7.5 1.06 10.04
9/8/2021 12:30:00 PM 16.65 61.97 0.067 7.43 1.14 9.86
9/8/2021 12:45:00 PM 16.63 61.934 0.067 7.38 1.01 9.7
9/8/2021 1:00:00 PM 16.63 61.934 0.067 7.28 1.12 9.62
9/8/2021 1:15:00 PM 16.64 61.952 0.067 7.33 1.03 9.58
9/8/2021 1:30:00 PM 16.64 61.952 0.067 7.28 1.03 9.56
9/8/2021 1:45:00 PM 16.67 62.006 0.066 7.31 1.08 9.67
9/8/2021 2:00:00 PM 16.67 62.006 0.067 7.34 1.06 9.7
9/8/2021 2:15:00 PM 16.67 62.006 0.067 7.34 0.97 9.73
9/8/2021 2:30:00 PM 16.68 62.024 0.066 7.34 1.01 9.77
9/8/2021 2:45:00 PM 16.69 62.042 0.066 7.38 0.94 9.81
9/8/2021 3:00:00 PM 16.72 62.096 0.066 7.4 1.04 9.86
9/8/2021 3:15:00 PM 16.72 62.096 0.066 7.4 1.06 9.87
9/8/2021 3:30:00 PM 16.74 62.132 0.066 7.42 1.09 9.87
9/8/2021 3:45:00 PM 16.76 62.168 0.066 7.42 1.03 9.88
9/8/2021 4:00:00 PM 16.78 62.204 0.066 7.44 0.95 9.86
9/8/2021 4:15:00 PM 16.82 62.276 0.066 7.42 1 9.89
9/8/2021 4:30:00 PM 16.86 62.348 0.066 7.45 1.32 9.91
9/8/2021 4:45:00 PM 16.89 62.402 0.066 7.48 1.39 9.94
9/8/2021 5:00:00 PM 16.91 62.438 0.066 7.47 1.13 9.88
9/8/2021 5:15:00 PM 16.95 62.51 0.066 7.46 1.07 9.91
9/8/2021 5:30:00 PM 17.01 62.618 0.066 7.48 1.08 9.94
9/8/2021 5:45:00 PM 16.99 62.582 0.066 7.43 1.13 9.88
9/8/2021 6:00:00 PM 17 62.6 0.066 7.45 1 9.81
9/8/2021 6:15:00 PM 17.04 62.672 0.066 7.45 1.01 9.82
9/8/2021 6:30:00 PM 17.05 62.69 0.066 7.43 1.07 9.78
9/8/2021 6:45:00 PM 17.05 62.69 0.066 7.43 1.02 9.7
9/8/2021 7:00:00 PM 17.04 62.672 0.066 7.37 1.11 9.58
9/8/2021 7:15:00 PM 17.02 62.636 0.066 7.33 1.13 9.46
9/8/2021 7:30:00 PM 16.99 62.582 0.067 7.3 1.19 9.35
9/8/2021 7:45:00 PM 16.95 62.51 0.067 7.26 1.15 9.25
9/8/2021 8:00:00 PM 16.9 62.42 0.067 7.22 1.4 9.18
9/8/2021 8:15:00 PM 16.86 62.348 0.067 7.21 1.94 9.13
9/8/2021 8:30:00 PM 16.81 62.258 0.067 7.17 1.36 9.09
9/8/2021 8:45:00 PM 16.77 62.186 0.067 7.17 1.51 9.07
9/8/2021 9:00:00 PM 16.74 62.132 0.067 7.13 1.79 9.05
9/8/2021 9:15:00 PM 16.71 62.078 0.067 7.15 1.48 9.04
9/8/2021 9:30:00 PM 16.68 62.024 0.067 7.14 1.47 9.03
9/8/2021 9:45:00 PM 16.65 61.97 0.067 7.14 1.67 9.02
9/8/2021 10:00:00 PM 16.62 61.916 0.067 7.11 1.48 9.02
9/8/2021 10:15:00 PM 16.59 61.862 0.068 7.1 1.28 9.02
9/8/2021 10:30:00 PM 16.55 61.79 0.068 7.13 1.43 9.03
9/8/2021 10:45:00 PM 16.52 61.736 0.068 7.11 1.33 9.03
9/8/2021 11:00:00 PM 16.49 61.682 0.068 7.11 1.35 9.04
9/8/2021 11:15:00 PM 16.45 61.61 0.068 7.11 1.45 9.04
9/8/2021 11:30:00 PM 16.42 61.556 0.068 7.12 1.45 9.05
9/8/2021 11:45:00 PM 16.39 61.502 0.068 7.11 1.57 9.06
9/9/2021 12:00:00 AM 16.36 61.448 0.068 7.11 1.56 9.07
9/9/2021 12:15:00 AM 16.33 61.394 0.068 7.11 1.55 9.07
9/9/2021 12:30:00 AM 16.29 61.322 0.068 7.11 1.52 9.07
9/9/2021 12:45:00 AM 16.27 61.286 0.068 7.1 1.59 9.09
9/9/2021 1:00:00 AM 16.24 61.232 0.068 7.09 1.53 9.09
9/9/2021 1:15:00 AM 16.2 61.16 0.068 7.11 1.55 9.1
9/9/2021 1:30:00 AM 16.18 61.124 0.068 7.07 1.51 9.11
9/9/2021 1:45:00 AM 16.15 61.07 0.068 7.1 1.53 9.12
9/9/2021 2:00:00 AM 16.12 61.016 0.068 7.05 1.7 9.12
9/9/2021 2:15:00 AM 16.09 60.962 0.068 7.1 1.55 9.13
9/9/2021 2:30:00 AM 16.06 60.908 0.068 7.06 1.59 9.13
9/9/2021 2:45:00 AM 16.03 60.854 0.068 7.1 1.72 9.14
9/9/2021 3:00:00 AM 16.01 60.818 0.068 7.1 1.59 9.14
9/9/2021 3:15:00 AM 15.98 60.764 0.068 7.09 1.72 9.15
9/9/2021 3:30:00 AM 15.96 60.728 0.068 7.09 1.59 9.16
9/9/2021 3:45:00 AM 15.93 60.674 0.068 7.09 1.42 9.17
9/9/2021 4:00:00 AM 15.91 60.638 0.069 7.08 1.54 9.17
9/9/2021 4:15:00 AM 15.89 60.602 0.069 7.09 1.58 9.18
9/9/2021 4:30:00 AM 15.86 60.548 0.068 7.09 1.53 9.18
9/9/2021 4:45:00 AM 15.85 60.53 0.068 7.1 1.45 9.19
9/9/2021 5:00:00 AM 15.83 60.494 0.069 7.1 1.4 9.2
9/9/2021 5:15:00 AM 15.81 60.458 0.069 7.1 1.53 9.2
9/9/2021 5:30:00 AM 15.79 60.422 0.069 7.1 1.63 9.21
9/9/2021 5:45:00 AM 15.77 60.386 0.07 7.06 1.55 9.21
9/9/2021 6:00:00 AM 15.76 60.368 0.069 7.1 1.5 9.21
9/9/2021 6:15:00 AM 15.74 60.332 0.069 7.1 1.43 9.21
9/9/2021 6:30:00 AM 15.73 60.314 0.068 7.09 1.84 9.22
9/9/2021 6:45:00 AM 15.71 60.278 0.068 7.09 1.37 9.22
9/9/2021 7:00:00 AM 15.69 60.242 0.068 7.1 1.51 9.23
9/9/2021 7:15:00 AM 15.68 60.224 0.068 7.08 1.64 9.24
9/9/2021 7:30:00 AM 15.67 60.206 0.068 7.11 1.45 9.26
9/9/2021 7:45:00 AM 15.66 60.188 0.068 7.11 1.34 9.29
9/9/2021 8:00:00 AM 15.65 60.17 0.068 7.12 1.43 9.33
9/9/2021 8:15:00 AM 15.65 60.17 0.068 7.1 1.25 9.39
9/9/2021 8:30:00 AM 15.67 60.206 0.068 7.13 1.28 9.51
9/9/2021 8:45:00 AM 15.69 60.242 0.068 7.17 1.2 9.61
9/9/2021 9:00:00 AM 15.71 60.278 0.068 7.2 1.28 9.72
9/9/2021 9:15:00 AM 15.74 60.332 0.067 7.22 1.29 9.8
9/9/2021 9:30:00 AM 15.78 60.404 0.068 7.25 1.22 9.9
9/9/2021 9:45:00 AM 15.86 60.548 0.067 7.3 1.23 10.04
9/9/2021 10:00:00 AM 15.95 60.71 0.067 7.35 1.06 10.13
9/9/2021 10:15:00 AM 16.05 60.89 0.067 7.39 1.08 10.21
9/9/2021 10:30:00 AM 16.14 61.052 0.067 7.44 1.1 10.29
9/9/2021 10:45:00 AM 16.25 61.25 0.066 7.49 1.24 10.35
9/9/2021 11:00:00 AM 16.4 61.52 0.066 7.55 1.08 10.36
9/9/2021 11:15:00 AM 16.51 61.718 0.066 7.54 1.15 10.34
9/9/2021 11:30:00 AM 16.65 61.97 0.066 7.57 1.11 10.34
9/9/2021 11:45:00 AM 16.8 62.24 0.066 7.62 1.02 10.33
9/9/2021 12:00:00 PM 17.02 62.636 0.066 7.66 1.1 10.35
9/9/2021 12:15:00 PM 17.16 62.888 0.066 7.69 1.05 10.35
9/9/2021 12:30:00 PM 17.38 63.284 0.066 7.74 1.14 10.36
9/9/2021 12:45:00 PM 17.45 63.41 0.066 7.73 1.01 10.26
9/9/2021 1:00:00 PM 17.39 63.302 0.066 7.67 1.13 10.16
9/9/2021 1:15:00 PM 17.44 63.392 0.066 7.68 1.1 10.17
9/9/2021 1:30:00 PM 17.69 63.842 0.066 7.73 1.26 10.2
9/9/2021 1:45:00 PM 17.91 64.238 0.066 7.77 1.78 10.21
9/9/2021 2:00:00 PM 17.92 64.256 0.065 7.81 1.29 10.18
9/9/2021 2:15:00 PM 17.92 64.256 0.065 7.82 1.18 10.17
9/9/2021 2:30:00 PM 17.93 64.274 0.065 7.79 1.03 10.12
9/9/2021 2:45:00 PM 17.95 64.31 0.065 7.8 1.2 10.11
9/9/2021 3:00:00 PM 18.12 64.616 0.065 7.85 1.52 10.14
9/9/2021 3:15:00 PM 18.04 64.472 0.065 7.83 1.43 10.09
9/9/2021 3:30:00 PM 18.07 64.526 0.065 7.83 0.93 10.07
9/9/2021 3:45:00 PM 18.27 64.886 0.065 7.8 0.86 10.06
9/9/2021 4:00:00 PM 18.21 64.778 0.065 7.77 0.89 9.94
9/9/2021 4:15:00 PM 18.37 65.066 0.064 7.8 0.78 9.96
9/9/2021 4:30:00 PM 18.41 65.138 0.064 7.81 0.83 9.96
9/9/2021 4:45:00 PM 18.44 65.192 0.065 7.8 0.92 9.92
9/9/2021 5:00:00 PM 18.44 65.192 0.065 7.79 1.52 9.9
9/9/2021 5:15:00 PM 18.43 65.174 0.065 7.78 0.78 9.84
9/9/2021 5:30:00 PM 18.39 65.102 0.065 7.73 0.83 9.8
9/9/2021 5:45:00 PM 18.34 65.012 0.065 7.66 0.82 9.72
9/9/2021 6:00:00 PM 18.26 64.868 0.065 7.62 0.83 9.61
9/9/2021 6:15:00 PM 18.19 64.742 0.065 7.54 0.84 9.52
9/9/2021 6:30:00 PM 18.1 64.58 0.065 7.48 0.87 9.4
9/9/2021 6:45:00 PM 18.04 64.472 0.066 7.4 1.11 9.29
9/9/2021 7:00:00 PM 17.97 64.346 0.066 7.35 1.04 9.21
9/9/2021 7:15:00 PM 17.9 64.22 0.066 7.32 1.13 9.13
9/9/2021 7:30:00 PM 17.82 64.076 0.066 7.28 1.13 9.04
9/9/2021 7:45:00 PM 17.74 63.932 0.066 7.24 1.34 8.97
9/9/2021 8:00:00 PM 17.67 63.806 0.066 7.22 1.09 8.92
9/9/2021 8:15:00 PM 17.61 63.698 0.067 7.18 1.01 8.88
9/9/2021 8:30:00 PM 17.53 63.554 0.067 7.18 1.1 8.85
9/9/2021 8:45:00 PM 17.45 63.41 0.067 7.15 1.2 8.83
9/9/2021 9:00:00 PM 17.38 63.284 0.067 7.15 1.18 8.82
9/9/2021 9:15:00 PM 17.31 63.158 0.067 7.12 6.22 8.82
9/9/2021 9:30:00 PM 17.23 63.014 0.067 7.12 1.33 8.83
9/9/2021 9:45:00 PM 17.16 62.888 0.067 7.08 1.3 8.84
9/9/2021 10:00:00 PM 17.07 62.726 0.067 7.11 1.18 8.85
9/9/2021 10:15:00 PM 16.99 62.582 0.067 7.08 1.17 8.86
9/9/2021 10:30:00 PM 16.91 62.438 0.068 7.09 1.45 8.88
9/9/2021 10:45:00 PM 16.81 62.258 0.067 7.09 1.18 8.91
9/9/2021 11:00:00 PM 16.71 62.078 0.068 7.08 1.21 8.91
9/9/2021 11:15:00 PM 16.62 61.916 0.068 7.06 1.36 8.94
9/9/2021 11:30:00 PM 16.52 61.736 0.067 7.04 1.3 8.96
9/9/2021 11:45:00 PM 16.45 61.61 0.068 7.08 1.26 8.97
9/10/2021 12:00:00 AM 16.38 61.484 0.068 7.08 1.19 9
9/10/2021 12:15:00 AM 16.3 61.34 0.068 7.06 1.26 9.02
9/10/2021 12:30:00 AM 16.25 61.25 0.068 7.08 1.22 9.03
9/10/2021 12:45:00 AM 16.19 61.142 0.068 7.07 1.24 9.05
9/10/2021 1:00:00 AM 16.13 61.034 0.068 7.08 1.2 9.07
9/10/2021 1:15:00 AM 16.06 60.908 0.068 7.07 1.18 9.08
9/10/2021 1:30:00 AM 16 60.8 0.068 7.07 1.38 9.1
9/10/2021 1:45:00 AM 15.94 60.692 0.068 7.08 1.48 9.11
9/10/2021 2:00:00 AM 15.89 60.602 0.068 7.09 1.25 9.12
9/10/2021 2:15:00 AM 15.84 60.512 0.068 7.08 1.26 9.14
9/10/2021 2:30:00 AM 15.78 60.404 0.068 7.07 1.33 9.16
9/10/2021 2:45:00 AM 15.73 60.314 0.068 7.09 1.25 9.17
9/10/2021 3:00:00 AM 15.68 60.224 0.068 7.09 1.34 9.18
9/10/2021 3:15:00 AM 15.61 60.098 0.068 7.07 1.74 9.19
9/10/2021 3:30:00 AM 15.54 59.972 0.068 7.01 1.38 9.2
9/10/2021 3:45:00 AM 15.47 59.846 0.068 7.05 1.32 9.22
9/10/2021 4:00:00 AM 15.4 59.72 0.068 7.07 1.3 9.24
9/10/2021 4:15:00 AM 15.34 59.612 0.069 7.06 1.26 9.26
9/10/2021 4:30:00 AM 15.27 59.486 0.069 7.06 1.26 9.27
9/10/2021 4:45:00 AM 15.19 59.342 0.068 7.06 1.26 9.3
9/10/2021 5:00:00 AM 15.13 59.234 0.068 7.07 1.27 9.31
9/10/2021 5:15:00 AM 15.05 59.09 0.068 7.06 1.34 9.33
9/10/2021 5:30:00 AM 14.98 58.964 0.069 7.04 1.15 9.35
9/10/2021 5:45:00 AM 14.91 58.838 0.069 7.07 1.23 9.37
9/10/2021 6:00:00 AM 14.85 58.73 0.068 7.08 1.16 9.39
9/10/2021 6:15:00 AM 14.79 58.622 0.068 7.07 1.15 9.4
9/10/2021 6:30:00 AM 14.72 58.496 0.069 7.07 1.24 9.42
9/10/2021 6:45:00 AM 14.65 58.37 0.069 7.04 1.35 9.44
9/10/2021 7:00:00 AM 14.6 58.28 0.069 7.08 1.21 9.48
9/10/2021 7:15:00 AM 14.54 58.172 0.069 7.08 2.04 9.51
9/10/2021 7:30:00 AM 14.48 58.064 0.069 7.09 1.43 9.58
9/10/2021 7:45:00 AM 14.45 58.01 0.069 7.1 1.23 9.69
9/10/2021 8:00:00 AM 14.44 57.992 0.069 7.12 1.16 9.8
9/10/2021 8:15:00 AM 14.42 57.956 0.068 7.16 1.16 9.92
9/10/2021 8:30:00 AM 14.42 57.956 0.068 7.18 1.04 10
9/10/2021 8:45:00 AM 14.44 57.992 0.068 7.19 1.11 10.11
9/10/2021 9:00:00 AM 14.47 58.046 0.068 7.23 1.15 10.19
9/10/2021 9:15:00 AM 14.47 58.046 0.068 7.26 1.18 10.22
9/10/2021 9:30:00 AM 14.49 58.082 0.068 7.24 1.02 10.26
9/10/2021 9:45:00 AM 14.55 58.19 0.067 7.31 1.04 10.33
9/10/2021 10:00:00 AM 14.67 58.406 0.067 7.32 1.06 10.43
9/10/2021 10:15:00 AM 14.75 58.55 0.067 7.34 1.02 10.47
9/10/2021 10:30:00 AM 14.83 58.694 0.067 7.39 1 10.51
9/10/2021 10:45:00 AM 14.92 58.856 0.067 7.44 0.99 10.53
9/10/2021 11:00:00 AM 15.03 59.054 0.067 7.44 1.09 10.56
9/10/2021 11:15:00 AM 15.15 59.27 0.067 7.48 0.99 10.54
9/10/2021 11:30:00 AM 15.32 59.576 0.067 7.52 0.96 10.57
9/10/2021 11:45:00 AM 15.47 59.846 0.067 7.51 0.95 10.57
9/10/2021 12:00:00 PM 15.58 60.044 0.067 7.55 0.99 10.55
9/10/2021 12:15:00 PM 15.79 60.422 0.066 7.62 0.96 10.58
9/10/2021 12:30:00 PM 15.91 60.638 0.066 7.62 0.99 10.58
9/10/2021 12:45:00 PM 16.07 60.926 0.066 7.66 0.92 10.56
9/10/2021 1:00:00 PM 16.26 61.268 0.066 7.69 0.92 10.56
9/10/2021 1:15:00 PM 16.39 61.502 0.066 7.68 0.96 10.51
9/10/2021 1:30:00 PM 16.44 61.592 0.066 7.7 0.9 10.45
9/10/2021 1:45:00 PM 16.53 61.754 0.066 7.69 1.02 10.44
9/10/2021 2:00:00 PM 16.72 62.096 0.066 7.75 0.92 10.42
9/10/2021 2:15:00 PM 17.01 62.618 0.066 7.8 0.92 10.45
9/10/2021 2:30:00 PM 17.19 62.942 0.066 7.85 0.89 10.44
9/10/2021 2:45:00 PM 17.18 62.924 0.066 7.8 1.21 10.35
9/10/2021 3:00:00 PM 17.25 63.05 0.066 7.79 0.88 10.33
9/10/2021 3:15:00 PM 17.39 63.302 0.065 7.79 0.89 10.32
9/10/2021 3:30:00 PM 17.34 63.212 0.066 7.84 1.09 10.32
9/10/2021 3:45:00 PM 17.31 63.158 0.066 7.82 1.13 10.29
9/10/2021 4:00:00 PM 17.31 63.158 0.066 7.8 0.9 10.26
9/10/2021 4:15:00 PM 17.39 63.302 0.066 7.79 0.84 10.24
9/10/2021 4:30:00 PM 17.45 63.41 0.066 7.78 0.99 10.19
9/10/2021 4:45:00 PM 17.36 63.248 0.066 7.73 0.94 10.13
9/10/2021 5:00:00 PM 17.38 63.284 0.066 7.71 0.86 10.09
9/10/2021 5:15:00 PM 17.33 63.194 0.066 7.65 0.86 10.04
9/10/2021 5:30:00 PM 17.34 63.212 0.066 7.62 0.99 9.97
9/10/2021 5:45:00 PM 17.31 63.158 0.066 7.6 1.03 9.9
9/10/2021 6:00:00 PM 17.21 62.978 0.066 7.53 0.93 9.75
9/10/2021 6:15:00 PM 17.21 62.978 0.066 7.42 0.97 9.71
9/10/2021 6:30:00 PM 17.15 62.87 0.067 7.43 0.9 9.62
9/10/2021 6:45:00 PM 17.09 62.762 0.067 7.37 0.93 9.52
9/10/2021 7:00:00 PM 17.03 62.654 0.067 7.34 0.98 9.45
9/10/2021 7:15:00 PM 16.97 62.546 0.067 7.27 1.02 9.36
9/10/2021 7:30:00 PM 16.9 62.42 0.067 7.24 1.02 9.29
9/10/2021 7:45:00 PM 16.83 62.294 0.067 7.23 1.09 9.22
9/10/2021 8:00:00 PM 16.77 62.186 0.068 7.21 1.35 9.15
9/10/2021 8:15:00 PM 16.71 62.078 0.068 7.16 1.13 9.11
9/10/2021 8:30:00 PM 16.65 61.97 0.068 7.17 1.15 9.08
9/10/2021 8:45:00 PM 16.59 61.862 0.068 7.11 1.13 9.06
9/10/2021 9:00:00 PM 16.52 61.736 0.068 7.13 1.27 9.06
9/10/2021 9:15:00 PM 16.46 61.628 0.068 7.1 1.29 9.05
9/10/2021 9:30:00 PM 16.38 61.484 0.068 7.11 1.33 9.06
9/10/2021 9:45:00 PM 16.31 61.358 0.068 7.12 1.37 9.07
9/10/2021 10:00:00 PM 16.24 61.232 0.068 7.1 1.68 9.07
9/10/2021 10:15:00 PM 16.16 61.088 0.068 7.05 1.33 9.09
9/10/2021 10:30:00 PM 16.08 60.944 0.068 7.07 1.35 9.1
9/10/2021 10:45:00 PM 16 60.8 0.068 7.05 1.42 9.11
9/10/2021 11:00:00 PM 15.92 60.656 0.068 7.07 1.25 9.13
9/10/2021 11:15:00 PM 15.84 60.512 0.068 7.05 1.23 9.15
9/10/2021 11:30:00 PM 15.75 60.35 0.068 7.06 1.49 9.17
9/10/2021 11:45:00 PM 15.66 60.188 0.068 7.06 1.26 9.19
9/11/2021 12:00:00 AM 15.58 60.044 0.068 7.06 1.35 9.2
9/11/2021 12:15:00 AM 15.5 59.9 0.068 7.06 1.38 9.23
9/11/2021 12:30:00 AM 15.43 59.774 0.069 7.05 1.19 9.25
9/11/2021 12:45:00 AM 15.35 59.63 0.068 7.06 1.27 9.27
9/11/2021 1:00:00 AM 15.27 59.486 0.068 7.05 1.44 9.3
9/11/2021 1:15:00 AM 15.19 59.342 0.068 7.04 1.33 9.32
9/11/2021 1:30:00 AM 15.11 59.198 0.068 7.03 1.19 9.34
9/11/2021 1:45:00 AM 15.04 59.072 0.068 7.06 1.29 9.36
9/11/2021 2:00:00 AM 14.98 58.964 0.068 7 1.26 9.37
9/11/2021 2:15:00 AM 14.92 58.856 0.068 7.02 1.45 9.39
9/11/2021 2:30:00 AM 14.87 58.766 0.068 7.04 1.26 9.4
9/11/2021 2:45:00 AM 14.81 58.658 0.069 7.06 1.34 9.42
9/11/2021 3:00:00 AM 14.76 58.568 0.068 7.07 1.23 9.44
9/11/2021 3:15:00 AM 14.71 58.478 0.069 7.05 1.3 9.45
9/11/2021 3:30:00 AM 14.67 58.406 0.069 7.05 1.29 9.46
9/11/2021 3:45:00 AM 14.62 58.316 0.069 7.06 1.31 9.48
9/11/2021 4:00:00 AM 14.57 58.226 0.069 7.07 1.33 9.49
9/11/2021 4:15:00 AM 14.52 58.136 0.069 7.04 1.21 9.5
9/11/2021 4:30:00 AM 14.48 58.064 0.069 7.03 1.2 9.51
9/11/2021 4:45:00 AM 14.42 57.956 0.069 7.07 1.21 9.53
9/11/2021 5:00:00 AM 14.38 57.884 0.069 7.06 1.22 9.55
9/11/2021 5:15:00 AM 14.32 57.776 0.069 7.06 1.23 9.56
9/11/2021 5:30:00 AM 14.27 57.686 0.069 7.07 1.3 9.57
9/11/2021 5:45:00 AM 14.23 57.614 0.069 7.06 1.22 9.58
9/11/2021 6:00:00 AM 14.18 57.524 0.069 7.07 1.22 9.6
9/11/2021 6:15:00 AM 14.14 57.452 0.069 7.07 1.2 9.61
9/11/2021 6:30:00 AM 14.09 57.362 0.069 7.07 1.09 9.62
9/11/2021 6:45:00 AM 14.05 57.29 0.069 7.07 1.1 9.64
9/11/2021 7:00:00 AM 14 57.2 0.069 7.08 1.02 9.66
9/11/2021 7:15:00 AM 13.97 57.146 0.069 7.08 1.08 9.69
9/11/2021 7:30:00 AM 13.93 57.074 0.069 7.08 1.12 9.73
9/11/2021 7:45:00 AM 13.9 57.02 0.069 7.09 1.01 9.78
9/11/2021 8:00:00 AM 13.87 56.966 0.069 7.11 0.96 9.87
9/11/2021 8:15:00 AM 13.86 56.948 0.069 7.12 1.28 9.96
9/11/2021 8:30:00 AM 13.85 56.93 0.068 7.13 1.42 10.08
9/11/2021 8:45:00 AM 13.85 56.93 0.068 7.18 0.88 10.19
9/11/2021 9:00:00 AM 13.85 56.93 0.068 7.2 1 10.28
9/11/2021 9:15:00 AM 13.88 56.984 0.068 7.17 0.8 10.39
9/11/2021 9:30:00 AM 13.91 57.038 0.068 7.26 0.85 10.52
9/11/2021 9:45:00 AM 13.98 57.164 0.068 7.3 0.82 10.65
9/11/2021 10:00:00 AM 14.02 57.236 0.068 7.3 0.82 10.7
9/11/2021 10:15:00 AM 14.05 57.29 0.068 7.35 0.84 10.71
9/11/2021 10:30:00 AM 14.13 57.434 0.068 7.39 0.76 10.73
9/11/2021 10:45:00 AM 14.24 57.632 0.068 7.41 0.74 10.73
9/11/2021 11:00:00 AM 14.39 57.902 0.067 7.44 0.73 10.74
9/11/2021 11:15:00 AM 14.58 58.244 0.067 7.47 0.81 10.75
9/11/2021 11:30:00 AM 14.78 58.604 0.067 7.51 0.82 10.76
9/11/2021 11:45:00 AM 15 59 0.067 7.52 0.77 10.77
9/11/2021 12:00:00 PM 15.24 59.432 0.067 7.57 0.7 10.78
9/11/2021 12:15:00 PM 15.49 59.882 0.067 7.59 0.89 10.77
9/11/2021 12:30:00 PM 15.75 60.35 0.067 7.63 0.93 10.76
9/11/2021 12:45:00 PM 16.02 60.836 0.067 7.66 1.08 10.74
9/11/2021 1:00:00 PM 16.27 61.286 0.067 7.7 1.15 10.71
9/11/2021 1:15:00 PM 16.57 61.826 0.066 7.73 0.81 10.7
9/11/2021 1:30:00 PM 16.8 62.24 0.066 7.71 0.97 10.66
9/11/2021 1:45:00 PM 17.03 62.654 0.066 7.78 1.11 10.64
9/11/2021 2:00:00 PM 17.18 62.924 0.066 7.85 1.13 10.59
9/11/2021 2:15:00 PM 17.35 63.23 0.066 7.88 0.84 10.54
9/11/2021 2:30:00 PM 17.6 63.68 0.066 7.92 0.87 10.52
9/11/2021 2:45:00 PM 17.77 63.986 0.066 7.93 0.92 10.49
9/11/2021 3:00:00 PM 17.87 64.166 0.066 7.92 0.98 10.44
9/11/2021 3:15:00 PM 18 64.4 0.066 7.92 1.47 10.42
9/11/2021 3:30:00 PM 18.12 64.616 0.066 7.95 1.48 10.37
9/11/2021 3:45:00 PM 18.17 64.706 0.066 7.96 1.15 10.32
9/11/2021 4:00:00 PM 18.18 64.724 0.066 7.93 0.83 10.27
9/11/2021 4:15:00 PM 18.15 64.67 0.066 7.9 0.9 10.21
9/11/2021 4:30:00 PM 18.17 64.706 0.066 7.86 0.88 10.17
9/11/2021 4:45:00 PM 18.17 64.706 0.066 7.83 0.82 10.12
9/11/2021 5:00:00 PM 18.11 64.598 0.066 7.79 0.99 10.05
9/11/2021 5:15:00 PM 18.03 64.454 0.066 7.71 0.82 9.99
9/11/2021 5:30:00 PM 17.92 64.256 0.066 7.67 0.85 9.92
9/11/2021 5:45:00 PM 17.83 64.094 0.066 7.6 0.87 9.85
9/11/2021 6:00:00 PM 17.74 63.932 0.066 7.56 0.96 9.76
9/11/2021 6:15:00 PM 17.65 63.77 0.066 7.48 0.87 9.69
9/11/2021 6:30:00 PM 17.56 63.608 0.066 7.42 0.83 9.57
9/11/2021 6:45:00 PM 17.49 63.482 0.066 7.37 0.88 9.47
9/11/2021 7:00:00 PM 17.43 63.374 0.067 7.3 0.92 9.39
9/11/2021 7:15:00 PM 17.36 63.248 0.067 7.29 1.03 9.3
9/11/2021 7:30:00 PM 17.29 63.122 0.067 7.27 0.93 9.21
9/11/2021 7:45:00 PM 17.23 63.014 0.067 7.2 0.98 9.13
9/11/2021 8:00:00 PM 17.18 62.924 0.067 7.18 1.04 9.07
9/11/2021 8:15:00 PM 17.14 62.852 0.067 7.2 1.11 9.02
9/11/2021 8:30:00 PM 17.11 62.798 0.067 7.14 1.11 8.98
9/11/2021 8:45:00 PM 17.07 62.726 0.068 7.15 1.21 8.95
9/11/2021 9:00:00 PM 17.03 62.654 0.068 7.16 1.25 8.93
9/11/2021 9:15:00 PM 17 62.6 0.068 7.14 2.51 8.89
9/11/2021 9:30:00 PM 16.96 62.528 0.068 7.1 1.22 8.91
9/11/2021 9:45:00 PM 16.92 62.456 0.068 7.09 1.01 8.9
9/11/2021 10:00:00 PM 16.89 62.402 0.068 7.12 0.94 8.9
9/11/2021 10:15:00 PM 16.84 62.312 0.068 7.11 1.01 8.91
9/11/2021 10:30:00 PM 16.79 62.222 0.068 7.1 0.94 8.91
9/11/2021 10:45:00 PM 16.74 62.132 0.069 7.1 1 8.91
9/11/2021 11:00:00 PM 16.69 62.042 0.069 7.09 1.01 8.92
9/11/2021 11:15:00 PM 16.63 61.934 0.069 7.09 0.95 8.93
9/11/2021 11:30:00 PM 16.57 61.826 0.069 7.06 1.03 8.95
9/11/2021 11:45:00 PM 16.5 61.7 0.069 7.07 1.01 8.96
9/12/2021 12:00:00 AM 16.43 61.574 0.069 7.07 1.23 8.98
9/12/2021 12:15:00 AM 16.37 61.466 0.069 7.08 1.35 8.99
9/12/2021 12:30:00 AM 16.31 61.358 0.069 7.06 1.22 9.01
9/12/2021 12:45:00 AM 16.25 61.25 0.069 7.08 1.12 9.02
9/12/2021 1:00:00 AM 16.19 61.142 0.069 7.07 1.27 9.04
9/12/2021 1:15:00 AM 16.12 61.016 0.069 7.06 1.2 9.06
9/12/2021 1:30:00 AM 16.07 60.926 0.069 7.02 1.23 9.07
9/12/2021 1:45:00 AM 16.02 60.836 0.069 7.06 1.27 9.08
9/12/2021 2:00:00 AM 15.96 60.728 0.069 7.07 1.23 9.1
9/12/2021 2:15:00 AM 15.89 60.602 0.069 7.06 1.26 9.11
9/12/2021 2:30:00 AM 15.85 60.53 0.069 7.06 1.26 9.13
9/12/2021 2:45:00 AM 15.8 60.44 0.069 7.02 1.17 9.14
9/12/2021 3:00:00 AM 15.75 60.35 0.069 7.07 1.29 9.15
9/12/2021 3:15:00 AM 15.7 60.26 0.069 7 1.22 9.17
9/12/2021 3:30:00 AM 15.65 60.17 0.069 7.03 1.06 9.18
9/12/2021 3:45:00 AM 15.62 60.116 0.069 7.05 1.18 9.19
9/12/2021 4:00:00 AM 15.59 60.062 0.069 7.07 0.94 9.2
9/12/2021 4:15:00 AM 15.56 60.008 0.069 7.08 0.99 9.22
9/12/2021 4:30:00 AM 15.53 59.954 0.069 7.07 0.98 9.23
9/12/2021 4:45:00 AM 15.51 59.918 0.069 7.07 1.16 9.22
9/12/2021 5:00:00 AM 15.48 59.864 0.069 7.02 0.96 9.24
9/12/2021 5:15:00 AM 15.46 59.828 0.07 7.06 1.03 9.23
9/12/2021 5:30:00 AM 15.44 59.792 0.071 7.07 1.08 9.24
9/12/2021 5:45:00 AM 15.42 59.756 0.071 7.06 0.99 9.25
9/12/2021 6:00:00 AM 15.4 59.72 0.072 7.08 0.98 9.26
9/12/2021 6:15:00 AM 15.38 59.684 0.071 7.07 1.17 9.27
9/12/2021 6:30:00 AM 15.36 59.648 0.07 7.02 1 9.27
9/12/2021 6:45:00 AM 15.34 59.612 0.07 7.07 1.13 9.28
9/12/2021 7:00:00 AM 15.33 59.594 0.07 7.04 1 9.3
9/12/2021 7:15:00 AM 15.31 59.558 0.07 7.04 0.99 9.31
9/12/2021 7:30:00 AM 15.31 59.558 0.07 7.09 1.06 9.35
9/12/2021 7:45:00 AM 15.31 59.558 0.07 7.09 1.02 9.44
9/12/2021 8:00:00 AM 15.32 59.576 0.07 7.12 1 9.56
9/12/2021 8:15:00 AM 15.32 59.576 0.07 7.15 0.92 9.64
9/12/2021 8:30:00 AM 15.34 59.612 0.069 7.15 0.89 9.77
9/12/2021 8:45:00 AM 15.36 59.648 0.069 7.15 0.88 9.81
9/12/2021 9:00:00 AM 15.37 59.666 0.069 7.17 0.85 9.84
9/12/2021 9:15:00 AM 15.4 59.72 0.069 7.16 0.9 9.89
9/12/2021 9:30:00 AM 15.44 59.792 0.069 7.19 1.45 9.97
9/12/2021 9:45:00 AM 15.47 59.846 0.069 7.2 0.84 10.04
9/12/2021 10:00:00 AM 15.57 60.026 0.069 7.27 1.03 10.17
9/12/2021 10:15:00 AM 15.66 60.188 0.069 7.33 1.02 10.28
9/12/2021 10:30:00 AM 15.76 60.368 0.069 7.38 0.82 10.39
9/12/2021 10:45:00 AM 15.93 60.674 0.068 7.46 0.83 10.48
9/12/2021 11:00:00 AM 16.05 60.89 0.068 7.51 0.84 10.55
9/12/2021 11:15:00 AM 16.18 61.124 0.068 7.56 0.91 10.62
9/12/2021 11:30:00 AM 16.32 61.376 0.068 7.57 0.79 10.66
9/12/2021 11:45:00 AM 16.5 61.7 0.068 7.7 0.78 10.71
9/12/2021 12:00:00 PM 16.67 62.006 0.068 7.77 0.91 10.73
9/12/2021 12:15:00 PM 16.86 62.348 0.067 7.83 0.78 10.75
9/12/2021 12:30:00 PM 17.02 62.636 0.067 7.87 0.76 10.73
9/12/2021 12:45:00 PM 17.17 62.906 0.067 7.93 0.78 10.73
9/12/2021 1:00:00 PM 17.28 63.104 0.067 7.98 0.72 10.7
9/12/2021 1:15:00 PM 17.37 63.266 0.067 8 0.69 10.69
9/12/2021 1:30:00 PM 17.49 63.482 0.067 8.07 0.75 10.68
9/12/2021 1:45:00 PM 17.59 63.662 0.067 8.08 0.72 10.65
9/12/2021 2:00:00 PM 17.76 63.968 0.067 8.14 0.74 10.63
9/12/2021 2:15:00 PM 17.89 64.202 0.067 8.19 0.83 10.62
9/12/2021 2:30:00 PM 18.1 64.58 0.067 8.23 0.71 10.59
9/12/2021 2:45:00 PM 18.16 64.688 0.066 8.22 0.74 10.52
9/12/2021 3:00:00 PM 18.22 64.796 0.066 8.18 0.7 10.43
9/12/2021 3:15:00 PM 18.26 64.868 0.066 8.16 0.74 10.37
9/12/2021 3:30:00 PM 18.32 64.976 0.066 8.14 0.8 10.3
9/12/2021 3:45:00 PM 18.35 65.03 0.066 8.09 0.78 10.29
9/12/2021 4:00:00 PM 18.52 65.336 0.066 8.16 0.74 10.29
9/12/2021 4:15:00 PM 18.61 65.498 0.066 8.15 0.79 10.25
9/12/2021 4:30:00 PM 18.68 65.624 0.066 8.12 0.77 10.21
9/12/2021 4:45:00 PM 18.66 65.588 0.066 8.09 0.91 10.14
9/12/2021 5:00:00 PM 18.71 65.67799 0.066 8.04 0.75 10.1
9/12/2021 5:15:00 PM 18.78 65.804 0.066 8.03 0.74 10.02
9/12/2021 5:30:00 PM 18.71 65.67799 0.066 7.91 1.33 9.88
9/12/2021 5:45:00 PM 18.71 65.67799 0.067 7.81 0.71 9.78
9/12/2021 6:00:00 PM 18.71 65.67799 0.067 7.74 0.6 9.7
9/12/2021 6:15:00 PM 18.68 65.624 0.067 7.65 0.79 9.58
9/12/2021 6:30:00 PM 18.66 65.588 0.067 7.58 0.71 9.49
9/12/2021 6:45:00 PM 18.61 65.498 0.067 7.5 0.73 9.38
9/12/2021 7:00:00 PM 18.57 65.426 0.067 7.44 0.85 9.26
9/12/2021 7:15:00 PM 18.51 65.318 0.068 7.4 0.76 9.15
9/12/2021 7:30:00 PM 18.46 65.228 0.068 7.33 0.83 9.04
9/12/2021 7:45:00 PM 18.41 65.138 0.068 7.26 1.21 8.94
9/12/2021 8:00:00 PM 18.37 65.066 0.068 7.24 0.92 8.85
9/12/2021 8:15:00 PM 18.33 64.994 0.069 7.21 0.95 8.79
9/12/2021 8:30:00 PM 18.3 64.94 0.069 7.14 1 8.74
9/12/2021 8:45:00 PM 18.27 64.886 0.069 7.16 1.04 8.7
9/12/2021 9:00:00 PM 18.26 64.868 0.069 7.15 0.98 8.68
9/12/2021 9:15:00 PM 18.24 64.832 0.069 7.14 1.02 8.66
9/12/2021 9:30:00 PM 18.21 64.778 0.069 7.14 1.02 8.64
9/12/2021 9:45:00 PM 18.2 64.76 0.069 7.12 0.99 8.64
9/12/2021 10:00:00 PM 18.17 64.706 0.069 7.12 1.02 8.63
9/12/2021 10:15:00 PM 18.15 64.67 0.07 7.1 1.14 8.62
9/12/2021 10:30:00 PM 18.13 64.634 0.07 7.09 1.03 8.62
9/12/2021 10:45:00 PM 18.11 64.598 0.07 7.05 1.06 8.62
9/12/2021 11:00:00 PM 18.1 64.58 0.07 7.07 1.11 8.6
9/12/2021 11:15:00 PM 18.08 64.544 0.07 7.03 1.04 8.6
9/12/2021 11:30:00 PM 18.06 64.508 0.07 7.09 1.09 8.61
9/12/2021 11:45:00 PM 18.05 64.49 0.07 7.07 1.08 8.61
9/13/2021 12:00:00 AM 18.03 64.454 0.07 7.04 1.15 8.61
9/13/2021 12:15:00 AM 18.01 64.418 0.07 7.07 1.03 8.61
9/13/2021 12:30:00 AM 18 64.4 0.07 7.07 1.04 8.62
9/13/2021 12:45:00 AM 17.98 64.364 0.07 7.06 1.06 8.61
9/13/2021 1:00:00 AM 17.96 64.328 0.07 7.07 1.03 8.63
9/13/2021 1:15:00 AM 17.94 64.292 0.07 7.07 1.06 8.64
9/13/2021 1:30:00 AM 17.93 64.274 0.071 7.08 1.14 8.64
9/13/2021 1:45:00 AM 17.91 64.238 0.07 7.05 1.1 8.64
9/13/2021 2:00:00 AM 17.9 64.22 0.07 7 1.01 8.65
9/13/2021 2:15:00 AM 17.88 64.184 0.07 7.07 1.21 8.66
9/13/2021 2:30:00 AM 17.87 64.166 0.07 7.05 1.08 8.66
9/13/2021 2:45:00 AM 17.85 64.13 0.07 7.06 1.03 8.67
9/13/2021 3:00:00 AM 17.83 64.094 0.071 7.06 1.11 8.67
9/13/2021 3:15:00 AM 17.81 64.058 0.071 7.06 1.1 8.67
9/13/2021 3:30:00 AM 17.8 64.04 0.071 7.06 1.03 8.68
9/13/2021 3:45:00 AM 17.78 64.004 0.071 7.05 1.11 8.69
9/13/2021 4:00:00 AM 17.75 63.95 0.071 7.05 1.07 8.68
9/13/2021 4:15:00 AM 17.73 63.914 0.071 7.05 1.24 8.7
9/13/2021 4:30:00 AM 17.7 63.86 0.071 7.01 1.08 8.7
9/13/2021 4:45:00 AM 17.67 63.806 0.071 7.05 1.29 8.7
9/13/2021 5:00:00 AM 17.65 63.77 0.071 7.04 1.24 8.71
9/13/2021 5:15:00 AM 17.61 63.698 0.071 7.05 1.28 8.72
9/13/2021 5:30:00 AM 17.58 63.644 0.071 7.04 1.07 8.73
9/13/2021 5:45:00 AM 17.56 63.608 0.071 6.99 1.06 8.73
9/13/2021 6:00:00 AM 17.53 63.554 0.071 7.04 1.08 8.74
9/13/2021 6:15:00 AM 17.51 63.518 0.071 7.02 1.11 8.75
9/13/2021 6:30:00 AM 17.49 63.482 0.071 7.04 3.4 8.75
9/13/2021 6:45:00 AM 17.47 63.446 0.071 7.05 1.15 8.77
9/13/2021 7:00:00 AM 17.46 63.428 0.071 7 1.04 8.77
9/13/2021 7:15:00 AM 17.44 63.392 0.071 7.05 0.9 8.8
9/13/2021 7:30:00 AM 17.44 63.392 0.071 7.03 0.93 8.83
9/13/2021 7:45:00 AM 17.43 63.374 0.071 7.05 0.87 8.91
9/13/2021 8:00:00 AM 17.43 63.374 0.071 7.08 0.92 8.99
9/13/2021 8:15:00 AM 17.45 63.41 0.071 7.11 0.81 9.09
9/13/2021 8:30:00 AM 17.46 63.428 0.071 7.14 0.74 9.17
9/13/2021 8:45:00 AM 17.49 63.482 0.071 7.16 0.81 9.29
9/13/2021 9:00:00 AM 17.54 63.572 0.07 7.19 0.88 9.46
9/13/2021 9:15:00 AM 17.6 63.68 0.07 7.21 0.75 9.61
9/13/2021 9:30:00 AM 17.67 63.806 0.07 7.28 0.86 9.75
9/13/2021 9:45:00 AM 17.72 63.896 0.07 7.31 0.8 9.82
9/13/2021 10:00:00 AM 17.78 64.004 0.07 7.36 0.71 9.88
9/13/2021 10:15:00 AM 17.86 64.148 0.07 7.41 0.69 9.94
9/13/2021 10:30:00 AM 17.89 64.202 0.069 7.41 0.76 9.94
9/13/2021 10:45:00 AM 17.91 64.238 0.069 7.41 1.02 9.94
9/13/2021 11:00:00 AM 17.94 64.292 0.069 7.45 0.72 9.92
9/13/2021 11:15:00 AM 17.99 64.382 0.069 7.41 0.7 9.97
9/13/2021 11:30:00 AM 18.03 64.454 0.069 7.51 0.74 9.96
9/13/2021 11:45:00 AM 18.05 64.49 0.069 7.5 0.81 9.97
9/13/2021 12:00:00 PM 18.1 64.58 0.069 7.53 0.75 9.97
9/13/2021 12:15:00 PM 18.15 64.67 0.069 7.51 0.82 9.97
9/13/2021 12:30:00 PM 18.24 64.832 0.069 7.58 0.91 10.08
9/13/2021 12:45:00 PM 18.36 65.048 0.069 7.66 0.84 10.09
9/13/2021 1:00:00 PM 18.38 65.084 0.069 7.66 0.88 10.07
9/13/2021 1:15:00 PM 18.61 65.498 0.069 7.71 0.88 10.19
9/13/2021 1:30:00 PM 18.81 65.858 0.069 7.84 0.86 10.25
9/13/2021 1:45:00 PM 18.95 66.11 0.069 7.92 0.77 10.29
9/13/2021 2:00:00 PM 19.21 66.578 0.069 8.01 0.77 10.32
9/13/2021 2:15:00 PM 19.41 66.938 0.068 8.07 0.85 10.32
9/13/2021 2:30:00 PM 19.66 67.388 0.068 8.14 0.75 10.33
9/13/2021 2:45:00 PM 19.9 67.82 0.068 8.21 0.72 10.32
9/13/2021 3:00:00 PM 20.01 68.018 0.068 8.2 0.87 10.28
9/13/2021 3:15:00 PM 20.16 68.288 0.068 8.25 0.7 10.25
9/13/2021 3:30:00 PM 20.27 68.486 0.068 8.3 1.33 10.18
9/13/2021 3:45:00 PM 20.22 68.396 0.068 8.23 1.27 10.06
9/13/2021 4:00:00 PM 20.26 68.468 0.067 8.21 1.19 10
9/13/2021 4:15:00 PM 20.23 68.414 0.067 8.13 1.22 9.86
9/13/2021 4:30:00 PM 20.19 68.342 0.068 7.97 1.23 9.75
9/13/2021 4:45:00 PM 20.17 68.306 0.068 7.93 1.33 9.67
9/13/2021 5:00:00 PM 20.19 68.342 0.068 7.9 1.21 9.66
9/13/2021 5:15:00 PM 20.25 68.45 0.068 7.89 1.29 9.66
9/13/2021 5:30:00 PM 20.15 68.27 0.068 7.81 1.18 9.5
9/13/2021 5:45:00 PM 20.1 68.18 0.068 7.72 1.2 9.43
9/13/2021 6:00:00 PM 20.08 68.144 0.068 7.67 1.27 9.35
9/13/2021 6:15:00 PM 20.04 68.07201 0.069 7.58 1.3 9.15
9/13/2021 6:30:00 PM 20.01 68.018 0.067 7.48 4.15 8.93
9/13/2021 6:45:00 PM 19.92 67.856 0.072 7.44 2.59 8.78
9/13/2021 7:00:00 PM 19.84 67.712 0.069 7.31 1.75 8.65
9/13/2021 7:15:00 PM 19.77 67.586 0.069 7.3 1.81 8.55
9/13/2021 7:30:00 PM 19.7 67.46 0.069 7.26 1.55 8.48
9/13/2021 7:45:00 PM 19.63 67.334 0.069 7.24 1.59 8.43
9/13/2021 8:00:00 PM 19.56 67.208 0.069 7.2 1.37 8.4
9/13/2021 8:15:00 PM 19.51 67.118 0.069 7.19 1.27 8.38
9/13/2021 8:30:00 PM 19.46 67.028 0.07 7.18 1.44 8.36
9/13/2021 8:45:00 PM 19.42 66.956 0.069 7.17 1.35 8.35
9/13/2021 9:00:00 PM 19.38 66.884 0.07 7.17 1.33 8.33
9/13/2021 9:15:00 PM 19.35 66.83 0.07 7.15 1.61 8.32
9/13/2021 9:30:00 PM 19.32 66.776 0.07 7.13 1.45 8.33
9/13/2021 9:45:00 PM 19.29 66.722 0.07 7.14 1.5 8.33
9/13/2021 10:00:00 PM 19.26 66.668 0.07 7.15 1.59 8.34
9/13/2021 10:15:00 PM 19.23 66.614 0.07 7.15 1.41 8.34
9/13/2021 10:30:00 PM 19.19 66.542 0.07 7.14 1.46 8.35
9/13/2021 10:45:00 PM 19.17 66.506 0.07 7.13 1.55 8.36
9/13/2021 11:00:00 PM 19.13 66.434 0.071 7.14 1.46 8.37
9/13/2021 11:15:00 PM 19.1 66.38 0.071 7.14 1.64 8.38
9/13/2021 11:30:00 PM 19.06 66.308 0.071 7.06 2.01 8.38
9/13/2021 11:45:00 PM 19.02 66.236 0.073 7.13 1.84 8.4
9/14/2021 12:00:00 AM 18.98 66.164 0.075 7.09 1.78 8.43
9/14/2021 12:15:00 AM 18.94 66.092 0.075 7.16 2.35 8.44
9/14/2021 12:30:00 AM 18.9 66.02 0.075 7.15 2.05 8.46
9/14/2021 12:45:00 AM 18.86 65.948 0.076 7.17 2.02 8.49
9/14/2021 1:00:00 AM 18.82 65.876 0.076 7.16 1.94 8.5
9/14/2021 1:15:00 AM 18.79 65.82201 0.076 7.17 1.87 8.52
9/14/2021 1:30:00 AM 18.75 65.75 0.076 7.15 1.77 8.52
9/14/2021 1:45:00 AM 18.7 65.66 0.076 7.15 1.85 8.54
9/14/2021 2:00:00 AM 18.67 65.606 0.076 7.16 1.98 8.55
9/14/2021 2:15:00 AM 18.63 65.534 0.076 7.16 1.94 8.56
9/14/2021 2:30:00 AM 18.59 65.462 0.076 7.16 2.17 8.57
9/14/2021 2:45:00 AM 18.55 65.39 0.076 7.15 1.85 8.58
9/14/2021 3:00:00 AM 18.51 65.318 0.076 7.14 1.9 8.58
9/14/2021 3:15:00 AM 18.47 65.246 0.075 7.09 1.98 8.6
9/14/2021 3:30:00 AM 18.44 65.192 0.075 7.14 1.86 8.6
9/14/2021 3:45:00 AM 18.4 65.12 0.075 7.13 1.78 8.61
9/14/2021 4:00:00 AM 18.36 65.048 0.075 7.13 1.98 8.61
9/14/2021 4:15:00 AM 18.32 64.976 0.075 7.13 1.77 8.62
9/14/2021 4:30:00 AM 18.29 64.922 0.075 7.13 1.71 8.63
9/14/2021 4:45:00 AM 18.25 64.85 0.075 7.12 1.8 8.63
9/14/2021 5:00:00 AM 18.22 64.796 0.075 7.13 1.73 8.64
9/14/2021 5:15:00 AM 18.19 64.742 0.075 7.07 1.71 8.64
9/14/2021 5:30:00 AM 18.16 64.688 0.075 7.12 1.79 8.65
9/14/2021 5:45:00 AM 18.13 64.634 0.074 7.13 1.87 8.65
9/14/2021 6:00:00 AM 18.1 64.58 0.075 7.13 2.18 8.65
9/14/2021 6:15:00 AM 18.07 64.526 0.075 7.13 2.54 8.66
9/14/2021 6:30:00 AM 18.05 64.49 0.075 7.12 2.08 8.67
9/14/2021 6:45:00 AM 18.02 64.436 0.075 7.12 2.22 8.67
9/14/2021 7:00:00 AM 18 64.4 0.075 7.13 2.39 8.69
9/14/2021 7:15:00 AM 17.98 64.364 0.074 7.13 2.38 8.71
9/14/2021 7:30:00 AM 17.96 64.328 0.074 7.14 2.49 8.74
9/14/2021 7:45:00 AM 17.94 64.292 0.074 7.15 2.47 8.79
9/14/2021 8:00:00 AM 17.94 64.292 0.074 7.14 2.56 8.85
9/14/2021 8:15:00 AM 17.93 64.274 0.074 7.17 2.4 8.89
9/14/2021 8:30:00 AM 17.93 64.274 0.074 7.18 2.32 8.97
9/14/2021 8:45:00 AM 17.94 64.292 0.074 7.21 2.5 9.07
9/14/2021 9:00:00 AM 17.95 64.31 0.073 7.2 2.41 9.16
9/14/2021 9:15:00 AM 17.99 64.382 0.073 7.25 1.91 9.3
9/14/2021 9:30:00 AM 18.04 64.472 0.073 7.3 2.03 9.45
9/14/2021 9:45:00 AM 18.12 64.616 0.072 7.35 1.99 9.62
9/14/2021 10:00:00 AM 18.18 64.724 0.072 7.4 1.97 9.76
9/14/2021 10:15:00 AM 18.29 64.922 0.072 7.46 1.75 9.87
9/14/2021 10:30:00 AM 18.38 65.084 0.071 7.51 1.88 9.96
9/14/2021 10:45:00 AM 18.49 65.282 0.071 7.57 2.13 10.03
9/14/2021 11:00:00 AM 18.58 65.444 0.071 7.62 2.06 10.06
9/14/2021 11:15:00 AM 18.64 65.552 0.071 7.63 1.91 10.05
9/14/2021 11:30:00 AM 18.73 65.714 0.071 7.68 2.14 10.08
9/14/2021 11:45:00 AM 18.85 65.93 0.07 7.75 1.62 10.13
9/14/2021 12:00:00 PM 18.99 66.182 0.07 7.81 1.78 10.17
9/14/2021 12:15:00 PM 19.13 66.434 0.07 7.88 1.61 10.18
9/14/2021 12:30:00 PM 19.36 66.848 0.07 7.97 1.6 10.23
9/14/2021 12:45:00 PM 19.55 67.19 0.07 8.03 1.6 10.22
9/14/2021 1:00:00 PM 19.71 67.478 0.07 8.05 1.64 10.19
9/14/2021 1:15:00 PM 19.85 67.73 0.07 8.1 1.59 10.15
9/14/2021 1:30:00 PM 20.01 68.018 0.07 8.14 1.59 10.15
9/14/2021 1:45:00 PM 20.24 68.432 0.069 8.18 1.72 10.14
9/14/2021 2:00:00 PM 20.37 68.666 0.069 8.22 1.86 10.11
9/14/2021 2:15:00 PM 20.58 69.044 0.069 8.25 1.59 10.1
9/14/2021 2:30:00 PM 20.65 69.17 0.069 8.27 1.46 10.05
9/14/2021 2:45:00 PM 20.72 69.296 0.069 8.28 1.3 10
9/14/2021 3:00:00 PM 20.77 69.386 0.063 8.28 1.38 9.96
9/14/2021 3:15:00 PM 20.92 69.656 0.069 8.31 1.46 9.94
9/14/2021 3:30:00 PM 21.05 69.89 0.069 8.35 1.4 9.94
9/14/2021 3:45:00 PM 21.07 69.926 0.069 8.37 1.38 9.91
9/14/2021 4:00:00 PM 21.07 69.926 0.069 8.33 1.4 9.84
9/14/2021 4:15:00 PM 21.1 69.98 0.069 8.31 1.35 9.8
9/14/2021 4:30:00 PM 21.17 70.106 0.069 8.31 1.46 9.78
9/14/2021 4:45:00 PM 21.24 70.232 0.069 8.29 1.47 9.73
9/14/2021 5:00:00 PM 21.22 70.196 0.069 8.25 1.59 9.67
9/14/2021 5:15:00 PM 21.22 70.196 0.069 8.18 1.45 9.6
9/14/2021 5:30:00 PM 21.17 70.106 0.069 8.12 1.44 9.51
9/14/2021 5:45:00 PM 21.11 69.998 0.069 8.03 1.07 9.4
9/14/2021 6:00:00 PM 21.05 69.89 0.07 7.92 1.27 9.28
9/14/2021 6:15:00 PM 20.97 69.746 0.07 7.79 1.2 9.13
9/14/2021 6:30:00 PM 20.89 69.602 0.07 7.67 1.41 8.97
9/14/2021 6:45:00 PM 20.81 69.458 0.07 7.56 1.37 8.83
9/14/2021 7:00:00 PM 20.73 69.314 0.071 7.48 1.28 8.72
9/14/2021 7:15:00 PM 20.64 69.152 0.071 7.38 1.18 8.61
9/14/2021 7:30:00 PM 20.56 69.008 0.071 7.35 1.3 8.5
9/14/2021 7:45:00 PM 20.47 68.846 0.071 7.34 1.62 8.4
9/14/2021 8:00:00 PM 20.4 68.72 0.072 7.31 1.44 8.33
9/14/2021 8:15:00 PM 20.33 68.594 0.072 7.28 1.69 8.27
9/14/2021 8:30:00 PM 20.26 68.468 0.072 7.26 1.62 8.24
9/14/2021 8:45:00 PM 20.19 68.342 0.072 7.24 1.58 8.21
9/14/2021 9:00:00 PM 20.12 68.216 0.072 7.21 1.64 8.19
9/14/2021 9:15:00 PM 20.06 68.108 0.072 7.2 2.29 8.18
9/14/2021 9:30:00 PM 20 68 0.072 7.18 1.58 8.18
9/14/2021 9:45:00 PM 19.93 67.874 0.072 7.2 1.76 8.18
9/14/2021 10:00:00 PM 19.87 67.766 0.072 7.19 1.58 8.18
9/14/2021 10:15:00 PM 19.82 67.676 0.073 7.19 1.64 8.18
9/14/2021 10:30:00 PM 19.76 67.568 0.073 7.11 1.66 8.18
9/14/2021 10:45:00 PM 19.7 67.46 0.073 7.17 1.56 8.18
9/14/2021 11:00:00 PM 19.65 67.37 0.073 7.12 1.57 8.19
9/14/2021 11:15:00 PM 19.59 67.262 0.073 7.15 1.61 8.2
9/14/2021 11:30:00 PM 19.54 67.172 0.073 7.16 1.64 8.2
9/14/2021 11:45:00 PM 19.48 67.064 0.073 7.15 1.71 8.21
9/15/2021 12:00:00 AM 19.43 66.974 0.073 7.15 1.48 8.22
9/15/2021 12:15:00 AM 19.37 66.866 0.073 7.12 1.48 8.24
9/15/2021 12:30:00 AM 19.31 66.758 0.073 7.14 1.73 8.25
9/15/2021 12:45:00 AM 19.26 66.668 0.073 7.14 1.58 8.26
9/15/2021 1:00:00 AM 19.2 66.56 0.073 7.13 1.64 8.27
9/15/2021 1:15:00 AM 19.15 66.47 0.073 7.11 2.24 8.28
9/15/2021 1:30:00 AM 19.1 66.38 0.073 7.14 1.79 8.29
9/15/2021 1:45:00 AM 19.05 66.29 0.074 7.08 1.72 8.3
9/15/2021 2:00:00 AM 19 66.2 0.074 7.13 1.76 8.31
9/15/2021 2:15:00 AM 18.95 66.11 0.074 7.12 1.7 8.33
9/15/2021 2:30:00 AM 18.9 66.02 0.074 7.12 1.75 8.33
9/15/2021 2:45:00 AM 18.86 65.948 0.074 7.12 1.66 8.35
9/15/2021 3:00:00 AM 18.82 65.876 0.074 7.14 1.71 8.36
9/15/2021 3:15:00 AM 18.79 65.82201 0.074 7.13 1.63 8.36
9/15/2021 3:30:00 AM 18.74 65.732 0.074 7.13 1.51 8.38
9/15/2021 3:45:00 AM 18.69 65.642 0.074 7.11 1.66 8.39
9/15/2021 4:00:00 AM 18.65 65.57 0.074 7.09 1.68 8.4
9/15/2021 4:15:00 AM 18.61 65.498 0.075 7.14 1.64 8.4
9/15/2021 4:30:00 AM 18.57 65.426 0.076 7.07 1.61 8.41
9/15/2021 4:45:00 AM 18.54 65.372 0.075 7.13 1.68 8.42
9/15/2021 5:00:00 AM 18.5 65.3 0.075 7.13 1.56 8.43
9/15/2021 5:15:00 AM 18.46 65.228 0.075 7.13 1.65 8.44
9/15/2021 5:30:00 AM 18.41 65.138 0.075 7.13 1.53 8.44
9/15/2021 5:45:00 AM 18.38 65.084 0.075 7.13 1.9 8.46
9/15/2021 6:00:00 AM 18.35 65.03 0.076 7.13 1.75 8.46
9/15/2021 6:15:00 AM 18.31 64.958 0.076 7.14 1.54 8.48
9/15/2021 6:30:00 AM 18.28 64.904 0.075 7.08 1.5 8.49
9/15/2021 6:45:00 AM 18.24 64.832 0.075 7.09 1.49 8.5
9/15/2021 7:00:00 AM 18.22 64.796 0.074 7.14 1.44 8.52
9/15/2021 7:15:00 AM 18.19 64.742 0.075 7.12 1.85 8.54
9/15/2021 7:30:00 AM 18.16 64.688 0.075 7.14 1.74 8.59
9/15/2021 7:45:00 AM 18.14 64.652 0.075 7.16 1.79 8.68
9/15/2021 8:00:00 AM 18.12 64.616 0.074 7.18 1.5 8.75
9/15/2021 8:15:00 AM 18.11 64.598 0.074 7.14 1.22 8.87
9/15/2021 8:30:00 AM 18.14 64.652 0.074 7.21 1.34 9.04
9/15/2021 8:45:00 AM 18.17 64.706 0.074 7.25 1.27 9.17
9/15/2021 9:00:00 AM 18.19 64.742 0.074 7.28 1.28 9.31
9/15/2021 9:15:00 AM 18.26 64.868 0.074 7.33 1.21 9.47
9/15/2021 9:30:00 AM 18.35 65.03 0.073 7.36 1.22 9.62
9/15/2021 9:45:00 AM 18.41 65.138 0.073 7.41 1.37 9.69
9/15/2021 10:00:00 AM 18.46 65.228 0.073 7.41 1.16 9.64
9/15/2021 10:15:00 AM 18.44 65.192 0.073 7.39 1.09 9.52
9/15/2021 10:30:00 AM 18.5 65.3 0.073 7.43 1.43 9.58
9/15/2021 10:45:00 AM 18.52 65.336 0.073 7.38 1.14 9.59
9/15/2021 11:00:00 AM 18.53 65.354 0.073 7.43 1.04 9.54
9/15/2021 11:15:00 AM 18.59 65.462 0.073 7.45 1.13 9.64
9/15/2021 11:30:00 AM 18.61 65.498 0.073 7.45 0.98 9.66
9/15/2021 11:45:00 AM 18.69 65.642 0.073 7.5 1.02 9.77
9/15/2021 12:00:00 PM 18.69 65.642 0.073 7.52 1.01 9.69
9/15/2021 12:15:00 PM 18.75 65.75 0.073 7.55 0.91 9.79
9/15/2021 12:30:00 PM 18.79 65.82201 0.072 7.56 0.94 9.76
9/15/2021 12:45:00 PM 18.8 65.84 0.072 7.53 1.03 9.73
9/15/2021 1:00:00 PM 18.8 65.84 0.072 7.55 1.1 9.63
9/15/2021 1:15:00 PM 18.79 65.82201 0.073 7.53 0.92 9.52
9/15/2021 1:30:00 PM 18.84 65.912 0.072 7.48 1.73 9.41
9/15/2021 1:45:00 PM 18.89 66.002 0.074 7.59 7.64 9.51
9/15/2021 2:00:00 PM 18.89 66.002 0.075 7.52 8.02 9.45
9/15/2021 2:15:00 PM 18.9 66.02 0.072 7.52 2.46 9.5
9/15/2021 2:30:00 PM 18.89 66.002 0.072 7.5 1.53 9.45
9/15/2021 2:45:00 PM 18.89 66.002 0.072 7.51 1.43 9.45
9/15/2021 3:00:00 PM 18.91 66.038 0.071 7.49 1.34 9.49
9/15/2021 3:15:00 PM 18.9 66.02 0.071 7.44 2.21 9.36
9/15/2021 3:30:00 PM 18.91 66.038 0.077 7.58 36.65 9.29
9/15/2021 3:45:00 PM 18.93 66.074 0.081 7.98 149.78 9.17
9/15/2021 4:00:00 PM 18.85 65.93 0.071 7.51 9.02 9.09
9/15/2021 4:15:00 PM 18.82 65.876 0.071 7.42 5.3 9.02
9/15/2021 4:30:00 PM 18.79 65.82201 0.071 7.37 2.91 9
9/15/2021 4:45:00 PM 18.76 65.768 0.07 7.36 2.19 8.96
9/15/2021 5:00:00 PM 18.74 65.732 0.072 7.34 3.08 8.95
9/15/2021 5:15:00 PM 18.71 65.67799 0.072 7.32 3.77 8.93
9/15/2021 5:30:00 PM 18.69 65.642 0.072 7.33 4.82 8.94
9/15/2021 5:45:00 PM 18.67 65.606 0.072 7.36 5.32 8.96
9/15/2021 6:00:00 PM 18.63 65.534 0.073 7.35 5.43 8.94
9/15/2021 6:15:00 PM 18.58 65.444 0.073 7.32 7.35 8.91
9/15/2021 6:30:00 PM 18.51 65.318 0.074 7.31 9.08 8.88
9/15/2021 6:45:00 PM 18.44 65.192 0.074 7.29 9.82 8.87
9/15/2021 7:00:00 PM 18.37 65.066 0.074 7.27 9.66 8.85
9/15/2021 7:15:00 PM 18.3 64.94 0.074 7.28 9.44 8.83
9/15/2021 7:30:00 PM 18.23 64.814 0.073 7.27 8.63 8.82
9/15/2021 7:45:00 PM 18.15 64.67 0.073 7.27 16.11 8.81
9/15/2021 8:00:00 PM 18.06 64.508 0.074 7.26 10.61 8.82
9/15/2021 8:15:00 PM 17.98 64.364 0.075 7.23 11.99 8.83
9/15/2021 8:30:00 PM 17.9 64.22 0.075 7.19 11.58 8.84
9/15/2021 8:45:00 PM 17.84 64.112 0.076 7.21 11.89 8.85
9/15/2021 9:00:00 PM 17.78 64.004 0.076 7.22 12.48 8.86
9/15/2021 9:15:00 PM 17.72 63.896 0.076 7.21 14.95 8.88
9/15/2021 9:30:00 PM 17.69 63.842 0.075 7.18 21.84 8.89
9/15/2021 9:45:00 PM 17.63 63.734 0.074 7.18 29.48 8.91
9/15/2021 10:00:00 PM 17.58 63.644 0.074 7.17 28.33 8.93
9/15/2021 10:15:00 PM 17.54 63.572 0.074 7.19 37.34 8.94
9/15/2021 10:30:00 PM 17.51 63.518 0.074 7.17 44.69 8.95
9/15/2021 10:45:00 PM 17.47 63.446 0.074 7.21 36.34 8.96
9/15/2021 11:00:00 PM 17.43 63.374 0.074 7.22 34.75 8.98
9/15/2021 11:15:00 PM 17.4 63.32 0.075 7.2 36.58 8.98
9/15/2021 11:30:00 PM 17.36 63.248 0.075 7.22 26.63 8.99
9/15/2021 11:45:00 PM 17.33 63.194 0.075 7.22 19.94 9
9/16/2021 12:00:00 AM 17.29 63.122 0.075 7.22 22.51 9.01
9/16/2021 12:15:00 AM 17.25 63.05 0.074 7.21 19.74 9.02
9/16/2021 12:30:00 AM 17.21 62.978 0.074 7.21 18.83 9.03
9/16/2021 12:45:00 AM 17.17 62.906 0.073 7.17 18.27 9.04
9/16/2021 1:00:00 AM 17.13 62.834 0.073 7.19 17.93 9.05
9/16/2021 1:15:00 AM 17.08 62.744 0.073 7.2 17.53 9.06
9/16/2021 1:30:00 AM 17.04 62.672 0.072 7.2 16.47 9.07
9/16/2021 1:45:00 AM 17 62.6 0.072 7.19 15.9 9.08
9/16/2021 2:00:00 AM 16.96 62.528 0.072 7.19 15.01 9.08
9/16/2021 2:15:00 AM 16.92 62.456 0.072 7.15 14.56 9.09
9/16/2021 2:30:00 AM 16.88 62.384 0.072 7.19 14.27 9.1
9/16/2021 2:45:00 AM 16.84 62.312 0.072 7.19 13.63 9.11
9/16/2021 3:00:00 AM 16.8 62.24 0.072 7.21 13.19 9.11
9/16/2021 3:15:00 AM 16.77 62.186 0.072 7.14 12.71 9.12
9/16/2021 3:30:00 AM 16.73 62.114 0.072 7.21 12.49 9.13
9/16/2021 3:45:00 AM 16.69 62.042 0.072 7.21 12 9.13
9/16/2021 4:00:00 AM 16.65 61.97 0.072 7.2 11.55 9.14
9/16/2021 4:15:00 AM 16.61 61.898 0.072 7.21 11.53 9.15
9/16/2021 4:30:00 AM 16.56 61.808 0.073 7.2 10.82 9.16
9/16/2021 4:45:00 AM 16.52 61.736 0.073 7.22 10.21 9.17
9/16/2021 5:00:00 AM 16.47 61.646 0.073 7.22 10.6 9.18
9/16/2021 5:15:00 AM 16.42 61.556 0.073 7.22 10.12 9.19
9/16/2021 5:30:00 AM 16.38 61.484 0.073 7.22 9.55 9.2
9/16/2021 5:45:00 AM 16.33 61.394 0.073 7.21 9.35 9.21
9/16/2021 6:00:00 AM 16.29 61.322 0.074 7.17 8.95 9.22
9/16/2021 6:15:00 AM 16.25 61.25 0.074 7.21 8.82 9.23
9/16/2021 6:30:00 AM 16.21 61.178 0.074 7.2 8.42 9.24
9/16/2021 6:45:00 AM 16.16 61.088 0.074 7.2 8.5 9.25
9/16/2021 7:00:00 AM 16.12 61.016 0.074 7.21 7.67 9.27
9/16/2021 7:15:00 AM 16.08 60.944 0.074 7.21 7.77 9.29
9/16/2021 7:30:00 AM 16.04 60.872 0.074 7.21 7.25 9.32
9/16/2021 7:45:00 AM 16.01 60.818 0.074 7.21 7.12 9.36
9/16/2021 8:00:00 AM 15.99 60.782 0.074 7.23 6.84 9.41
9/16/2021 8:15:00 AM 15.97 60.746 0.074 7.25 6.37 9.46
9/16/2021 8:30:00 AM 15.96 60.728 0.075 7.22 6.12 9.52
9/16/2021 8:45:00 AM 15.96 60.728 0.075 7.27 5.51 9.61
9/16/2021 9:00:00 AM 15.96 60.728 0.075 7.27 5.22 9.68
9/16/2021 9:15:00 AM 15.98 60.764 0.075 7.28 5.11 9.77
9/16/2021 9:30:00 AM 16.01 60.818 0.075 7.35 4.81 9.87
9/16/2021 9:45:00 AM 16.05 60.89 0.075 7.39 5.98 9.97
9/16/2021 10:00:00 AM 16.1 60.98 0.074 7.43 4.3 10.04
9/16/2021 10:15:00 AM 16.14 61.052 0.074 7.45 4.35 10.11
9/16/2021 10:30:00 AM 16.23 61.214 0.074 7.49 3.95 10.18
9/16/2021 10:45:00 AM 16.31 61.358 0.074 7.53 3.75 10.23
9/16/2021 11:00:00 AM 16.39 61.502 0.074 7.57 3.77 10.23
9/16/2021 11:15:00 AM 16.52 61.736 0.075 7.58 3.58 10.21
9/16/2021 11:30:00 AM 16.69 62.042 0.074 7.63 3.41 10.29
9/16/2021 11:45:00 AM 16.82 62.276 0.074 7.66 3.26 10.31
9/16/2021 12:00:00 PM 16.98 62.564 0.074 7.7 3.42 10.35
9/16/2021 12:15:00 PM 17.1 62.78 0.074 7.76 3.11 10.39
9/16/2021 12:30:00 PM 17.25 63.05 0.074 7.8 3.1 10.39
9/16/2021 12:45:00 PM 17.37 63.266 0.074 7.82 3.01 10.4
9/16/2021 1:00:00 PM 17.45 63.41 0.074 7.86 2.92 10.37
9/16/2021 1:15:00 PM 17.55 63.59 0.074 7.87 2.87 10.33
9/16/2021 1:30:00 PM 17.63 63.734 0.074 7.88 2.7 10.3
9/16/2021 1:45:00 PM 17.82 64.076 0.074 7.93 2.87 10.34
9/16/2021 2:00:00 PM 17.99 64.382 0.074 7.94 2.64 10.28
9/16/2021 2:15:00 PM 18.11 64.598 0.074 7.91 2.86 10.2
9/16/2021 2:30:00 PM 18.26 64.868 0.074 7.93 2.6 10.18
9/16/2021 2:45:00 PM 18.43 65.174 0.073 7.96 2.49 10.19
9/16/2021 3:00:00 PM 18.5 65.3 0.073 7.97 2.33 10.16
9/16/2021 3:15:00 PM 18.53 65.354 0.074 7.94 2.39 10.12
9/16/2021 3:30:00 PM 18.62 65.516 0.074 7.95 2.39 10.08
9/16/2021 3:45:00 PM 18.7 65.66 0.074 7.93 2.6 10.01
9/16/2021 4:00:00 PM 18.68 65.624 0.073 7.9 2.82 9.94
9/16/2021 4:15:00 PM 18.71 65.67799 0.074 7.8 2.72 9.81
9/16/2021 4:30:00 PM 18.75 65.75 0.074 7.8 2.35 9.75
9/16/2021 4:45:00 PM 18.78 65.804 0.074 7.78 2.26 9.74
9/16/2021 5:00:00 PM 18.8 65.84 0.074 7.75 2.34 9.72
9/16/2021 5:15:00 PM 18.82 65.876 0.074 7.73 2.21 9.68
9/16/2021 5:30:00 PM 18.83 65.894 0.074 7.7 2.32 9.59
9/16/2021 5:45:00 PM 18.83 65.894 0.074 7.64 2.21 9.49
9/16/2021 6:00:00 PM 18.8 65.84 0.074 7.57 2.13 9.37
9/16/2021 6:15:00 PM 18.75 65.75 0.074 7.52 2.24 9.25
9/16/2021 6:30:00 PM 18.7 65.66 0.075 7.45 1.93 9.14
9/16/2021 6:45:00 PM 18.64 65.552 0.075 7.39 2.06 9.04
9/16/2021 7:00:00 PM 18.59 65.462 0.075 7.37 2.09 8.97
9/16/2021 7:15:00 PM 18.54 65.372 0.075 7.33 2.2 8.9
9/16/2021 7:30:00 PM 18.49 65.282 0.075 7.3 2.26 8.86
9/16/2021 7:45:00 PM 18.44 65.192 0.075 7.28 2.37 8.82
9/16/2021 8:00:00 PM 18.4 65.12 0.076 7.23 2.22 8.8
9/16/2021 8:15:00 PM 18.36 65.048 0.075 7.23 2.23 8.79
9/16/2021 8:30:00 PM 18.31 64.958 0.076 7.24 2.29 8.77
9/16/2021 8:45:00 PM 18.27 64.886 0.076 7.24 2.18 8.77
9/16/2021 9:00:00 PM 18.22 64.796 0.076 7.22 2.32 8.77
9/16/2021 9:15:00 PM 18.18 64.724 0.076 7.22 2.39 8.77
9/16/2021 9:30:00 PM 18.14 64.652 0.076 7.19 2.25 8.78
9/16/2021 9:45:00 PM 18.09 64.562 0.076 7.19 2.33 8.79
9/16/2021 10:00:00 PM 18.05 64.49 0.076 7.21 2.41 8.79
9/16/2021 10:15:00 PM 18 64.4 0.076 7.18 2.18 8.79
9/16/2021 10:30:00 PM 17.95 64.31 0.076 7.2 2.38 8.81
9/16/2021 10:45:00 PM 17.91 64.238 0.076 7.17 2.36 8.81
9/16/2021 11:00:00 PM 17.87 64.166 0.076 7.19 2.23 8.83
9/16/2021 11:15:00 PM 17.82 64.076 0.076 7.18 2.19 8.83
9/16/2021 11:30:00 PM 17.78 64.004 0.076 7.15 2.16 8.84
9/16/2021 11:45:00 PM 17.74 63.932 0.076 7.19 2.26 8.86
9/17/2021 12:00:00 AM 17.69 63.842 0.076 7.15 2.37 8.86
9/17/2021 12:15:00 AM 17.66 63.788 0.076 7.19 2.23 8.86
9/17/2021 12:30:00 AM 17.63 63.734 0.076 7.18 2.15 8.87
9/17/2021 12:45:00 AM 17.59 63.662 0.076 7.16 2.37 8.88
9/17/2021 1:00:00 AM 17.55 63.59 0.076 7.17 2.61 8.89
9/17/2021 1:15:00 AM 17.51 63.518 0.076 7.17 2.21 8.9
9/17/2021 1:30:00 AM 17.47 63.446 0.077 7.18 2.2 8.9
9/17/2021 1:45:00 AM 17.44 63.392 0.077 7.18 2.34 8.91
9/17/2021 2:00:00 AM 17.39 63.302 0.076 7.15 2.43 8.92
9/17/2021 2:15:00 AM 17.36 63.248 0.076 7.15 2.26 8.93
9/17/2021 2:30:00 AM 17.33 63.194 0.077 7.18 2.25 8.93
9/17/2021 2:45:00 AM 17.3 63.14 0.077 7.14 2.37 8.94
9/17/2021 3:00:00 AM 17.27 63.086 0.076 7.17 2.53 8.94
9/17/2021 3:15:00 AM 17.24 63.032 0.077 7.17 2.09 8.95
9/17/2021 3:30:00 AM 17.21 62.978 0.077 7.15 2.12 8.96
9/17/2021 3:45:00 AM 17.18 62.924 0.076 7.17 2.17 8.97
9/17/2021 4:00:00 AM 17.16 62.888 0.076 7.15 2.14 8.97
9/17/2021 4:15:00 AM 17.11 62.798 0.077 7.15 2.25 8.98
9/17/2021 4:30:00 AM 17.08 62.744 0.076 7.13 2.32 8.99
9/17/2021 4:45:00 AM 17.05 62.69 0.076 7.12 2.29 9
9/17/2021 5:00:00 AM 17.02 62.636 0.076 7.16 2.18 9.01
9/17/2021 5:15:00 AM 16.99 62.582 0.077 7.16 2.03 9.01
9/17/2021 5:30:00 AM 16.97 62.546 0.076 7.13 1.92 9.02
9/17/2021 5:45:00 AM 16.96 62.528 0.076 7.15 2.16 9.03
9/17/2021 6:00:00 AM 16.93 62.474 0.076 7.16 2.09 9.03
9/17/2021 6:15:00 AM 16.92 62.456 0.076 7.17 2.07 9.04
9/17/2021 6:30:00 AM 16.9 62.42 0.076 7.15 1.96 9.05
9/17/2021 6:45:00 AM 16.88 62.384 0.076 7.16 2.14 9.06
9/17/2021 7:00:00 AM 16.86 62.348 0.077 7.16 1.91 9.06
9/17/2021 7:15:00 AM 16.85 62.33 0.076 7.14 2.05 9.08
9/17/2021 7:30:00 AM 16.84 62.312 0.076 7.17 1.91 9.09
9/17/2021 7:45:00 AM 16.82 62.276 0.077 7.16 1.72 9.12
9/17/2021 8:00:00 AM 16.82 62.276 0.076 7.17 1.74 9.16
9/17/2021 8:15:00 AM 16.82 62.276 0.076 7.19 1.63 9.22
9/17/2021 8:30:00 AM 16.83 62.294 0.076 7.19 1.52 9.3
9/17/2021 8:45:00 AM 16.84 62.312 0.076 7.21 1.53 9.37
9/17/2021 9:00:00 AM 16.87 62.366 0.076 7.23 1.5 9.43
9/17/2021 9:15:00 AM 16.89 62.402 0.076 7.26 1.53 9.52
9/17/2021 9:30:00 AM 16.92 62.456 0.076 7.28 1.45 9.59
9/17/2021 9:45:00 AM 16.95 62.51 0.076 7.31 1.47 9.64
9/17/2021 10:00:00 AM 17 62.6 0.075 7.34 1.28 9.74
9/17/2021 10:15:00 AM 17.04 62.672 0.075 7.36 1.34 9.81
9/17/2021 10:30:00 AM 17.11 62.798 0.075 7.4 1.34 9.9
9/17/2021 10:45:00 AM 17.19 62.942 0.075 7.43 1.28 10.01
9/17/2021 11:00:00 AM 17.26 63.068 0.075 7.5 1.29 10.07
9/17/2021 11:15:00 AM 17.32 63.176 0.074 7.53 1.22 10.08
9/17/2021 11:30:00 AM 17.4 63.32 0.074 7.57 1.28 10.1
9/17/2021 11:45:00 AM 17.47 63.446 0.074 7.59 1.24 10.14
9/17/2021 12:00:00 PM 17.57 63.626 0.074 7.64 1.19 10.19
9/17/2021 12:15:00 PM 17.66 63.788 0.074 7.69 1.21 10.22
9/17/2021 12:30:00 PM 17.78 64.004 0.074 7.75 1.17 10.27
9/17/2021 12:45:00 PM 17.93 64.274 0.074 7.82 1.2 10.33
9/17/2021 1:00:00 PM 18.12 64.616 0.073 7.91 1.33 10.38
9/17/2021 1:15:00 PM 18.35 65.03 0.073 8 1.2 10.41
9/17/2021 1:30:00 PM 18.57 65.426 0.073 8.09 1.16 10.43
9/17/2021 1:45:00 PM 18.75 65.75 0.073 8.13 1.15 10.42
9/17/2021 2:00:00 PM 18.92 66.056 0.073 8.14 1.15 10.35
9/17/2021 2:15:00 PM 19.16 66.488 0.073 8.18 1.08 10.32
9/17/2021 2:30:00 PM 19.37 66.866 0.072 8.22 1.29 10.3
9/17/2021 2:45:00 PM 19.36 66.848 0.073 8.21 1.12 10.2
9/17/2021 3:00:00 PM 19.43 66.974 0.073 8.18 1.2 10.11
9/17/2021 3:15:00 PM 19.64 67.352 0.072 8.18 1.13 10.1
9/17/2021 3:30:00 PM 19.71 67.478 0.072 8.12 1.16 10.04
9/17/2021 3:45:00 PM 19.76 67.568 0.073 8.15 1.08 9.96
9/17/2021 4:00:00 PM 19.85 67.73 0.072 8.12 1.06 9.95
9/17/2021 4:15:00 PM 19.86 67.748 0.072 8.09 1.05 9.89
9/17/2021 4:30:00 PM 19.77 67.586 0.073 7.98 1.01 9.74
9/17/2021 4:45:00 PM 19.73 67.514 0.073 7.93 1.18 9.68
9/17/2021 5:00:00 PM 19.83 67.694 0.073 7.89 1.05 9.65
9/17/2021 5:15:00 PM 19.78 67.604 0.073 7.8 1.01 9.53
9/17/2021 5:30:00 PM 19.8 67.64 0.073 7.76 1.11 9.46
9/17/2021 5:45:00 PM 19.76 67.568 0.073 7.64 1.04 9.36
9/17/2021 6:00:00 PM 19.76 67.568 0.073 7.65 1.11 9.28
9/17/2021 6:15:00 PM 19.73 67.514 0.073 7.57 1.03 9.16
9/17/2021 6:30:00 PM 19.67 67.406 0.073 7.52 1.1 9.05
9/17/2021 6:45:00 PM 19.61 67.298 0.073 7.47 1.08 8.96
9/17/2021 7:00:00 PM 19.55 67.19 0.074 7.42 1.26 8.88
9/17/2021 7:15:00 PM 19.48 67.064 0.074 7.38 1.25 8.8
9/17/2021 7:30:00 PM 19.42 66.956 0.074 7.34 1.12 8.73
9/17/2021 7:45:00 PM 19.35 66.83 0.074 7.3 1.4 8.66
9/17/2021 8:00:00 PM 19.29 66.722 0.074 7.28 1.39 8.62
9/17/2021 8:15:00 PM 19.23 66.614 0.074 7.27 1.66 8.58
9/17/2021 8:30:00 PM 19.16 66.488 0.074 7.25 1.59 8.56
9/17/2021 8:45:00 PM 19.1 66.38 0.075 7.23 1.81 8.56
9/17/2021 9:00:00 PM 19.04 66.272 0.075 7.22 1.44 8.55
9/17/2021 9:15:00 PM 18.98 66.164 0.075 7.21 1.47 8.55
9/17/2021 9:30:00 PM 18.93 66.074 0.074 7.16 1.46 8.55
9/17/2021 9:45:00 PM 18.87 65.966 0.075 7.2 1.47 8.55
9/17/2021 10:00:00 PM 18.82 65.876 0.075 7.2 1.44 8.56
9/17/2021 10:15:00 PM 18.78 65.804 0.075 7.18 1.54 8.57
9/17/2021 10:30:00 PM 18.74 65.732 0.075 7.17 1.45 8.57
9/17/2021 10:45:00 PM 18.7 65.66 0.075 7.14 1.39 8.59
9/17/2021 11:00:00 PM 18.66 65.588 0.075 7.17 1.4 8.59
9/17/2021 11:15:00 PM 18.62 65.516 0.075 7.18 1.55 8.6
9/17/2021 11:30:00 PM 18.58 65.444 0.075 7.18 1.95 8.61
9/17/2021 11:45:00 PM 18.53 65.354 0.075 7.15 1.47 8.62
9/18/2021 12:00:00 AM 18.48 65.264 0.075 7.18 1.67 8.63
9/18/2021 12:15:00 AM 18.43 65.174 0.076 7.18 1.49 8.64
9/18/2021 12:30:00 AM 18.38 65.084 0.076 7.18 1.47 8.65
9/18/2021 12:45:00 AM 18.33 64.994 0.076 7.12 1.5 8.66
9/18/2021 1:00:00 AM 18.29 64.922 0.076 7.18 1.59 8.67
9/18/2021 1:15:00 AM 18.25 64.85 0.076 7.18 1.62 8.68
9/18/2021 1:30:00 AM 18.22 64.796 0.076 7.19 1.54 8.69
9/18/2021 1:45:00 AM 18.17 64.706 0.076 7.19 1.65 8.7
9/18/2021 2:00:00 AM 18.13 64.634 0.076 7.18 1.73 8.7
9/18/2021 2:15:00 AM 18.1 64.58 0.076 7.19 1.62 8.72
9/18/2021 2:30:00 AM 18.06 64.508 0.076 7.18 1.7 8.72
9/18/2021 2:45:00 AM 18.03 64.454 0.076 7.16 2.07 8.73
9/18/2021 3:00:00 AM 17.99 64.382 0.076 7.19 1.77 8.74
9/18/2021 3:15:00 AM 17.96 64.328 0.076 7.18 1.73 8.74
9/18/2021 3:30:00 AM 17.93 64.274 0.076 7.18 1.78 8.74
9/18/2021 3:45:00 AM 17.9 64.22 0.076 7.19 2.06 8.75
9/18/2021 4:00:00 AM 17.87 64.166 0.076 7.18 1.74 8.76
9/18/2021 4:15:00 AM 17.84 64.112 0.076 7.17 1.75 8.77
9/18/2021 4:30:00 AM 17.81 64.058 0.076 7.19 1.71 8.77
9/18/2021 4:45:00 AM 17.79 64.022 0.076 7.17 1.65 8.79
9/18/2021 5:00:00 AM 17.76 63.968 0.076 7.14 1.7 8.8
9/18/2021 5:15:00 AM 17.73 63.914 0.076 7.19 2.01 8.8
9/18/2021 5:30:00 AM 17.7 63.86 0.076 7.16 1.83 8.8
9/18/2021 5:45:00 AM 17.67 63.806 0.077 7.19 1.75 8.81
9/18/2021 6:00:00 AM 17.63 63.734 0.077 7.16 1.89 8.83
9/18/2021 6:15:00 AM 17.61 63.698 0.076 7.15 1.77 8.83
9/18/2021 6:30:00 AM 17.58 63.644 0.076 7.16 1.68 8.84
9/18/2021 6:45:00 AM 17.55 63.59 0.076 7.18 1.56 8.85
9/18/2021 7:00:00 AM 17.52 63.536 0.076 7.18 1.37 8.87
9/18/2021 7:15:00 AM 17.5 63.5 0.076 7.17 1.37 8.9
9/18/2021 7:30:00 AM 17.47 63.446 0.076 7.2 1.41 8.94
9/18/2021 7:45:00 AM 17.45 63.41 0.076 7.2 1.37 8.96
9/18/2021 8:00:00 AM 17.44 63.392 0.076 7.2 1.38 9
9/18/2021 8:15:00 AM 17.42 63.356 0.076 7.18 1.37 9.07
9/18/2021 8:30:00 AM 17.4 63.32 0.076 7.23 1.26 9.13
9/18/2021 8:45:00 AM 17.4 63.32 0.075 7.24 1.25 9.25
9/18/2021 9:00:00 AM 17.41 63.338 0.075 7.25 1.09 9.36
9/18/2021 9:15:00 AM 17.41 63.338 0.075 7.3 1.26 9.45
9/18/2021 9:30:00 AM 17.44 63.392 0.075 7.34 1.27 9.57
9/18/2021 9:45:00 AM 17.49 63.482 0.075 7.38 1.07 9.67
9/18/2021 10:00:00 AM 17.54 63.572 0.075 7.37 0.99 9.71
9/18/2021 10:15:00 AM 17.6 63.68 0.074 7.4 1.01 9.74
9/18/2021 10:30:00 AM 17.7 63.86 0.074 7.44 0.94 9.79
9/18/2021 10:45:00 AM 17.82 64.076 0.074 7.44 1.09 9.81
9/18/2021 11:00:00 AM 17.98 64.364 0.074 7.53 0.99 9.88
9/18/2021 11:15:00 AM 18.14 64.652 0.074 7.55 1.04 9.91
9/18/2021 11:30:00 AM 18.33 64.994 0.074 7.58 0.87 9.98
9/18/2021 11:45:00 AM 18.51 65.318 0.073 7.64 0.9 10.04
9/18/2021 12:00:00 PM 18.62 65.516 0.073 7.7 0.94 10.07
9/18/2021 12:15:00 PM 18.86 65.948 0.074 7.8 0.92 10.15
9/18/2021 12:30:00 PM 19.04 66.272 0.073 7.86 0.86 10.16
9/18/2021 12:45:00 PM 19.31 66.758 0.073 7.92 0.86 10.22
9/18/2021 1:00:00 PM 19.54 67.172 0.073 8.04 0.87 10.2
9/18/2021 1:15:00 PM 19.69 67.442 0.073 8.05 0.92 10.17
9/18/2021 1:30:00 PM 19.94 67.892 0.072 8.11 0.86 10.13
9/18/2021 1:45:00 PM 20.09 68.162 0.072 8.16 0.92 10.1
9/18/2021 2:00:00 PM 20.13 68.234 0.072 8.13 0.8 10
9/18/2021 2:15:00 PM 20.17 68.306 0.072 8.13 0.79 9.96
9/18/2021 2:30:00 PM 20.17 68.306 0.072 8.11 0.84 9.93
9/18/2021 2:45:00 PM 20.17 68.306 0.072 8.04 0.82 9.78
9/18/2021 3:00:00 PM 20.17 68.306 0.072 8.03 0.87 9.81
9/18/2021 3:15:00 PM 20.27 68.486 0.072 8.09 0.77 9.85
9/18/2021 3:30:00 PM 20.28 68.504 0.072 8.12 0.85 9.87
9/18/2021 3:45:00 PM 20.39 68.702 0.072 8.16 0.81 9.9
9/18/2021 4:00:00 PM 20.39 68.702 0.072 8.15 0.68 9.84
9/18/2021 4:15:00 PM 20.44 68.792 0.072 8.15 0.96 9.86
9/18/2021 4:30:00 PM 20.5 68.9 0.072 8.18 0.85 9.82
9/18/2021 4:45:00 PM 20.54 68.972 0.072 8.16 0.86 9.76
9/18/2021 5:00:00 PM 20.57 69.026 0.071 8.13 0.87 9.71
9/18/2021 5:15:00 PM 20.47 68.846 0.071 7.98 0.97 9.54
9/18/2021 5:30:00 PM 20.43 68.774 0.071 7.89 0.87 9.44
9/18/2021 5:45:00 PM 20.4 68.72 0.071 7.81 1 9.35
9/18/2021 6:00:00 PM 20.34 68.612 0.072 7.75 0.77 9.23
9/18/2021 6:15:00 PM 20.25 68.45 0.072 7.64 0.89 9.09
9/18/2021 6:30:00 PM 20.2 68.36 0.072 7.58 0.93 8.99
9/18/2021 6:45:00 PM 20.14 68.252 0.072 7.53 0.8 8.89
9/18/2021 7:00:00 PM 20.09 68.162 0.073 7.48 0.97 8.78
9/18/2021 7:15:00 PM 20.05 68.09 0.073 7.44 0.91 8.68
9/18/2021 7:30:00 PM 20.01 68.018 0.073 7.39 1.01 8.59
9/18/2021 7:45:00 PM 19.97 67.946 0.073 7.37 0.98 8.51
9/18/2021 8:00:00 PM 19.93 67.874 0.073 7.33 1.24 8.45
9/18/2021 8:15:00 PM 19.88 67.784 0.074 7.31 1.1 8.41
9/18/2021 8:30:00 PM 19.83 67.694 0.074 7.29 1.24 8.39
9/18/2021 8:45:00 PM 19.77 67.586 0.074 7.27 1.19 8.37
9/18/2021 9:00:00 PM 19.7 67.46 0.074 7.2 1.2 8.37
9/18/2021 9:15:00 PM 19.63 67.334 0.074 7.23 1.21 8.37
9/18/2021 9:30:00 PM 19.56 67.208 0.074 7.21 1.28 8.38
9/18/2021 9:45:00 PM 19.49 67.082 0.074 7.21 1.3 8.38
9/18/2021 10:00:00 PM 19.42 66.956 0.074 7.21 1.15 8.39
9/18/2021 10:15:00 PM 19.34 66.812 0.074 7.2 1.15 8.41
9/18/2021 10:30:00 PM 19.27 66.686 0.074 7.19 1.31 8.41
9/18/2021 10:45:00 PM 19.19 66.542 0.074 7.17 1.19 8.43
9/18/2021 11:00:00 PM 19.11 66.398 0.074 7.19 1.32 8.44
9/18/2021 11:15:00 PM 19.03 66.254 0.074 7.18 1.26 8.46
9/18/2021 11:30:00 PM 18.95 66.11 0.074 7.18 1.25 8.48
9/18/2021 11:45:00 PM 18.87 65.966 0.075 7.17 1.26 8.5
9/19/2021 12:00:00 AM 18.77 65.786 0.075 7.18 1.18 8.52
9/19/2021 12:15:00 AM 18.68 65.624 0.075 7.17 1.26 8.53
9/19/2021 12:30:00 AM 18.6 65.48 0.075 7.15 1.25 8.56
9/19/2021 12:45:00 AM 18.53 65.354 0.075 7.15 1.18 8.57
9/19/2021 1:00:00 AM 18.44 65.192 0.075 7.17 1.35 8.59
9/19/2021 1:15:00 AM 18.35 65.03 0.075 7.13 1.28 8.62
9/19/2021 1:30:00 AM 18.27 64.886 0.075 7.15 1.41 8.63
9/19/2021 1:45:00 AM 18.19 64.742 0.075 7.18 1.29 8.64
9/19/2021 2:00:00 AM 18.12 64.616 0.075 7.18 1.25 8.66
9/19/2021 2:15:00 AM 18.04 64.472 0.075 7.14 1.23 8.69
9/19/2021 2:30:00 AM 17.97 64.346 0.075 7.16 1.22 8.7
9/19/2021 2:45:00 AM 17.89 64.202 0.075 7.17 1.45 8.72
9/19/2021 3:00:00 AM 17.82 64.076 0.075 7.17 1.27 8.74
9/19/2021 3:15:00 AM 17.75 63.95 0.076 7.17 1.26 8.75
9/19/2021 3:30:00 AM 17.67 63.806 0.076 7.18 1.29 8.78
9/19/2021 3:45:00 AM 17.61 63.698 0.076 7.18 1.36 8.79
9/19/2021 4:00:00 AM 17.53 63.554 0.075 7.18 1.58 8.8
9/19/2021 4:15:00 AM 17.48 63.464 0.075 7.17 1.46 8.82
9/19/2021 4:30:00 AM 17.43 63.374 0.075 7.19 1.4 8.83
9/19/2021 4:45:00 AM 17.36 63.248 0.075 7.18 1.41 8.85
9/19/2021 5:00:00 AM 17.31 63.158 0.075 7.18 1.51 8.86
9/19/2021 5:15:00 AM 17.24 63.032 0.075 7.16 1.54 8.87
9/19/2021 5:30:00 AM 17.19 62.942 0.075 7.17 1.42 8.89
9/19/2021 5:45:00 AM 17.14 62.852 0.075 7.19 1.26 8.91
9/19/2021 6:00:00 AM 17.09 62.762 0.075 7.2 1.55 8.91
9/19/2021 6:15:00 AM 17.04 62.672 0.075 7.2 1.37 8.93
9/19/2021 6:30:00 AM 16.98 62.564 0.075 7.16 1.27 8.95
9/19/2021 6:45:00 AM 16.93 62.474 0.075 7.19 1.29 8.96
9/19/2021 7:00:00 AM 16.88 62.384 0.075 7.19 1.39 8.98
9/19/2021 7:15:00 AM 16.83 62.294 0.075 7.2 1.31 9.01
9/19/2021 7:30:00 AM 16.78 62.204 0.075 7.2 1.11 9.04
9/19/2021 7:45:00 AM 16.75 62.15 0.075 7.21 1.2 9.08
9/19/2021 8:00:00 AM 16.7 62.06 0.075 7.16 1.17 9.14
9/19/2021 8:15:00 AM 16.66 61.988 0.075 7.19 1.15 9.22
9/19/2021 8:30:00 AM 16.63 61.934 0.075 7.25 1.13 9.31
9/19/2021 8:45:00 AM 16.6 61.88 0.075 7.24 0.99 9.4
9/19/2021 9:00:00 AM 16.58 61.844 0.075 7.29 1.02 9.51
9/19/2021 9:15:00 AM 16.56 61.808 0.075 7.32 0.91 9.63
9/19/2021 9:30:00 AM 16.55 61.79 0.074 7.33 0.92 9.73
9/19/2021 9:45:00 AM 16.56 61.808 0.074 7.38 0.89 9.86
9/19/2021 10:00:00 AM 16.57 61.826 0.074 7.41 0.94 9.99
9/19/2021 10:15:00 AM 16.58 61.844 0.074 7.46 0.97 10.09
9/19/2021 10:30:00 AM 16.6 61.88 0.074 7.51 0.88 10.18
9/19/2021 10:45:00 AM 16.63 61.934 0.074 7.56 0.94 10.27
9/19/2021 11:00:00 AM 16.69 62.042 0.073 7.63 0.83 10.39
9/19/2021 11:15:00 AM 16.78 62.204 0.073 7.71 0.89 10.49
9/19/2021 11:30:00 AM 16.85 62.33 0.073 7.73 1.12 10.56
9/19/2021 11:45:00 AM 16.89 62.402 0.073 7.83 0.87 10.6
9/19/2021 12:00:00 PM 16.98 62.564 0.073 7.87 0.81 10.64
9/19/2021 12:15:00 PM 17.09 62.762 0.073 7.91 0.79 10.56
9/19/2021 12:30:00 PM 17.36 63.248 0.072 7.93 0.73 10.51
9/19/2021 12:45:00 PM 17.62 63.716 0.072 7.95 0.8 10.46
9/19/2021 1:00:00 PM 17.83 64.094 0.072 7.95 0.81 10.4
9/19/2021 1:15:00 PM 18.05 64.49 0.072 7.92 0.81 10.36
9/19/2021 1:30:00 PM 18.26 64.868 0.072 7.96 0.73 10.3
9/19/2021 1:45:00 PM 18.46 65.228 0.072 7.94 0.76 10.26
9/19/2021 2:00:00 PM 18.64 65.552 0.072 7.97 0.82 10.23
9/19/2021 2:15:00 PM 18.81 65.858 0.072 8.03 0.79 10.19
9/19/2021 2:30:00 PM 18.98 66.164 0.072 8.03 0.71 10.15
9/19/2021 2:45:00 PM 19.11 66.398 0.072 8.02 0.78 10.11
9/19/2021 3:00:00 PM 19.24 66.632 0.072 8.06 0.68 10.07
9/19/2021 3:15:00 PM 19.36 66.848 0.072 8.07 0.7 10.03
9/19/2021 3:30:00 PM 19.46 67.028 0.072 8.04 0.7 9.99
9/19/2021 3:45:00 PM 19.55 67.19 0.072 8.03 0.75 9.95
9/19/2021 4:00:00 PM 19.62 67.316 0.072 8.03 0.72 9.91
9/19/2021 4:15:00 PM 19.66 67.388 0.072 8.01 0.67 9.86
9/19/2021 4:30:00 PM 19.68 67.424 0.072 7.95 0.72 9.8
9/19/2021 4:45:00 PM 19.67 67.406 0.072 7.94 0.73 9.75
9/19/2021 5:00:00 PM 19.63 67.334 0.072 7.89 0.7 9.68
9/19/2021 5:15:00 PM 19.55 67.19 0.072 7.83 0.74 9.6
9/19/2021 5:30:00 PM 19.45 67.01 0.072 7.78 0.71 9.51
9/19/2021 5:45:00 PM 19.35 66.83 0.072 7.69 0.71 9.42
9/19/2021 6:00:00 PM 19.24 66.632 0.074 7.62 0.67 9.33
9/19/2021 6:15:00 PM 19.14 66.452 0.074 7.56 0.72 9.24
9/19/2021 6:30:00 PM 19 66.2 0.073 7.47 0.74 9.11
9/19/2021 6:45:00 PM 18.85 65.93 0.073 7.43 0.84 9.01
9/19/2021 7:00:00 PM 18.72 65.696 0.073 7.39 0.73 8.95
9/19/2021 7:15:00 PM 18.59 65.462 0.073 7.34 0.74 8.88
9/19/2021 7:30:00 PM 18.49 65.282 0.073 7.34 0.86 8.83
9/19/2021 7:45:00 PM 18.39 65.102 0.073 7.31 0.87 8.78
9/19/2021 8:00:00 PM 18.29 64.922 0.073 7.29 0.93 8.75
9/19/2021 8:15:00 PM 18.2 64.76 0.073 7.28 0.95 8.73
9/19/2021 8:30:00 PM 18.12 64.616 0.074 7.27 1.11 8.73
9/19/2021 8:45:00 PM 18.03 64.454 0.074 7.25 0.94 8.71
9/19/2021 9:00:00 PM 17.94 64.292 0.074 7.25 1.1 8.72
9/19/2021 9:15:00 PM 17.86 64.148 0.074 7.22 1.04 8.72
9/19/2021 9:30:00 PM 17.77 63.986 0.074 7.23 1.01 8.73
9/19/2021 9:45:00 PM 17.69 63.842 0.074 7.18 1.1 8.74
9/19/2021 10:00:00 PM 17.6 63.68 0.074 7.22 1.04 8.76
9/19/2021 10:15:00 PM 17.52 63.536 0.074 7.17 1.05 8.77
9/19/2021 10:30:00 PM 17.45 63.41 0.074 7.2 1.02 8.78
9/19/2021 10:45:00 PM 17.38 63.284 0.074 7.2 1.06 8.8
9/19/2021 11:00:00 PM 17.31 63.158 0.074 7.2 1.03 8.81
9/19/2021 11:15:00 PM 17.24 63.032 0.074 7.19 0.99 8.82
9/19/2021 11:30:00 PM 17.17 62.906 0.074 7.18 0.88 8.84
9/19/2021 11:45:00 PM 17.12 62.816 0.074 7.18 1.03 8.86
9/20/2021 12:00:00 AM 17.07 62.726 0.075 7.19 1.06 8.87
9/20/2021 12:15:00 AM 17.02 62.636 0.074 7.2 1.07 8.88
9/20/2021 12:30:00 AM 16.96 62.528 0.075 7.18 1.09 8.9
9/20/2021 12:45:00 AM 16.9 62.42 0.075 7.19 1.08 8.92
9/20/2021 1:00:00 AM 16.85 62.33 0.075 7.15 1.18 8.93
9/20/2021 1:15:00 AM 16.78 62.204 0.075 7.19 1.11 8.95
9/20/2021 1:30:00 AM 16.71 62.078 0.075 7.14 1 8.97
9/20/2021 1:45:00 AM 16.65 61.97 0.075 7.18 1.01 8.98
9/20/2021 2:00:00 AM 16.58 61.844 0.075 7.16 1.02 9
9/20/2021 2:15:00 AM 16.51 61.718 0.075 7.19 1.09 9.02
9/20/2021 2:30:00 AM 16.44 61.592 0.075 7.19 1.07 9.03
9/20/2021 2:45:00 AM 16.38 61.484 0.075 7.19 1.05 9.05
9/20/2021 3:00:00 AM 16.31 61.358 0.075 7.19 1.18 9.07
9/20/2021 3:15:00 AM 16.24 61.232 0.075 7.15 1.08 9.09
9/20/2021 3:30:00 AM 16.16 61.088 0.075 7.18 1.08 9.11
9/20/2021 3:45:00 AM 16.1 60.98 0.075 7.18 1.29 9.12
9/20/2021 4:00:00 AM 16.03 60.854 0.075 7.19 1.06 9.14
9/20/2021 4:15:00 AM 15.97 60.746 0.075 7.18 1.05 9.15
9/20/2021 4:30:00 AM 15.9 60.62 0.075 7.18 1.11 9.17
9/20/2021 4:45:00 AM 15.83 60.494 0.075 7.18 1.1 9.18
9/20/2021 5:00:00 AM 15.77 60.386 0.075 7.19 1.49 9.2
9/20/2021 5:15:00 AM 15.7 60.26 0.075 7.19 1.1 9.22
9/20/2021 5:30:00 AM 15.64 60.152 0.075 7.18 1.13 9.23
9/20/2021 5:45:00 AM 15.57 60.026 0.075 7.15 1.24 9.25
9/20/2021 6:00:00 AM 15.51 59.918 0.075 7.19 1.17 9.27
9/20/2021 6:15:00 AM 15.45 59.81 0.075 7.16 1.13 9.28
9/20/2021 6:30:00 AM 15.39 59.702 0.075 7.16 1.07 9.29
9/20/2021 6:45:00 AM 15.33 59.594 0.075 7.19 1.07 9.32
9/20/2021 7:00:00 AM 15.26 59.468 0.075 7.17 1.74 9.33
9/20/2021 7:15:00 AM 15.2 59.36 0.075 7.14 1.07 9.37
9/20/2021 7:30:00 AM 15.14 59.252 0.075 7.19 1.03 9.42
9/20/2021 7:45:00 AM 15.08 59.144 0.075 7.2 1.33 9.49
9/20/2021 8:00:00 AM 15.03 59.054 0.075 7.21 2.16 9.56
9/20/2021 8:15:00 AM 14.98 58.964 0.075 7.23 1.15 9.67
9/20/2021 8:30:00 AM 14.94 58.892 0.075 7.26 1.04 9.8
9/20/2021 8:45:00 AM 14.93 58.874 0.075 7.29 1.02 9.97
9/20/2021 9:00:00 AM 14.93 58.874 0.074 7.31 0.91 10.14
9/20/2021 9:15:00 AM 14.95 58.91 0.074 7.37 0.93 10.28
9/20/2021 9:30:00 AM 14.96 58.928 0.074 7.4 0.98 10.35
9/20/2021 9:45:00 AM 14.98 58.964 0.074 7.42 0.86 10.37
9/20/2021 10:00:00 AM 14.99 58.982 0.074 7.45 0.93 10.4
9/20/2021 10:15:00 AM 15.03 59.054 0.074 7.43 0.85 10.42
9/20/2021 10:30:00 AM 15.1 59.18 0.073 7.47 0.93 10.48
9/20/2021 10:45:00 AM 15.19 59.342 0.074 7.54 0.78 10.51
9/20/2021 11:00:00 AM 15.34 59.612 0.073 7.57 0.79 10.54
9/20/2021 11:15:00 AM 15.5 59.9 0.073 7.58 0.8 10.55
9/20/2021 11:30:00 AM 15.71 60.278 0.073 7.61 0.76 10.58
9/20/2021 11:45:00 AM 15.94 60.692 0.073 7.7 0.77 10.61
9/20/2021 12:00:00 PM 16.18 61.124 0.073 7.74 0.85 10.62
9/20/2021 12:15:00 PM 16.42 61.556 0.073 7.76 0.73 10.64
9/20/2021 12:30:00 PM 16.67 62.006 0.073 7.86 0.77 10.68
9/20/2021 12:45:00 PM 16.97 62.546 0.072 7.93 0.76 10.69
9/20/2021 1:00:00 PM 17.3 63.14 0.072 8.04 0.73 10.74
9/20/2021 1:15:00 PM 17.59 63.662 0.072 8.1 0.77 10.72
9/20/2021 1:30:00 PM 17.84 64.112 0.072 8.18 1.52 10.74
9/20/2021 1:45:00 PM 18.03 64.454 0.072 8.28 0.8 10.75
9/20/2021 2:00:00 PM 18.14 64.652 0.072 8.35 0.71 10.73
9/20/2021 2:15:00 PM 18.28 64.904 0.071 8.4 0.72 10.7
9/20/2021 2:30:00 PM 18.45 65.21 0.072 8.47 0.72 10.71
9/20/2021 2:45:00 PM 18.48 65.264 0.071 8.48 0.66 10.65
9/20/2021 3:00:00 PM 18.64 65.552 0.071 8.47 0.66 10.63
9/20/2021 3:15:00 PM 18.8 65.84 0.071 8.54 0.64 10.6
9/20/2021 3:30:00 PM 18.87 65.966 0.071 8.55 0.69 10.57
9/20/2021 3:45:00 PM 18.95 66.11 0.071 8.57 0.71 10.53
9/20/2021 4:00:00 PM 19.14 66.452 0.071 8.6 0.68 10.5
9/20/2021 4:15:00 PM 19.25 66.65 0.071 8.62 0.63 10.47
9/20/2021 4:30:00 PM 19.16 66.488 0.071 8.54 0.71 10.39
9/20/2021 4:45:00 PM 19.11 66.398 0.071 8.52 0.66 10.31
9/20/2021 5:00:00 PM 19.11 66.398 0.071 8.45 0.69 10.25
9/20/2021 5:15:00 PM 19.09 66.362 0.071 8.42 0.78 10.16
9/20/2021 5:30:00 PM 19.04 66.272 0.071 8.3 0.69 10.01
9/20/2021 5:45:00 PM 18.97 66.146 0.072 8.12 0.75 9.78
9/20/2021 6:00:00 PM 18.89 66.002 0.072 7.88 0.73 9.59
9/20/2021 6:15:00 PM 18.81 65.858 0.072 7.77 0.68 9.42
9/20/2021 6:30:00 PM 18.74 65.732 0.072 7.65 0.69 9.26
9/20/2021 6:45:00 PM 18.68 65.624 0.072 7.56 0.81 9.13
9/20/2021 7:00:00 PM 18.63 65.534 0.073 7.5 0.87 9
9/20/2021 7:15:00 PM 18.58 65.444 0.073 7.44 0.76 8.9
9/20/2021 7:30:00 PM 18.54 65.372 0.073 7.41 0.86 8.83
9/20/2021 7:45:00 PM 18.49 65.282 0.073 7.39 1.66 8.76
9/20/2021 8:00:00 PM 18.44 65.192 0.073 7.33 0.84 8.72
9/20/2021 8:15:00 PM 18.38 65.084 0.073 7.33 0.81 8.69
9/20/2021 8:30:00 PM 18.33 64.994 0.073 7.32 0.89 8.68
9/20/2021 8:45:00 PM 18.27 64.886 0.074 7.26 0.95 8.66
9/20/2021 9:00:00 PM 18.22 64.796 0.074 7.25 0.93 8.65
9/20/2021 9:15:00 PM 18.15 64.67 0.074 7.27 0.89 8.65
9/20/2021 9:30:00 PM 18.1 64.58 0.074 7.26 0.96 8.65
9/20/2021 9:45:00 PM 18.04 64.472 0.074 7.25 0.98 8.65
9/20/2021 10:00:00 PM 17.98 64.364 0.074 7.24 0.95 8.65
9/20/2021 10:15:00 PM 17.92 64.256 0.074 7.24 0.96 8.66
9/20/2021 10:30:00 PM 17.87 64.166 0.074 7.22 0.95 8.67
9/20/2021 10:45:00 PM 17.82 64.076 0.074 7.22 0.93 8.67
9/20/2021 11:00:00 PM 17.76 63.968 0.074 7.22 0.97 8.68
9/20/2021 11:15:00 PM 17.71 63.878 0.074 7.17 0.86 8.68
9/20/2021 11:30:00 PM 17.66 63.788 0.074 7.22 0.94 8.7
9/20/2021 11:45:00 PM 17.6 63.68 0.074 7.22 0.99 8.71
9/21/2021 12:00:00 AM 17.54 63.572 0.074 7.22 1.03 8.72
9/21/2021 12:15:00 AM 17.49 63.482 0.074 7.21 0.93 8.73
9/21/2021 12:30:00 AM 17.43 63.374 0.074 7.2 0.99 8.74
9/21/2021 12:45:00 AM 17.38 63.284 0.075 7.2 1 8.75
9/21/2021 1:00:00 AM 17.33 63.194 0.075 7.18 0.95 8.77
9/21/2021 1:15:00 AM 17.28 63.104 0.075 7.2 1.02 8.77
9/21/2021 1:30:00 AM 17.23 63.014 0.075 7.2 1.03 8.79
9/21/2021 1:45:00 AM 17.18 62.924 0.075 7.2 0.97 8.8
9/21/2021 2:00:00 AM 17.13 62.834 0.075 7.2 1.06 8.81
9/21/2021 2:15:00 AM 17.1 62.78 0.075 7.19 1.01 8.82
9/21/2021 2:30:00 AM 17.07 62.726 0.075 7.17 0.96 8.83
9/21/2021 2:45:00 AM 17.04 62.672 0.075 7.17 1.1 8.85
9/21/2021 3:00:00 AM 17 62.6 0.075 7.17 1.02 8.85
9/21/2021 3:15:00 AM 16.96 62.528 0.075 7.19 1.01 8.87
9/21/2021 3:30:00 AM 16.93 62.474 0.075 7.19 1.08 8.87
9/21/2021 3:45:00 AM 16.9 62.42 0.075 7.2 1.03 8.88
9/21/2021 4:00:00 AM 16.88 62.384 0.075 7.19 0.94 8.9
9/21/2021 4:15:00 AM 16.86 62.348 0.076 7.14 1.06 8.9
9/21/2021 4:30:00 AM 16.85 62.33 0.078 7.19 1.07 8.91
9/21/2021 4:45:00 AM 16.83 62.294 0.08 7.2 1.07 8.92
9/21/2021 5:00:00 AM 16.81 62.258 0.079 7.18 1 8.92
9/21/2021 5:15:00 AM 16.8 62.24 0.077 7.21 1 8.92
9/21/2021 5:30:00 AM 16.78 62.204 0.077 7.2 1.03 8.93
9/21/2021 5:45:00 AM 16.76 62.168 0.077 7.21 1.09 8.94
9/21/2021 6:00:00 AM 16.74 62.132 0.078 7.2 0.99 8.95
9/21/2021 6:15:00 AM 16.72 62.096 0.078 7.21 0.97 8.96
9/21/2021 6:30:00 AM 16.71 62.078 0.077 7.21 1.05 8.96
9/21/2021 6:45:00 AM 16.68 62.024 0.076 7.21 1.04 8.96
9/21/2021 7:00:00 AM 16.67 62.006 0.076 7.21 0.99 8.98
9/21/2021 7:15:00 AM 16.64 61.952 0.076 7.19 0.93 9
9/21/2021 7:30:00 AM 16.63 61.934 0.076 7.22 0.89 9.03
9/21/2021 7:45:00 AM 16.61 61.898 0.075 7.24 1.4 9.09
9/21/2021 8:00:00 AM 16.61 61.898 0.075 7.23 0.88 9.17
9/21/2021 8:15:00 AM 16.59 61.862 0.075 7.24 0.92 9.22
9/21/2021 8:30:00 AM 16.59 61.862 0.075 7.25 0.77 9.29
9/21/2021 8:45:00 AM 16.59 61.862 0.075 7.29 0.77 9.36
9/21/2021 9:00:00 AM 16.59 61.862 0.075 7.31 0.81 9.45
9/21/2021 9:15:00 AM 16.62 61.916 0.075 7.3 0.84 9.62
9/21/2021 9:30:00 AM 16.69 62.042 0.074 7.4 1.01 9.85
9/21/2021 9:45:00 AM 16.75 62.15 0.074 7.46 0.78 10.01
9/21/2021 10:00:00 AM 16.77 62.186 0.074 7.49 0.79 10.05
9/21/2021 10:15:00 AM 16.87 62.366 0.074 7.57 0.79 10.25
9/21/2021 10:30:00 AM 16.96 62.528 0.073 7.63 0.74 10.35
9/21/2021 10:45:00 AM 17.06 62.708 0.073 7.7 0.67 10.47
9/21/2021 11:00:00 AM 17.16 62.888 0.073 7.79 0.72 10.55
9/21/2021 11:15:00 AM 17.24 63.032 0.073 7.83 0.7 10.59
9/21/2021 11:30:00 AM 17.38 63.284 0.073 7.93 0.76 10.62
9/21/2021 11:45:00 AM 17.42 63.356 0.073 7.94 0.64 10.6
9/21/2021 12:00:00 PM 17.5 63.5 0.072 8.03 0.65 10.62
9/21/2021 12:15:00 PM 17.54 63.572 0.073 8.02 0.63 10.54
9/21/2021 12:30:00 PM 17.61 63.698 0.072 8.07 0.68 10.59
9/21/2021 12:45:00 PM 17.69 63.842 0.072 8.14 0.68 10.6
9/21/2021 1:00:00 PM 17.76 63.968 0.072 8.22 0.6 10.61
9/21/2021 1:15:00 PM 17.84 64.112 0.072 8.28 0.63 10.63
9/21/2021 1:30:00 PM 17.89 64.202 0.072 8.3 0.59 10.62
9/21/2021 1:45:00 PM 17.96 64.328 0.072 8.34 0.64 10.59
9/21/2021 2:00:00 PM 18 64.4 0.072 8.35 0.65 10.6
9/21/2021 2:15:00 PM 18.04 64.472 0.072 8.32 0.65 10.49
9/21/2021 2:30:00 PM 18.23 64.814 0.072 8.41 0.61 10.57
9/21/2021 2:45:00 PM 18.24 64.832 0.072 8.39 0.68 10.51
9/21/2021 3:00:00 PM 18.35 65.03 0.072 8.42 0.6 10.55
9/21/2021 3:15:00 PM 18.5 65.3 0.073 8.51 0.65 10.55
9/21/2021 3:30:00 PM 18.58 65.444 0.072 8.56 0.75 10.55
9/21/2021 3:45:00 PM 18.7 65.66 0.072 8.59 0.57 10.54
9/21/2021 4:00:00 PM 18.71 65.67799 0.071 8.52 0.61 10.44
9/21/2021 4:15:00 PM 18.71 65.67799 0.071 8.53 0.56 10.36
9/21/2021 4:30:00 PM 18.72 65.696 0.071 8.49 0.59 10.3
9/21/2021 4:45:00 PM 18.71 65.67799 0.071 8.41 0.65 10.22
9/21/2021 5:00:00 PM 18.71 65.67799 0.071 8.39 0.56 10.15
9/21/2021 5:15:00 PM 18.69 65.642 0.071 8.31 0.62 10.06
9/21/2021 5:30:00 PM 18.66 65.588 0.071 8.2 0.69 9.97
9/21/2021 5:45:00 PM 18.64 65.552 0.071 8.11 0.65 9.85
9/21/2021 6:00:00 PM 18.61 65.498 0.071 8 0.59 9.74
9/21/2021 6:15:00 PM 18.59 65.462 0.072 7.87 0.64 9.61
9/21/2021 6:30:00 PM 18.55 65.39 0.072 7.73 0.63 9.45
9/21/2021 6:45:00 PM 18.5 65.3 0.072 7.68 0.6 9.31
9/21/2021 7:00:00 PM 18.46 65.228 0.072 7.6 0.68 9.16
9/21/2021 7:15:00 PM 18.42 65.156 0.073 7.52 0.71 9.03
9/21/2021 7:30:00 PM 18.38 65.084 0.073 7.48 0.72 8.92
9/21/2021 7:45:00 PM 18.34 65.012 0.073 7.43 0.77 8.83
9/21/2021 8:00:00 PM 18.3 64.94 0.073 7.4 0.82 8.76
9/21/2021 8:15:00 PM 18.26 64.868 0.074 7.37 0.93 8.71
9/21/2021 8:30:00 PM 18.24 64.832 0.074 7.35 0.88 8.68
9/21/2021 8:45:00 PM 18.21 64.778 0.074 7.3 0.94 8.65
9/21/2021 9:00:00 PM 18.18 64.724 0.074 7.31 0.95 8.64
9/21/2021 9:15:00 PM 18.15 64.67 0.074 7.3 1.3 8.62
9/21/2021 9:30:00 PM 18.13 64.634 0.074 7.29 0.92 8.6
9/21/2021 9:45:00 PM 18.11 64.598 0.074 7.28 0.94 8.59
9/21/2021 10:00:00 PM 18.08 64.544 0.074 7.26 1.07 8.59
9/21/2021 10:15:00 PM 18.06 64.508 0.074 7.25 1.14 8.58
9/21/2021 10:30:00 PM 18.04 64.472 0.074 7.25 1.03 8.57
9/21/2021 10:45:00 PM 18.02 64.436 0.074 7.19 0.94 8.57
9/21/2021 11:00:00 PM 18 64.4 0.074 7.23 1.09 8.56
9/21/2021 11:15:00 PM 17.98 64.364 0.075 7.23 1.23 8.56
9/21/2021 11:30:00 PM 17.97 64.346 0.076 7.21 1.78 8.56
9/21/2021 11:45:00 PM 17.95 64.31 0.075 7.22 1.45 8.56
9/22/2021 12:00:00 AM 17.93 64.274 0.076 7.21 1.53 8.56
9/22/2021 12:15:00 AM 17.92 64.256 0.075 7.21 1.31 8.55
9/22/2021 12:30:00 AM 17.9 64.22 0.075 7.21 1.29 8.56
9/22/2021 12:45:00 AM 17.89 64.202 0.075 7.21 1.11 8.56
9/22/2021 1:00:00 AM 17.87 64.166 0.075 7.17 1.09 8.56
9/22/2021 1:15:00 AM 17.86 64.148 0.075 7.21 1.15 8.56
9/22/2021 1:30:00 AM 17.85 64.13 0.074 7.21 1.22 8.57
9/22/2021 1:45:00 AM 17.83 64.094 0.074 7.16 1.05 8.57
9/22/2021 2:00:00 AM 17.82 64.076 0.075 7.21 1.17 8.58
9/22/2021 2:15:00 AM 17.81 64.058 0.075 7.21 1.16 8.59
9/22/2021 2:30:00 AM 17.79 64.022 0.075 7.19 2.22 8.59
9/22/2021 2:45:00 AM 17.78 64.004 0.075 7.2 1.11 8.59
9/22/2021 3:00:00 AM 17.76 63.968 0.075 7.17 1.13 8.59
9/22/2021 3:15:00 AM 17.75 63.95 0.074 7.2 1.26 8.6
9/22/2021 3:30:00 AM 17.73 63.914 0.074 7.2 1.14 8.6
9/22/2021 3:45:00 AM 17.72 63.896 0.074 7.19 1.11 8.61
9/22/2021 4:00:00 AM 17.7 63.86 0.074 7.17 1.11 8.62
9/22/2021 4:15:00 AM 17.69 63.842 0.074 7.19 1.27 8.63
9/22/2021 4:30:00 AM 17.67 63.806 0.074 7.17 1.15 8.62
9/22/2021 4:45:00 AM 17.65 63.77 0.074 7.17 1.26 8.64
9/22/2021 5:00:00 AM 17.63 63.734 0.074 7.18 1.22 8.64
9/22/2021 5:15:00 AM 17.61 63.698 0.074 7.17 1.07 8.65
9/22/2021 5:30:00 AM 17.59 63.662 0.074 7.2 1.28 8.66
9/22/2021 5:45:00 AM 17.56 63.608 0.074 7.21 1.41 8.67
9/22/2021 6:00:00 AM 17.55 63.59 0.074 7.2 1.24 8.68
9/22/2021 6:15:00 AM 17.53 63.554 0.074 7.21 1.41 8.68
9/22/2021 6:30:00 AM 17.52 63.536 0.074 7.2 1.33 8.69
9/22/2021 6:45:00 AM 17.5 63.5 0.073 7.19 1.41 8.7
9/22/2021 7:00:00 AM 17.48 63.464 0.074 7.21 1.32 8.7
9/22/2021 7:15:00 AM 17.46 63.428 0.074 7.2 1.21 8.71
9/22/2021 7:30:00 AM 17.45 63.41 0.074 7.18 1.2 8.74
9/22/2021 7:45:00 AM 17.44 63.392 0.074 7.21 1.21 8.79
9/22/2021 8:00:00 AM 17.44 63.392 0.079 7.23 2.31 8.84
9/22/2021 8:15:00 AM 17.43 63.374 0.075 7.22 1.98 8.88
9/22/2021 8:30:00 AM 17.43 63.374 0.074 7.25 1.52 8.93
9/22/2021 8:45:00 AM 17.43 63.374 0.074 7.27 1.25 8.97
9/22/2021 9:00:00 AM 17.42 63.356 0.074 7.28 1.2 9
9/22/2021 9:15:00 AM 17.43 63.374 0.073 7.26 1.21 9.05
9/22/2021 9:30:00 AM 17.45 63.41 0.073 7.32 1.31 9.18
9/22/2021 9:45:00 AM 17.49 63.482 0.073 7.34 1.25 9.34
9/22/2021 10:00:00 AM 17.55 63.59 0.073 7.38 1.13 9.52
9/22/2021 10:15:00 AM 17.61 63.698 0.072 7.45 1.51 9.7
9/22/2021 10:30:00 AM 17.66 63.788 0.072 7.49 1.18 9.79
9/22/2021 10:45:00 AM 17.7 63.86 0.072 7.52 1.16 9.82
9/22/2021 11:00:00 AM 17.71 63.878 0.072 7.53 1.36 9.76
9/22/2021 11:15:00 AM 17.76 63.968 0.073 7.55 2.75 9.79
9/22/2021 11:30:00 AM 17.8 64.04 0.072 7.6 2.75 9.83
9/22/2021 11:45:00 AM 17.84 64.112 0.072 7.66 7.36 9.84
9/22/2021 12:00:00 PM 17.87 64.166 0.072 7.62 6.95 9.77
9/22/2021 12:15:00 PM 17.9 64.22 0.071 7.64 3.73 9.79
9/22/2021 12:30:00 PM 17.93 64.274 0.071 7.64 6.34 9.74
9/22/2021 12:45:00 PM 17.94 64.292 0.07 7.64 3.43 9.77
9/22/2021 1:00:00 PM 17.97 64.346 0.07 7.64 1.85 9.81
9/22/2021 1:15:00 PM 18 64.4 0.069 7.65 2.12 9.75
9/22/2021 1:30:00 PM 18.01 64.418 0.07 7.63 7.64 9.61
9/22/2021 1:45:00 PM 18.03 64.454 0.07 7.57 7.27 9.52
9/22/2021 2:00:00 PM 18.06 64.508 0.069 7.59 5.33 9.57
9/22/2021 2:15:00 PM 18.1 64.58 0.068 7.61 2.31 9.66
9/22/2021 2:30:00 PM 18.16 64.688 0.068 7.65 1.77 9.79
9/22/2021 2:45:00 PM 18.22 64.796 0.068 7.71 1.73 9.86
9/22/2021 3:00:00 PM 18.28 64.904 0.068 7.76 2.01 9.9
9/22/2021 3:15:00 PM 18.34 65.012 0.068 7.8 2.1 9.92
9/22/2021 3:30:00 PM 18.34 65.012 0.068 7.75 2.15 9.78
9/22/2021 3:45:00 PM 18.35 65.03 0.068 7.65 2.25 9.66
9/22/2021 4:00:00 PM 18.37 65.066 0.068 7.66 2.52 9.6
9/22/2021 4:15:00 PM 18.37 65.066 0.068 7.63 2.22 9.5
9/22/2021 4:30:00 PM 18.38 65.084 0.068 7.59 2.91 9.4
9/22/2021 4:45:00 PM 18.37 65.066 0.069 7.51 3.03 9.27
9/22/2021 5:00:00 PM 18.37 65.066 0.069 7.49 3.47 9.19
9/22/2021 5:15:00 PM 18.36 65.048 0.069 7.45 3.7 9.09
9/22/2021 5:30:00 PM 18.36 65.048 0.069 7.43 3.78 9.01
9/22/2021 5:45:00 PM 18.35 65.03 0.069 7.43 3.91 8.98
9/22/2021 6:00:00 PM 18.34 65.012 0.069 7.4 4.44 8.93
9/22/2021 6:15:00 PM 18.32 64.976 0.069 7.37 4.22 8.9
9/22/2021 6:30:00 PM 18.3 64.94 0.069 7.36 4.02 8.86
9/22/2021 6:45:00 PM 18.28 64.904 0.069 7.33 4.42 8.81
9/22/2021 7:00:00 PM 18.26 64.868 0.069 7.34 4.07 8.77
9/22/2021 7:15:00 PM 18.24 64.832 0.069 7.31 4.24 8.74
9/22/2021 7:30:00 PM 18.22 64.796 0.07 7.33 5.15 8.72
9/22/2021 7:45:00 PM 18.2 64.76 0.07 7.32 5.47 8.7
9/22/2021 8:00:00 PM 18.18 64.724 0.07 7.27 6.45 8.69
9/22/2021 8:15:00 PM 18.16 64.688 0.07 7.3 6.86 8.68
9/22/2021 8:30:00 PM 18.14 64.652 0.071 7.27 7.63 8.68
9/22/2021 8:45:00 PM 18.13 64.634 0.071 7.27 8.02 8.67
9/22/2021 9:00:00 PM 18.12 64.616 0.072 7.27 8.96 8.68
9/22/2021 9:15:00 PM 18.11 64.598 0.071 7.26 9.47 8.67
9/22/2021 9:30:00 PM 18.1 64.58 0.071 7.24 9.1 8.68
9/22/2021 9:45:00 PM 18.08 64.544 0.071 7.22 10.01 8.69
9/22/2021 10:00:00 PM 18.09 64.562 0.07 7.25 10.6 8.69
9/22/2021 10:15:00 PM 18.08 64.544 0.07 7.25 12.71 8.69
9/22/2021 10:30:00 PM 18.06 64.508 0.07 7.25 12.69 8.69
9/22/2021 10:45:00 PM 18.03 64.454 0.071 7.27 11.87 8.69
9/22/2021 11:00:00 PM 18 64.4 0.071 7.26 11.7 8.69
9/22/2021 11:15:00 PM 17.97 64.346 0.071 7.27 11.24 8.7
9/22/2021 11:30:00 PM 17.94 64.292 0.071 7.27 11.17 8.71
9/22/2021 11:45:00 PM 17.9 64.22 0.071 7.22 10.49 8.71
9/23/2021 12:00:00 AM 17.86 64.148 0.072 7.26 9.79 8.71
9/23/2021 12:15:00 AM 17.82 64.076 0.072 7.27 10.53 8.73
9/23/2021 12:30:00 AM 17.77 63.986 0.071 7.27 9.39 8.74
9/23/2021 12:45:00 AM 17.73 63.914 0.071 7.26 9.34 8.75
9/23/2021 1:00:00 AM 17.68 63.824 0.071 7.26 9.34 8.78
9/23/2021 1:15:00 AM 17.63 63.734 0.07 7.25 9.12 8.79
9/23/2021 1:30:00 AM 17.58 63.644 0.07 7.23 9.54 8.8
9/23/2021 1:45:00 AM 17.53 63.554 0.07 7.15 10.14 8.81
9/23/2021 2:00:00 AM 17.48 63.464 0.07 7.2 10.53 8.81
9/23/2021 2:15:00 AM 17.44 63.392 0.069 7.19 11.5 8.82
9/23/2021 2:30:00 AM 17.39 63.302 0.069 7.2 12.21 8.83
9/23/2021 2:45:00 AM 17.31 63.158 0.069 7.2 13.44 8.88
9/23/2021 3:00:00 AM 17.23 63.014 0.068 7.2 15.97 8.91
9/23/2021 3:15:00 AM 17.16 62.888 0.068 7.2 23.37 8.93
9/23/2021 3:30:00 AM 17.1 62.78 0.068 7.17 26.5 8.93
9/23/2021 3:45:00 AM 17.02 62.636 0.068 7.19 29.25 8.95
9/23/2021 4:00:00 AM 16.95 62.51 0.068 7.15 40.22 8.98
9/23/2021 4:15:00 AM 16.86 62.348 0.067 7.16 36.29 9.01
9/23/2021 4:30:00 AM 16.78 62.204 0.067 7.09 42.6 9.04
9/23/2021 4:45:00 AM 16.69 62.042 0.066 7.11 43.4 9.06
9/23/2021 5:00:00 AM 16.58 61.844 0.067 7.06 65.61 9.1
9/23/2021 5:15:00 AM 16.47 61.646 0.066 7.1 71.79 9.12
9/23/2021 5:30:00 AM 16.37 61.466 0.066 7.07 69.05 9.14
9/23/2021 5:45:00 AM 16.3 61.34 0.065 7.08 62.63 9.16
9/23/2021 6:00:00 AM 16.22 61.196 0.065 7.08 75.51 9.17
9/23/2021 6:15:00 AM 16.15 61.07 0.064 7.03 74.59 9.19
9/23/2021 6:30:00 AM 16.07 60.926 0.062 6.95 86.71 9.21
9/23/2021 6:45:00 AM 16 60.8 0.061 6.98 86.53 9.23
9/23/2021 7:00:00 AM 15.94 60.692 0.059 6.94 95.55 9.25
9/23/2021 7:15:00 AM 15.88 60.584 0.058 6.95 91.77 9.25
9/23/2021 7:30:00 AM 15.82 60.476 0.057 6.99 96.65 9.27
9/23/2021 7:45:00 AM 15.76 60.368 0.056 6.93 97.92 9.28
9/23/2021 8:00:00 AM 15.7 60.26 0.055 6.94 102.83 9.3
9/23/2021 8:15:00 AM 15.64 60.152 0.054 6.93 101.83 9.32
9/23/2021 8:30:00 AM 15.59 60.062 0.053 6.83 100.5 9.32
9/23/2021 8:45:00 AM 15.54 59.972 0.053 6.88 98.95 9.33
9/23/2021 9:00:00 AM 15.49 59.882 0.052 6.89 110 9.34
9/23/2021 9:15:00 AM 15.46 59.828 0.051 6.87 91.6 9.36
9/23/2021 9:30:00 AM 15.42 59.756 0.051 6.78 88.22 9.38
9/23/2021 9:45:00 AM 15.38 59.684 0.05 6.88 86.37 9.4
9/23/2021 10:00:00 AM 15.34 59.612 0.05 6.88 87.4 9.41
9/23/2021 10:15:00 AM 15.34 59.612 0.05 6.8 76.52 9.44
9/23/2021 10:30:00 AM 15.32 59.576 0.05 6.84 68.22 9.44
9/23/2021 10:45:00 AM 15.3 59.54 0.049 6.78 66.7 9.46
9/23/2021 11:00:00 AM 15.26 59.468 0.049 6.86 61.1 9.48
9/23/2021 11:15:00 AM 15.26 59.468 0.049 6.84 53.52 9.5
9/23/2021 11:30:00 AM 15.32 59.576 0.049 6.81 46.88 9.5
9/23/2021 11:45:00 AM 15.34 59.612 0.049 6.88 46.16 9.52
9/23/2021 12:00:00 PM 15.34 59.612 0.049 6.87 42.02 9.52
9/23/2021 12:15:00 PM 15.33 59.594 0.049 6.85 38.69 9.54
9/23/2021 12:30:00 PM 15.32 59.576 0.049 6.86 39.56 9.56
9/23/2021 12:45:00 PM 15.34 59.612 0.049 6.87 36.13 9.58
9/23/2021 1:00:00 PM 15.34 59.612 0.049 6.85 36.37 9.59
9/23/2021 1:15:00 PM 15.33 59.594 0.048 6.87 34.03 9.6
9/23/2021 1:30:00 PM 15.29 59.522 0.048 6.81 32.76 9.6
9/23/2021 1:45:00 PM 15.24 59.432 0.048 6.88 30.29 9.61
9/23/2021 2:00:00 PM 15.19 59.342 0.048 6.87 30.43 9.63
9/23/2021 2:15:00 PM 15.11 59.198 0.048 6.86 29.79 9.63
9/23/2021 2:30:00 PM 15.04 59.072 0.048 6.84 27.18 9.65
9/23/2021 2:45:00 PM 14.97 58.946 0.048 6.84 26.18 9.67
9/23/2021 3:00:00 PM 14.89 58.802 0.049 6.78 26.08 9.68
9/23/2021 3:15:00 PM 14.82 58.676 0.049 6.85 21.35 9.7
9/23/2021 3:30:00 PM 14.77 58.586 0.049 6.8 26.03 9.71
9/23/2021 3:45:00 PM 14.7 58.46 0.049 6.85 23.75 9.73
9/23/2021 4:00:00 PM 14.63 58.334 0.049 6.81 23.12 9.73
9/23/2021 4:15:00 PM 14.57 58.226 0.049 6.82 22.6 9.74
9/23/2021 4:30:00 PM 14.51 58.118 0.049 6.79 21.99 9.76
9/23/2021 4:45:00 PM 14.46 58.028 0.049 6.79 21.3 9.78
9/23/2021 5:00:00 PM 14.4 57.92 0.049 6.86 22.55 9.79
9/23/2021 5:15:00 PM 14.34 57.812 0.049 6.8 20 9.79
9/23/2021 5:30:00 PM 14.29 57.722 0.049 6.82 19.51 9.8
9/23/2021 5:45:00 PM 14.22 57.596 0.049 6.82 19.57 9.8
9/23/2021 6:00:00 PM 14.17 57.506 0.049 6.83 18.42 9.81
9/23/2021 6:15:00 PM 14.11 57.398 0.049 6.78 18.51 9.82
9/23/2021 6:30:00 PM 14.05 57.29 0.049 6.84 17.92 9.83
9/23/2021 6:45:00 PM 14.01 57.218 0.049 6.82 17.01 9.83
9/23/2021 7:00:00 PM 13.94 57.092 0.049 6.8 17.06 9.84
9/23/2021 7:15:00 PM 13.87 56.966 0.049 6.76 16.94 9.85
9/23/2021 7:30:00 PM 13.82 56.876 0.049 6.8 17.03 9.86
9/23/2021 7:45:00 PM 13.75 56.75 0.049 6.75 16.34 9.87
9/23/2021 8:00:00 PM 13.69 56.642 0.049 6.8 15.85 9.89
9/23/2021 8:15:00 PM 13.62 56.516 0.049 6.81 15.67 9.9
9/23/2021 8:30:00 PM 13.56 56.408 0.049 6.79 15.97 9.91
9/23/2021 8:45:00 PM 13.5 56.3 0.049 6.8 15.58 9.93
9/23/2021 9:00:00 PM 13.46 56.228 0.049 6.83 15.29 9.94
9/23/2021 9:15:00 PM 13.41 56.138 0.049 6.82 15 9.95
9/23/2021 9:30:00 PM 13.35 56.03 0.049 6.79 15.11 9.97
9/23/2021 9:45:00 PM 13.33 55.994 0.049 6.77 15.61 9.98
9/23/2021 10:00:00 PM 13.27 55.886 0.049 6.84 14.86 9.99
9/23/2021 10:15:00 PM 13.23 55.814 0.049 6.83 14.07 9.99
9/23/2021 10:30:00 PM 13.19 55.742 0.049 6.77 14.3 10
9/23/2021 10:45:00 PM 13.16 55.688 0.049 6.79 13.62 10.01
9/23/2021 11:00:00 PM 13.13 55.634 0.049 6.83 13.72 10.02
9/23/2021 11:15:00 PM 13.1 55.58 0.049 6.83 13.32 10.04
9/23/2021 11:30:00 PM 13.06 55.508 0.049 6.84 13.01 10.03
9/23/2021 11:45:00 PM 13.04 55.472 0.049 6.77 12.95 10.04
9/24/2021 12:00:00 AM 12.99 55.382 0.049 6.85 12.5 10.05
9/24/2021 12:15:00 AM 12.96 55.328 0.049 6.77 12.23 10.06
9/24/2021 12:30:00 AM 12.93 55.274 0.049 6.83 11.58 10.07
9/24/2021 12:45:00 AM 12.9 55.22 0.049 6.85 11.98 10.07
9/24/2021 1:00:00 AM 12.88 55.184 0.049 6.8 11.56 10.08
9/24/2021 1:15:00 AM 12.85 55.13 0.049 6.78 11.49 10.09
9/24/2021 1:30:00 AM 12.83 55.094 0.049 6.82 11.06 10.09
9/24/2021 1:45:00 AM 12.8 55.04 0.049 6.81 10.98 10.1
9/24/2021 2:00:00 AM 12.78 55.004 0.049 6.83 10.7 10.1
9/24/2021 2:15:00 AM 12.74 54.932 0.049 6.86 10.64 10.11
9/24/2021 2:30:00 AM 12.73 54.914 0.049 6.84 10.31 10.11
9/24/2021 2:45:00 AM 12.71 54.878 0.049 6.85 10.25 10.12
9/24/2021 3:00:00 AM 12.69 54.842 0.049 6.84 10.09 10.13
9/24/2021 3:15:00 AM 12.67 54.806 0.049 6.87 10.17 10.13
9/24/2021 3:30:00 AM 12.66 54.788 0.049 6.86 10.19 10.14
9/24/2021 3:45:00 AM 12.63 54.734 0.049 6.86 10.08 10.14
9/24/2021 4:00:00 AM 12.6 54.68 0.049 6.84 9.9 10.15
9/24/2021 4:15:00 AM 12.58 54.644 0.049 6.86 9.89 10.16
9/24/2021 4:30:00 AM 12.54 54.572 0.05 6.87 9.95 10.16
9/24/2021 4:45:00 AM 12.51 54.518 0.049 6.86 9.55 10.17
9/24/2021 5:00:00 AM 12.48 54.464 0.05 6.85 10.11 10.18
9/24/2021 5:15:00 AM 12.44 54.392 0.05 6.84 9.36 10.19
9/24/2021 5:30:00 AM 12.41 54.338 0.05 6.86 9.14 10.2
9/24/2021 5:45:00 AM 12.37 54.266 0.05 6.86 9.04 10.21
9/24/2021 6:00:00 AM 12.33 54.194 0.05 6.79 8.84 10.22
9/24/2021 6:15:00 AM 12.29 54.122 0.05 6.82 9.44 10.22
9/24/2021 6:30:00 AM 12.26 54.068 0.049 6.85 9.23 10.24
9/24/2021 6:45:00 AM 12.22 53.996 0.049 6.84 9.29 10.24
9/24/2021 7:00:00 AM 12.18 53.924 0.05 6.85 8.44 10.25
9/24/2021 7:15:00 AM 12.15 53.87 0.049 6.8 8.83 10.27
9/24/2021 7:30:00 AM 12.12 53.816 0.049 6.83 8.22 10.28
9/24/2021 7:45:00 AM 12.1 53.78 0.05 6.86 8.14 10.3
9/24/2021 8:00:00 AM 12.08 53.744 0.05 6.83 8.11 10.32
9/24/2021 8:15:00 AM 12.08 53.744 0.049 6.87 8.13 10.34
9/24/2021 8:30:00 AM 12.08 53.744 0.05 6.87 7.58 10.36
9/24/2021 8:45:00 AM 12.08 53.744 0.049 6.89 7.08 10.38
9/24/2021 9:00:00 AM 12.08 53.744 0.049 6.82 6.96 10.39
9/24/2021 9:15:00 AM 12.1 53.78 0.049 6.9 6.87 10.42
9/24/2021 9:30:00 AM 12.13 53.834 0.049 6.9 6.27 10.46
9/24/2021 9:45:00 AM 12.15 53.87 0.049 6.93 6.22 10.47
9/24/2021 10:00:00 AM 12.19 53.942 0.049 6.9 6.16 10.47
9/24/2021 10:15:00 AM 12.25 54.05 0.049 6.92 5.95 10.47
9/24/2021 10:30:00 AM 12.3 54.14 0.049 6.95 5.97 10.47
9/24/2021 10:45:00 AM 12.38 54.284 0.049 6.92 5.63 10.47
9/24/2021 11:00:00 AM 12.46 54.428 0.049 6.9 5.76 10.46
9/24/2021 11:15:00 AM 12.56 54.608 0.049 6.95 5.42 10.46
9/24/2021 11:30:00 AM 12.66 54.788 0.049 6.99 5.67 10.45
9/24/2021 11:45:00 AM 12.77 54.986 0.049 6.98 5.81 10.43
9/24/2021 12:00:00 PM 12.89 55.202 0.049 6.97 6.26 10.43
9/24/2021 12:15:00 PM 13.02 55.436 0.049 6.95 5.39 10.41
9/24/2021 12:30:00 PM 13.16 55.688 0.049 6.98 5.54 10.39
9/24/2021 12:45:00 PM 13.3 55.94 0.049 7.03 5.41 10.37
9/24/2021 1:00:00 PM 13.45 56.21 0.049 7.03 5.26 10.36
9/24/2021 1:15:00 PM 13.58 56.444 0.049 7.04 5.22 10.34
9/24/2021 1:30:00 PM 13.71 56.678 0.049 7.01 5.57 10.31
9/24/2021 1:45:00 PM 13.82 56.876 0.049 7.02 5.52 10.28
9/24/2021 2:00:00 PM 13.87 56.966 0.049 7.03 5.3 10.25
9/24/2021 2:15:00 PM 13.99 57.182 0.049 6.98 5.53 10.24
9/24/2021 2:30:00 PM 14.11 57.398 0.049 7.03 5.72 10.22
9/24/2021 2:45:00 PM 14.18 57.524 0.049 7.03 5.59 10.19
9/24/2021 3:00:00 PM 14.26 57.668 0.049 7.06 5.46 10.18
9/24/2021 3:15:00 PM 14.33 57.794 0.049 7.06 5.67 10.16
9/24/2021 3:30:00 PM 14.35 57.83 0.049 7.05 5.55 10.13
9/24/2021 3:45:00 PM 14.3 57.74 0.049 7.05 5.79 10.11
9/24/2021 4:00:00 PM 14.31 57.758 0.049 6.96 5.89 10.11
9/24/2021 4:15:00 PM 14.31 57.758 0.049 7 5.83 10.09
9/24/2021 4:30:00 PM 14.26 57.668 0.05 7 5.71 10.07
9/24/2021 4:45:00 PM 14.23 57.614 0.05 6.97 5.59 10.06
9/24/2021 5:00:00 PM 14.19 57.542 0.049 6.94 5.5 10.05
9/24/2021 5:15:00 PM 14.15 57.47 0.05 6.96 5.95 10.05
9/24/2021 5:30:00 PM 14.11 57.398 0.05 6.96 6.46 10.04
9/24/2021 5:45:00 PM 14.07 57.326 0.05 6.95 6.59 10.02
9/24/2021 6:00:00 PM 14.02 57.236 0.05 6.93 6.54 10
9/24/2021 6:15:00 PM 13.97 57.146 0.05 6.86 6.03 9.99
9/24/2021 6:30:00 PM 13.92 57.056 0.05 6.9 5.92 9.99
9/24/2021 6:45:00 PM 13.87 56.966 0.05 6.9 5.59 9.98
9/24/2021 7:00:00 PM 13.82 56.876 0.05 6.9 5.8 9.97
9/24/2021 7:15:00 PM 13.77 56.786 0.05 6.83 5.96 9.96
9/24/2021 7:30:00 PM 13.72 56.696 0.05 6.86 5.51 9.95
9/24/2021 7:45:00 PM 13.65 56.57 0.05 6.88 6.29 9.95
9/24/2021 8:00:00 PM 13.59 56.462 0.05 6.86 6.11 9.96
9/24/2021 8:15:00 PM 13.53 56.354 0.05 6.85 6.02 9.96
9/24/2021 8:30:00 PM 13.47 56.246 0.05 6.86 6.41 9.97
9/24/2021 8:45:00 PM 13.41 56.138 0.05 6.85 6.19 9.98
9/24/2021 9:00:00 PM 13.36 56.048 0.05 6.8 6.24 9.99
9/24/2021 9:15:00 PM 13.29 55.922 0.05 6.85 6.17 10
9/24/2021 9:30:00 PM 13.23 55.814 0.05 6.85 6.15 10.02
9/24/2021 9:45:00 PM 13.17 55.706 0.05 6.85 6.02 10.03
9/24/2021 10:00:00 PM 13.12 55.616 0.05 6.84 6.38 10.05
9/24/2021 10:15:00 PM 13.07 55.526 0.05 6.85 6.17 10.05
9/24/2021 10:30:00 PM 13.02 55.436 0.05 6.84 6.15 10.06
9/24/2021 10:45:00 PM 12.97 55.346 0.05 6.82 6.05 10.08
9/24/2021 11:00:00 PM 12.93 55.274 0.05 6.88 6.06 10.09
9/24/2021 11:15:00 PM 12.88 55.184 0.051 6.88 5.73 10.1
9/24/2021 11:30:00 PM 12.84 55.112 0.051 6.87 5.6 10.12
9/24/2021 11:45:00 PM 12.8 55.04 0.051 6.87 5.68 10.13
9/25/2021 12:00:00 AM 12.75 54.95 0.051 6.86 5.48 10.14
9/25/2021 12:15:00 AM 12.71 54.878 0.051 6.86 5.5 10.14
9/25/2021 12:30:00 AM 12.68 54.824 0.051 6.89 5.49 10.16
9/25/2021 12:45:00 AM 12.65 54.77 0.051 6.88 5.68 10.16
9/25/2021 1:00:00 AM 12.62 54.716 0.051 6.9 5.55 10.17
9/25/2021 1:15:00 AM 12.59 54.662 0.051 6.9 5.49 10.18
9/25/2021 1:30:00 AM 12.55 54.59 0.051 6.88 5.38 10.19
9/25/2021 1:45:00 AM 12.53 54.554 0.051 6.88 5.27 10.2
9/25/2021 2:00:00 AM 12.49 54.482 0.051 6.88 5.11 10.21
9/25/2021 2:15:00 AM 12.46 54.428 0.051 6.88 5.09 10.21
9/25/2021 2:30:00 AM 12.42 54.356 0.051 6.84 4.87 10.22
9/25/2021 2:45:00 AM 12.39 54.302 0.051 6.88 4.85 10.23
9/25/2021 3:00:00 AM 12.36 54.248 0.051 6.88 4.97 10.24
9/25/2021 3:15:00 AM 12.33 54.194 0.051 6.85 5.09 10.24
9/25/2021 3:30:00 AM 12.3 54.14 0.051 6.87 4.88 10.25
9/25/2021 3:45:00 AM 12.27 54.086 0.051 6.87 4.89 10.26
9/25/2021 4:00:00 AM 12.24 54.032 0.051 6.86 4.71 10.26
9/25/2021 4:15:00 AM 12.21 53.978 0.051 6.9 4.86 10.27
9/25/2021 4:30:00 AM 12.18 53.924 0.051 6.87 4.64 10.28
9/25/2021 4:45:00 AM 12.16 53.888 0.051 6.88 4.64 10.28
9/25/2021 5:00:00 AM 12.13 53.834 0.051 6.87 4.89 10.29
9/25/2021 5:15:00 AM 12.1 53.78 0.051 6.86 4.79 10.3
9/25/2021 5:30:00 AM 12.08 53.744 0.051 6.89 4.91 10.3
9/25/2021 5:45:00 AM 12.05 53.69 0.051 6.89 4.84 10.31
9/25/2021 6:00:00 AM 12.02 53.636 0.051 6.88 4.78 10.32
9/25/2021 6:15:00 AM 12 53.6 0.051 6.89 4.78 10.32
9/25/2021 6:30:00 AM 11.97 53.546 0.051 6.88 4.42 10.33
9/25/2021 6:45:00 AM 11.94 53.492 0.051 6.89 4.45 10.33
9/25/2021 7:00:00 AM 11.91 53.438 0.051 6.89 4.6 10.34
9/25/2021 7:15:00 AM 11.88 53.384 0.051 6.9 4.58 10.36
9/25/2021 7:30:00 AM 11.85 53.33 0.051 6.89 4.5 10.37
9/25/2021 7:45:00 AM 11.83 53.294 0.051 6.9 4.39 10.39
9/25/2021 8:00:00 AM 11.81 53.258 0.051 6.89 4.26 10.41
9/25/2021 8:15:00 AM 11.79 53.222 0.051 6.92 4.15 10.45
9/25/2021 8:30:00 AM 11.78 53.204 0.051 6.9 3.9 10.48
9/25/2021 8:45:00 AM 11.78 53.204 0.051 6.94 4.16 10.52
9/25/2021 9:00:00 AM 11.77 53.186 0.051 6.91 3.82 10.55
9/25/2021 9:15:00 AM 11.78 53.204 0.051 6.9 5.18 10.59
9/25/2021 9:30:00 AM 11.79 53.222 0.051 6.96 4.46 10.63
9/25/2021 9:45:00 AM 11.83 53.294 0.051 6.98 3.81 10.67
9/25/2021 10:00:00 AM 11.85 53.33 0.051 6.99 3.47 10.7
9/25/2021 10:15:00 AM 11.91 53.438 0.051 7 3.56 10.72
9/25/2021 10:30:00 AM 11.95 53.51 0.051 7.01 3.21 10.71
9/25/2021 10:45:00 AM 12.02 53.636 0.051 6.98 3.1 10.69
9/25/2021 11:00:00 AM 12.09 53.762 0.051 6.98 3.03 10.68
9/25/2021 11:15:00 AM 12.19 53.942 0.051 7.01 3.1 10.66
9/25/2021 11:30:00 AM 12.32 54.176 0.051 7.04 2.98 10.65
9/25/2021 11:45:00 AM 12.48 54.464 0.051 7.06 2.95 10.65
9/25/2021 12:00:00 PM 12.63 54.734 0.051 7.07 2.97 10.63
9/25/2021 12:15:00 PM 12.78 55.004 0.051 7.09 3.03 10.61
9/25/2021 12:30:00 PM 12.93 55.274 0.051 7.05 2.99 10.59
9/25/2021 12:45:00 PM 13.08 55.544 0.051 7.1 2.73 10.58
9/25/2021 1:00:00 PM 13.21 55.778 0.051 7.07 2.89 10.57
9/25/2021 1:15:00 PM 13.36 56.048 0.051 7.11 3.09 10.54
9/25/2021 1:30:00 PM 13.51 56.318 0.051 7.11 3.09 10.51
9/25/2021 1:45:00 PM 13.61 56.498 0.051 7.08 2.94 10.48
9/25/2021 2:00:00 PM 13.74 56.732 0.051 7.12 2.9 10.46
9/25/2021 2:15:00 PM 13.9 57.02 0.051 7.13 2.81 10.43
9/25/2021 2:30:00 PM 14 57.2 0.051 7.11 2.9 10.4
9/25/2021 2:45:00 PM 14.07 57.326 0.051 7.09 3 10.36
9/25/2021 3:00:00 PM 14.13 57.434 0.051 7.13 3.06 10.34
9/25/2021 3:15:00 PM 14.24 57.632 0.051 7.13 3.1 10.32
9/25/2021 3:30:00 PM 14.33 57.794 0.051 7.14 3.14 10.29
9/25/2021 3:45:00 PM 14.38 57.884 0.051 7.08 3.18 10.27
9/25/2021 4:00:00 PM 14.39 57.902 0.051 7.11 3.17 10.24
9/25/2021 4:15:00 PM 14.4 57.92 0.051 7.07 3.21 10.22
9/25/2021 4:30:00 PM 14.41 57.938 0.051 7.1 2.96 10.19
9/25/2021 4:45:00 PM 14.43 57.974 0.051 7.08 3.04 10.18
9/25/2021 5:00:00 PM 14.46 58.028 0.051 7.09 3.19 10.19
9/25/2021 5:15:00 PM 14.46 58.028 0.051 7.09 3.2 10.16
9/25/2021 5:30:00 PM 14.43 57.974 0.051 7.05 3.17 10.11
9/25/2021 5:45:00 PM 14.38 57.884 0.051 7.05 3.27 10.06
9/25/2021 6:00:00 PM 14.33 57.794 0.051 7.03 3.27 10.02
9/25/2021 6:15:00 PM 14.28 57.704 0.051 7.02 3.35 9.99
9/25/2021 6:30:00 PM 14.23 57.614 0.051 6.93 3.15 9.95
9/25/2021 6:45:00 PM 14.17 57.506 0.051 6.97 3.44 9.9
9/25/2021 7:00:00 PM 14.12 57.416 0.051 6.93 3.26 9.88
9/25/2021 7:15:00 PM 14.08 57.344 0.051 6.91 3.51 9.86
9/25/2021 7:30:00 PM 14.03 57.254 0.051 6.94 3.66 9.84
9/25/2021 7:45:00 PM 13.98 57.164 0.052 6.94 3.81 9.84
9/25/2021 8:00:00 PM 13.93 57.074 0.052 6.91 3.9 9.84
9/25/2021 8:15:00 PM 13.88 56.984 0.052 6.91 3.72 9.84
9/25/2021 8:30:00 PM 13.83 56.894 0.052 6.91 3.8 9.84
9/25/2021 8:45:00 PM 13.78 56.804 0.052 6.9 3.84 9.85
9/25/2021 9:00:00 PM 13.74 56.732 0.052 6.9 4.26 9.86
9/25/2021 9:15:00 PM 13.71 56.678 0.052 6.9 3.87 9.86
9/25/2021 9:30:00 PM 13.67 56.606 0.052 6.9 4.16 9.87
9/25/2021 9:45:00 PM 13.64 56.552 0.052 6.9 3.93 9.88
9/25/2021 10:00:00 PM 13.61 56.498 0.052 6.91 3.96 9.89
9/25/2021 10:15:00 PM 13.58 56.444 0.052 6.9 3.55 9.89
9/25/2021 10:30:00 PM 13.56 56.408 0.052 6.9 3.78 9.9
9/25/2021 10:45:00 PM 13.53 56.354 0.052 6.89 3.93 9.91
9/25/2021 11:00:00 PM 13.51 56.318 0.052 6.86 3.8 9.92
9/25/2021 11:15:00 PM 13.48 56.264 0.052 6.89 3.78 9.92
9/25/2021 11:30:00 PM 13.45 56.21 0.052 6.92 3.68 9.93
9/25/2021 11:45:00 PM 13.41 56.138 0.052 6.91 3.77 9.93
9/26/2021 12:00:00 AM 13.37 56.066 0.052 6.9 3.69 9.94
9/26/2021 12:15:00 AM 13.32 55.976 0.052 6.86 3.78 9.95
9/26/2021 12:30:00 AM 13.28 55.904 0.052 6.9 3.9 9.97
9/26/2021 12:45:00 AM 13.22 55.796 0.052 6.88 3.76 9.98
9/26/2021 1:00:00 AM 13.17 55.706 0.052 6.91 3.7 9.99
9/26/2021 1:15:00 AM 13.12 55.616 0.052 6.85 3.63 10
9/26/2021 1:30:00 AM 13.06 55.508 0.052 6.89 3.61 10.01
9/26/2021 1:45:00 AM 13 55.4 0.052 6.9 3.46 10.02
9/26/2021 2:00:00 AM 12.94 55.292 0.052 6.9 3.47 10.04
9/26/2021 2:15:00 AM 12.88 55.184 0.052 6.9 3.65 10.05
9/26/2021 2:30:00 AM 12.83 55.094 0.052 6.88 3.43 10.06
9/26/2021 2:45:00 AM 12.77 54.986 0.052 6.87 3.49 10.08
9/26/2021 3:00:00 AM 12.71 54.878 0.052 6.89 3.56 10.09
9/26/2021 3:15:00 AM 12.65 54.77 0.052 6.89 3.65 10.11
9/26/2021 3:30:00 AM 12.6 54.68 0.052 6.89 3.41 10.12
9/26/2021 3:45:00 AM 12.55 54.59 0.052 6.87 3.58 10.13
9/26/2021 4:00:00 AM 12.51 54.518 0.052 6.89 3.41 10.14
9/26/2021 4:15:00 AM 12.47 54.446 0.052 6.9 3.45 10.15
9/26/2021 4:30:00 AM 12.43 54.374 0.052 6.91 3.6 10.16
9/26/2021 4:45:00 AM 12.39 54.302 0.052 6.89 3.54 10.17
9/26/2021 5:00:00 AM 12.35 54.23 0.052 6.9 3.52 10.19
9/26/2021 5:15:00 AM 12.32 54.176 0.052 6.9 3.16 10.2
9/26/2021 5:30:00 AM 12.28 54.104 0.052 6.9 3.21 10.2
9/26/2021 5:45:00 AM 12.24 54.032 0.052 6.91 3.37 10.21
9/26/2021 6:00:00 AM 12.19 53.942 0.052 6.89 3.52 10.22
9/26/2021 6:15:00 AM 12.15 53.87 0.052 6.91 3.58 10.24
9/26/2021 6:30:00 AM 12.11 53.798 0.052 6.9 3.14 10.25
9/26/2021 6:45:00 AM 12.07 53.726 0.052 6.9 3.35 10.26
9/26/2021 7:00:00 AM 12.03 53.654 0.052 6.87 3.4 10.27
9/26/2021 7:15:00 AM 12 53.6 0.052 6.88 3.28 10.28
9/26/2021 7:30:00 AM 11.97 53.546 0.052 6.91 2.98 10.3
9/26/2021 7:45:00 AM 11.95 53.51 0.052 6.91 3.28 10.32
9/26/2021 8:00:00 AM 11.93 53.474 0.052 6.87 3.18 10.35
9/26/2021 8:15:00 AM 11.92 53.456 0.052 6.93 3.17 10.39
9/26/2021 8:30:00 AM 11.91 53.438 0.052 6.92 2.99 10.43
9/26/2021 8:45:00 AM 11.91 53.438 0.052 6.94 3.26 10.48
9/26/2021 9:00:00 AM 11.91 53.438 0.052 6.98 2.83 10.54
9/26/2021 9:15:00 AM 11.9 53.42 0.052 6.98 2.9 10.56
9/26/2021 9:30:00 AM 11.91 53.438 0.052 6.97 2.65 10.58
9/26/2021 9:45:00 AM 11.93 53.474 0.052 7 2.65 10.6
9/26/2021 10:00:00 AM 11.97 53.546 0.052 6.96 2.71 10.61
9/26/2021 10:15:00 AM 12.01 53.618 0.052 7.02 2.57 10.62
9/26/2021 10:30:00 AM 12.06 53.708 0.052 7.02 2.52 10.63
9/26/2021 10:45:00 AM 12.14 53.852 0.052 7.04 2.56 10.64
9/26/2021 11:00:00 AM 12.24 54.032 0.052 7.05 2.62 10.65
9/26/2021 11:15:00 AM 12.35 54.23 0.052 7.07 2.53 10.66
9/26/2021 11:30:00 AM 12.47 54.446 0.052 7.08 2.32 10.65
9/26/2021 11:45:00 AM 12.6 54.68 0.052 7.1 2.41 10.65
9/26/2021 12:00:00 PM 12.73 54.914 0.052 7.1 2.2 10.64
9/26/2021 12:15:00 PM 12.88 55.184 0.052 7.12 2.4 10.62
9/26/2021 12:30:00 PM 13.04 55.472 0.052 7.14 2.33 10.6
9/26/2021 12:45:00 PM 13.19 55.742 0.052 7.14 2.26 10.58
9/26/2021 1:00:00 PM 13.35 56.03 0.052 7.12 2.21 10.56
9/26/2021 1:15:00 PM 13.53 56.354 0.052 7.16 2.22 10.53
9/26/2021 1:30:00 PM 13.7 56.66 0.052 7.17 2.29 10.51
9/26/2021 1:45:00 PM 13.86 56.948 0.052 7.18 2.44 10.48
9/26/2021 2:00:00 PM 13.97 57.146 0.052 7.18 2.22 10.44
9/26/2021 2:15:00 PM 14.06 57.308 0.052 7.17 2.22 10.41
9/26/2021 2:30:00 PM 14.18 57.524 0.052 7.18 2.27 10.38
9/26/2021 2:45:00 PM 14.29 57.722 0.052 7.17 2.33 10.36
9/26/2021 3:00:00 PM 14.4 57.92 0.052 7.15 3.95 10.34
9/26/2021 3:15:00 PM 14.51 58.118 0.052 7.2 2.33 10.32
9/26/2021 3:30:00 PM 14.6 58.28 0.052 7.18 2.43 10.31
9/26/2021 3:45:00 PM 14.69 58.442 0.052 7.19 2.43 10.29
9/26/2021 4:00:00 PM 14.75 58.55 0.052 7.19 2.21 10.27
9/26/2021 4:15:00 PM 14.77 58.586 0.052 7.18 2.39 10.23
9/26/2021 4:30:00 PM 14.77 58.586 0.052 7.16 2.24 10.19
9/26/2021 4:45:00 PM 14.79 58.622 0.052 7.14 2.47 10.17
9/26/2021 5:00:00 PM 14.77 58.586 0.052 7.11 2.37 10.11
9/26/2021 5:15:00 PM 14.76 58.568 0.052 7.11 2.48 10.06
9/26/2021 5:30:00 PM 14.76 58.568 0.052 7.11 2.45 10.03
9/26/2021 5:45:00 PM 14.75 58.55 0.052 7.07 2.46 10.01
9/26/2021 6:00:00 PM 14.71 58.478 0.052 7.08 2.45 9.98
9/26/2021 6:15:00 PM 14.67 58.406 0.052 7.06 2.38 9.94
9/26/2021 6:30:00 PM 14.61 58.298 0.053 7.03 2.55 9.91
9/26/2021 6:45:00 PM 14.55 58.19 0.053 6.97 2.67 9.87
9/26/2021 7:00:00 PM 14.48 58.064 0.053 7 2.65 9.83
9/26/2021 7:15:00 PM 14.41 57.938 0.053 6.96 2.77 9.8
9/26/2021 7:30:00 PM 14.35 57.83 0.053 6.96 2.78 9.78
9/26/2021 7:45:00 PM 14.27 57.686 0.053 6.95 2.74 9.78
9/26/2021 8:00:00 PM 14.2 57.56 0.053 6.9 2.93 9.78
9/26/2021 8:15:00 PM 14.12 57.416 0.053 6.93 2.59 9.78
9/26/2021 8:30:00 PM 14.05 57.29 0.053 6.92 2.7 9.79
9/26/2021 8:45:00 PM 13.98 57.164 0.053 6.91 2.83 9.79
9/26/2021 9:00:00 PM 13.91 57.038 0.053 6.92 2.83 9.8
9/26/2021 9:15:00 PM 13.85 56.93 0.053 6.87 2.89 9.81
9/26/2021 9:30:00 PM 13.8 56.84 0.053 6.92 2.95 9.83
9/26/2021 9:45:00 PM 13.75 56.75 0.053 6.91 2.81 9.84
9/26/2021 10:00:00 PM 13.69 56.642 0.054 6.92 2.84 9.85
9/26/2021 10:15:00 PM 13.63 56.534 0.053 6.91 2.88 9.86
9/26/2021 10:30:00 PM 13.57 56.426 0.054 6.89 2.99 9.87
9/26/2021 10:45:00 PM 13.51 56.318 0.054 6.9 3.04 9.88
9/26/2021 11:00:00 PM 13.45 56.21 0.054 6.91 2.96 9.9
9/26/2021 11:15:00 PM 13.39 56.102 0.054 6.91 2.74 9.91
9/26/2021 11:30:00 PM 13.33 55.994 0.054 6.84 2.86 9.93
9/26/2021 11:45:00 PM 13.28 55.904 0.054 6.91 2.97 9.94
9/27/2021 12:00:00 AM 13.22 55.796 0.054 6.9 2.84 9.95
9/27/2021 12:15:00 AM 13.17 55.706 0.054 6.91 2.76 9.96
9/27/2021 12:30:00 AM 13.11 55.598 0.054 6.91 2.76 9.97
9/27/2021 12:45:00 AM 13.05 55.49 0.054 6.9 2.66 9.99
9/27/2021 1:00:00 AM 12.99 55.382 0.054 6.9 2.77 10
9/27/2021 1:15:00 AM 12.93 55.274 0.054 6.89 2.95 10.02
9/27/2021 1:30:00 AM 12.88 55.184 0.054 6.9 2.75 10.03
9/27/2021 1:45:00 AM 12.83 55.094 0.054 6.88 3.09 10.04
9/27/2021 2:00:00 AM 12.77 54.986 0.054 6.89 3.11 10.05
9/27/2021 2:15:00 AM 12.72 54.896 0.054 6.85 2.74 10.07
9/27/2021 2:30:00 AM 12.66 54.788 0.054 6.89 3.11 10.08
9/27/2021 2:45:00 AM 12.61 54.698 0.054 6.9 2.82 10.1
9/27/2021 3:00:00 AM 12.57 54.626 0.054 6.85 2.82 10.11
9/27/2021 3:15:00 AM 12.53 54.554 0.054 6.9 3.02 10.12
9/27/2021 3:30:00 AM 12.49 54.482 0.054 6.9 2.89 10.13
9/27/2021 3:45:00 AM 12.47 54.446 0.054 6.86 3.04 10.14
9/27/2021 4:00:00 AM 12.44 54.392 0.054 6.85 2.79 10.15
9/27/2021 4:15:00 AM 12.42 54.356 0.054 6.9 3.15 10.16
9/27/2021 4:30:00 AM 12.4 54.32 0.054 6.91 2.97 10.16
9/27/2021 4:45:00 AM 12.38 54.284 0.054 6.9 2.86 10.17
9/27/2021 5:00:00 AM 12.36 54.248 0.054 6.9 3.16 10.17
9/27/2021 5:15:00 AM 12.35 54.23 0.054 6.89 3.19 10.18
9/27/2021 5:30:00 AM 12.33 54.194 0.054 6.86 3.1 10.19
9/27/2021 5:45:00 AM 12.32 54.176 0.054 6.91 3.01 10.19
9/27/2021 6:00:00 AM 12.3 54.14 0.054 6.91 2.91 10.19
9/27/2021 6:15:00 AM 12.28 54.104 0.054 6.9 2.76 10.2
9/27/2021 6:30:00 AM 12.25 54.05 0.054 6.91 2.9 10.21
9/27/2021 6:45:00 AM 12.23 54.014 0.054 6.91 2.93 10.21
9/27/2021 7:00:00 AM 12.2 53.96 0.054 6.91 2.9 10.22
9/27/2021 7:15:00 AM 12.18 53.924 0.054 6.86 3.03 10.23
9/27/2021 7:30:00 AM 12.15 53.87 0.054 6.87 2.75 10.24
9/27/2021 7:45:00 AM 12.12 53.816 0.054 6.91 2.95 10.27
9/27/2021 8:00:00 AM 12.1 53.78 0.054 6.92 2.7 10.3
9/27/2021 8:15:00 AM 12.08 53.744 0.054 6.92 2.7 10.35
9/27/2021 8:30:00 AM 12.07 53.726 0.054 6.94 2.63 10.39
9/27/2021 8:45:00 AM 12.08 53.744 0.054 6.96 2.71 10.43
9/27/2021 9:00:00 AM 12.09 53.762 0.054 6.95 2.59 10.47
9/27/2021 9:15:00 AM 12.11 53.798 0.054 6.95 2.55 10.5
9/27/2021 9:30:00 AM 12.15 53.87 0.054 7 2.52 10.53
9/27/2021 9:45:00 AM 12.21 53.978 0.054 6.96 2.51 10.56
9/27/2021 10:00:00 AM 12.29 54.122 0.054 7.04 2.39 10.59
9/27/2021 10:15:00 AM 12.37 54.266 0.053 7.06 2.31 10.62
9/27/2021 10:30:00 AM 12.46 54.428 0.054 7.06 2.59 10.63
9/27/2021 10:45:00 AM 12.57 54.626 0.054 7.09 2.48 10.65
9/27/2021 11:00:00 AM 12.68 54.824 0.053 7.12 2.29 10.67
9/27/2021 11:15:00 AM 12.81 55.058 0.053 7.13 2.33 10.68
9/27/2021 11:30:00 AM 12.96 55.328 0.053 7.16 2.36 10.69
9/27/2021 11:45:00 AM 13.12 55.616 0.053 7.21 2.33 10.69
9/27/2021 12:00:00 PM 13.27 55.886 0.053 7.19 2.22 10.68
9/27/2021 12:15:00 PM 13.46 56.228 0.053 7.21 2.01 10.67
9/27/2021 12:30:00 PM 13.65 56.57 0.053 7.17 1.9 10.66
9/27/2021 12:45:00 PM 13.83 56.894 0.053 7.25 1.99 10.64
9/27/2021 1:00:00 PM 14.02 57.236 0.053 7.26 1.91 10.61
9/27/2021 1:15:00 PM 14.22 57.596 0.053 7.28 1.9 10.59
9/27/2021 1:30:00 PM 14.41 57.938 0.053 7.29 1.86 10.55
9/27/2021 1:45:00 PM 14.59 58.262 0.053 7.3 1.84 10.52
9/27/2021 2:00:00 PM 14.75 58.55 0.053 7.28 1.83 10.48
9/27/2021 2:15:00 PM 14.89 58.802 0.053 7.3 1.9 10.45
9/27/2021 2:30:00 PM 15.04 59.072 0.053 7.31 1.85 10.41
9/27/2021 2:45:00 PM 15.19 59.342 0.053 7.31 1.81 10.36
9/27/2021 3:00:00 PM 15.32 59.576 0.053 7.32 1.82 10.33
9/27/2021 3:15:00 PM 15.42 59.756 0.057 7.24 1.62 10.15
9/27/2021 3:30:00 PM 15.52 59.936 0.057 7.28 1.76 10.12
9/27/2021 3:45:00 PM 15.62 60.116 0.057 7.29 1.58 10.07
9/27/2021 4:00:00 PM 15.71 60.278 0.057 7.25 1.75 10.03
9/27/2021 4:15:00 PM 15.79 60.422 0.057 7.24 1.77 9.99
9/27/2021 4:30:00 PM 15.85 60.53 0.057 7.23 1.64 9.95
9/27/2021 4:45:00 PM 15.9 60.62 0.057 7.23 4.22 9.91
9/27/2021 5:00:00 PM 15.94 60.692 0.057 7.23 1.72 9.88
9/27/2021 5:15:00 PM 15.99 60.782 0.057 7.23 1.79 9.84
9/27/2021 5:30:00 PM 16.01 60.818 0.057 7.2 1.7 9.78
9/27/2021 5:45:00 PM 16.03 60.854 0.057 7.18 1.75 9.72
9/27/2021 6:00:00 PM 16.03 60.854 0.057 7.16 1.73 9.65
9/27/2021 6:15:00 PM 16.02 60.836 0.057 7.13 1.69 9.58
9/27/2021 6:30:00 PM 15.99 60.782 0.057 7.12 1.69 9.52
9/27/2021 6:45:00 PM 15.96 60.728 0.057 7.1 1.79 9.46
9/27/2021 7:00:00 PM 15.91 60.638 0.058 7.07 1.88 9.4
9/27/2021 7:15:00 PM 15.85 60.53 0.058 7.06 1.8 9.35
9/27/2021 7:30:00 PM 15.78 60.404 0.058 7.02 1.93 9.31
9/27/2021 7:45:00 PM 15.72 60.296 0.058 7.02 2.04 9.29
9/27/2021 8:00:00 PM 15.65 60.17 0.058 6.99 2.13 9.28
9/27/2021 8:15:00 PM 15.58 60.044 0.058 6.99 2.08 9.27
9/27/2021 8:30:00 PM 15.5 59.9 0.058 6.96 2.17 9.28
9/27/2021 8:45:00 PM 15.42 59.756 0.059 6.96 2.26 9.28
9/27/2021 9:00:00 PM 15.33 59.594 0.059 6.95 2.13 9.3
9/27/2021 9:15:00 PM 15.25 59.45 0.059 6.94 2.32 9.31
9/27/2021 9:30:00 PM 15.17 59.306 0.059 6.93 2.2 9.32
9/27/2021 9:45:00 PM 15.09 59.162 0.059 6.93 2.32 9.33
9/27/2021 10:00:00 PM 15.01 59.018 0.059 6.93 2.24 9.35
9/27/2021 10:15:00 PM 14.93 58.874 0.059 6.87 2.2 9.37
9/27/2021 10:30:00 PM 14.85 58.73 0.059 6.96 2.23 9.39
9/27/2021 10:45:00 PM 14.78 58.604 0.059 6.96 2.58 9.4
9/27/2021 11:00:00 PM 14.71 58.478 0.059 6.94 2.28 9.42
9/27/2021 11:15:00 PM 14.64 58.352 0.059 6.93 2.21 9.43
9/27/2021 11:30:00 PM 14.58 58.244 0.059 6.92 2.24 9.45
9/27/2021 11:45:00 PM 14.51 58.118 0.06 6.92 2.29 9.46
9/28/2021 12:00:00 AM 14.46 58.028 0.06 6.92 2.21 9.48
9/28/2021 12:15:00 AM 14.4 57.92 0.06 6.91 2.08 9.48
9/28/2021 12:30:00 AM 14.34 57.812 0.06 6.91 2.23 9.5
9/28/2021 12:45:00 AM 14.29 57.722 0.06 6.91 2.13 9.52
9/28/2021 1:00:00 AM 14.24 57.632 0.06 6.91 2.29 9.53
9/28/2021 1:15:00 AM 14.2 57.56 0.06 6.91 1.99 9.53
9/28/2021 1:30:00 AM 14.16 57.488 0.06 6.9 2.2 9.55
9/28/2021 1:45:00 AM 14.13 57.434 0.06 6.9 2.08 9.55
9/28/2021 2:00:00 AM 14.1 57.38 0.06 6.91 2.14 9.56
9/28/2021 2:15:00 AM 14.07 57.326 0.06 6.9 2.17 9.57
9/28/2021 2:30:00 AM 14.04 57.272 0.06 6.9 2.2 9.57
9/28/2021 2:45:00 AM 14.02 57.236 0.06 6.91 2.17 9.58
9/28/2021 3:00:00 AM 14 57.2 0.06 6.91 2.19 9.59
9/28/2021 3:15:00 AM 13.98 57.164 0.06 6.92 2.17 9.59
9/28/2021 3:30:00 AM 13.95 57.11 0.06 6.93 2.12 9.59
9/28/2021 3:45:00 AM 13.93 57.074 0.06 6.93 2.3 9.6
9/28/2021 4:00:00 AM 13.91 57.038 0.06 6.92 2.04 9.61
9/28/2021 4:15:00 AM 13.89 57.002 0.06 6.9 2.13 9.61
9/28/2021 4:30:00 AM 13.87 56.966 0.06 6.92 2.15 9.61
9/28/2021 4:45:00 AM 13.85 56.93 0.06 6.91 2.08 9.62
9/28/2021 5:00:00 AM 13.83 56.894 0.06 6.91 2.03 9.62
9/28/2021 5:15:00 AM 13.82 56.876 0.06 6.91 2.1 9.62
9/28/2021 5:30:00 AM 13.8 56.84 0.06 6.91 2.2 9.63
9/28/2021 5:45:00 AM 13.78 56.804 0.06 6.91 2.01 9.63
9/28/2021 6:00:00 AM 13.77 56.786 0.06 6.89 2.06 9.64
9/28/2021 6:15:00 AM 13.75 56.75 0.06 6.91 2.09 9.64
9/28/2021 6:30:00 AM 13.73 56.714 0.06 6.89 2.05 9.64
9/28/2021 6:45:00 AM 13.71 56.678 0.06 6.89 1.94 9.65
9/28/2021 7:00:00 AM 13.7 56.66 0.06 6.9 2.07 9.65
9/28/2021 7:15:00 AM 13.7 56.66 0.06 6.9 1.94 9.66
9/28/2021 7:30:00 AM 13.7 56.66 0.06 6.91 1.9 9.67
9/28/2021 7:45:00 AM 13.7 56.66 0.06 6.9 1.88 9.68
9/28/2021 8:00:00 AM 13.7 56.66 0.06 6.91 1.95 9.69
9/28/2021 8:15:00 AM 13.7 56.66 0.06 6.91 1.85 9.7
9/28/2021 8:30:00 AM 13.71 56.678 0.06 6.92 1.83 9.71
9/28/2021 8:45:00 AM 13.71 56.678 0.06 6.91 1.74 9.71
9/28/2021 9:00:00 AM 13.72 56.696 0.06 6.93 1.65 9.72
9/28/2021 9:15:00 AM 13.72 56.696 0.06 6.93 1.68 9.73
9/28/2021 9:30:00 AM 13.73 56.714 0.06 6.93 1.56 9.75
9/28/2021 9:45:00 AM 13.74 56.732 0.06 6.94 1.53 9.78
9/28/2021 10:00:00 AM 13.76 56.768 0.06 6.95 1.57 9.82
9/28/2021 10:15:00 AM 13.77 56.786 0.06 6.95 1.45 9.83
9/28/2021 10:30:00 AM 13.78 56.804 0.06 6.95 1.58 9.84
9/28/2021 10:45:00 AM 13.81 56.858 0.06 6.96 1.5 9.9
9/28/2021 11:00:00 AM 13.88 56.984 0.06 7 1.47 10.02
9/28/2021 11:15:00 AM 13.92 57.056 0.06 7.01 1.53 10.05
9/28/2021 11:30:00 AM 13.95 57.11 0.06 7.02 1.49 10.1
9/28/2021 11:45:00 AM 14.01 57.218 0.06 7.04 1.42 10.16
9/28/2021 12:00:00 PM 14.12 57.416 0.059 7.09 1.45 10.26
9/28/2021 12:15:00 PM 14.23 57.614 0.059 7.12 1.44 10.31
9/28/2021 12:30:00 PM 14.35 57.83 0.059 7.16 1.43 10.36
9/28/2021 12:45:00 PM 14.45 58.01 0.059 7.2 1.44 10.39
9/28/2021 1:00:00 PM 14.57 58.226 0.059 7.23 1.47 10.41
9/28/2021 1:15:00 PM 14.65 58.37 0.059 7.23 1.47 10.33
9/28/2021 1:30:00 PM 14.82 58.676 0.059 7.26 1.5 10.35
9/28/2021 1:45:00 PM 14.92 58.856 0.059 7.28 1.51 10.33
9/28/2021 2:00:00 PM 14.99 58.982 0.059 7.29 1.48 10.33
9/28/2021 2:15:00 PM 15.04 59.072 0.059 7.31 1.46 10.33
9/28/2021 2:30:00 PM 15.1 59.18 0.059 7.33 1.39 10.34
9/28/2021 2:45:00 PM 15.18 59.324 0.059 7.35 1.42 10.33
9/28/2021 3:00:00 PM 15.27 59.486 0.059 7.35 1.43 10.29
9/28/2021 3:15:00 PM 15.37 59.666 0.059 7.35 1.47 10.25
9/28/2021 3:30:00 PM 15.47 59.846 0.059 7.34 1.43 10.2
9/28/2021 3:45:00 PM 15.56 60.008 0.059 7.34 1.54 10.15
9/28/2021 4:00:00 PM 15.62 60.116 0.059 7.33 1.45 10.11
9/28/2021 4:15:00 PM 15.66 60.188 0.059 7.33 1.44 10.06
9/28/2021 4:30:00 PM 15.71 60.278 0.059 7.31 1.41 10.01
9/28/2021 4:45:00 PM 15.73 60.314 0.059 7.3 1.4 9.95
9/28/2021 5:00:00 PM 15.75 60.35 0.059 7.29 1.47 9.91
9/28/2021 5:15:00 PM 15.75 60.35 0.059 7.27 1.47 9.86
9/28/2021 5:30:00 PM 15.74 60.332 0.059 7.26 1.39 9.8
9/28/2021 5:45:00 PM 15.71 60.278 0.059 7.22 1.49 9.73
9/28/2021 6:00:00 PM 15.68 60.224 0.059 7.2 1.49 9.65
9/28/2021 6:15:00 PM 15.65 60.17 0.059 7.17 1.42 9.58
9/28/2021 6:30:00 PM 15.62 60.116 0.059 7.16 1.45 9.53
9/28/2021 6:45:00 PM 15.6 60.08 0.059 7.13 1.63 9.48
9/28/2021 7:00:00 PM 15.56 60.008 0.06 7.11 1.42 9.44
9/28/2021 7:15:00 PM 15.51 59.918 0.06 7.1 1.45 9.4
9/28/2021 7:30:00 PM 15.46 59.828 0.06 7.08 1.66 9.37
9/28/2021 7:45:00 PM 15.4 59.72 0.06 7.07 1.82 9.35
9/28/2021 8:00:00 PM 15.32 59.576 0.06 7.05 1.86 9.34
9/28/2021 8:15:00 PM 15.25 59.45 0.06 7.04 1.97 9.35
9/28/2021 8:30:00 PM 15.17 59.306 0.06 7.04 1.98 9.36
9/28/2021 8:45:00 PM 15.08 59.144 0.06 7.03 1.89 9.36
9/28/2021 9:00:00 PM 14.99 58.982 0.061 7.03 1.96 9.38
9/28/2021 9:15:00 PM 14.89 58.802 0.061 7.02 1.79 9.39
9/28/2021 9:30:00 PM 14.79 58.622 0.061 7.02 1.94 9.42
9/28/2021 9:45:00 PM 14.69 58.442 0.061 7.01 1.97 9.44
9/28/2021 10:00:00 PM 14.59 58.262 0.061 7.01 1.91 9.46
9/28/2021 10:15:00 PM 14.49 58.082 0.061 7 1.92 9.48
9/28/2021 10:30:00 PM 14.39 57.902 0.061 7 1.89 9.5
9/28/2021 10:45:00 PM 14.3 57.74 0.061 7 1.88 9.53
9/28/2021 11:00:00 PM 14.21 57.578 0.061 7 2.07 9.55
9/28/2021 11:15:00 PM 14.12 57.416 0.061 7 1.89 9.57
9/28/2021 11:30:00 PM 14.03 57.254 0.061 7 1.94 9.59
9/28/2021 11:45:00 PM 13.95 57.11 0.061 7 1.99 9.62
9/29/2021 12:00:00 AM 13.87 56.966 0.061 7.02 1.89 9.64
9/29/2021 12:15:00 AM 13.8 56.84 0.061 7 1.99 9.66
9/29/2021 12:30:00 AM 13.73 56.714 0.061 7 1.98 9.67
9/29/2021 12:45:00 AM 13.66 56.588 0.062 6.99 2.05 9.69
9/29/2021 1:00:00 AM 13.59 56.462 0.062 6.99 2.08 9.71
9/29/2021 1:15:00 AM 13.51 56.318 0.062 7 2.23 9.73
9/29/2021 1:30:00 AM 13.44 56.192 0.062 6.99 1.97 9.74
9/29/2021 1:45:00 AM 13.38 56.084 0.061 6.99 1.96 9.76
9/29/2021 2:00:00 AM 13.31 55.958 0.062 6.99 2.01 9.77
9/29/2021 2:15:00 AM 13.24 55.832 0.062 6.98 1.93 9.79
9/29/2021 2:30:00 AM 13.18 55.724 0.062 6.99 1.97 9.81
9/29/2021 2:45:00 AM 13.12 55.616 0.061 6.99 1.9 9.82
9/29/2021 3:00:00 AM 13.05 55.49 0.062 6.99 1.86 9.84
9/29/2021 3:15:00 AM 12.98 55.364 0.062 6.91 1.85 9.85
9/29/2021 3:30:00 AM 12.92 55.256 0.062 6.99 1.88 9.87
9/29/2021 3:45:00 AM 12.87 55.166 0.062 7.02 1.88 9.88
9/29/2021 4:00:00 AM 12.82 55.076 0.062 7 1.89 9.9
9/29/2021 4:15:00 AM 12.76 54.968 0.062 6.98 1.88 9.91
9/29/2021 4:30:00 AM 12.7 54.86 0.062 6.99 1.97 9.92
9/29/2021 4:45:00 AM 12.64 54.752 0.062 6.98 1.95 9.94
9/29/2021 5:00:00 AM 12.58 54.644 0.062 6.98 1.82 9.96
9/29/2021 5:15:00 AM 12.52 54.536 0.062 6.98 1.87 9.97
9/29/2021 5:30:00 AM 12.46 54.428 0.062 6.97 1.81 9.98
9/29/2021 5:45:00 AM 12.4 54.32 0.062 6.98 1.98 10
9/29/2021 6:00:00 AM 12.35 54.23 0.062 6.98 1.86 10.02
9/29/2021 6:15:00 AM 12.29 54.122 0.062 6.97 1.89 10.03
9/29/2021 6:30:00 AM 12.23 54.014 0.062 6.97 1.88 10.04
9/29/2021 6:45:00 AM 12.17 53.906 0.062 6.97 1.9 10.06
9/29/2021 7:00:00 AM 12.12 53.816 0.062 6.97 1.81 10.08
9/29/2021 7:15:00 AM 12.08 53.744 0.062 6.97 1.86 10.1
9/29/2021 7:30:00 AM 12.04 53.672 0.062 6.97 1.9 10.13
9/29/2021 7:45:00 AM 12.01 53.618 0.061 6.98 1.81 10.16
9/29/2021 8:00:00 AM 11.97 53.546 0.062 6.98 1.83 10.22
9/29/2021 8:15:00 AM 11.94 53.492 0.061 6.99 1.74 10.28
9/29/2021 8:30:00 AM 11.9 53.42 0.061 7 1.72 10.32
9/29/2021 8:45:00 AM 11.87 53.366 0.061 7.01 1.79 10.36
9/29/2021 9:00:00 AM 11.86 53.348 0.061 7.02 1.68 10.42
9/29/2021 9:15:00 AM 11.86 53.348 0.061 7.03 1.58 10.47
9/29/2021 9:30:00 AM 11.87 53.366 0.061 7.06 1.56 10.52
9/29/2021 9:45:00 AM 11.9 53.42 0.061 7.07 1.51 10.56
9/29/2021 10:00:00 AM 11.94 53.492 0.061 7.09 1.5 10.6
9/29/2021 10:15:00 AM 12 53.6 0.061 7.11 1.45 10.63
9/29/2021 10:30:00 AM 12.08 53.744 0.061 7.13 1.43 10.67
9/29/2021 10:45:00 AM 12.18 53.924 0.061 7.14 1.37 10.69
9/29/2021 11:00:00 AM 12.29 54.122 0.061 7.16 1.4 10.71
9/29/2021 11:15:00 AM 12.43 54.374 0.061 7.17 1.35 10.74
9/29/2021 11:30:00 AM 12.58 54.644 0.061 7.21 1.32 10.78
9/29/2021 11:45:00 AM 12.74 54.932 0.06 7.23 1.45 10.79
9/29/2021 12:00:00 PM 12.9 55.22 0.06 7.25 1.39 10.8
9/29/2021 12:15:00 PM 13.07 55.526 0.06 7.28 1.31 10.8
9/29/2021 12:30:00 PM 13.2 55.76 0.06 7.28 1.36 10.75
9/29/2021 12:45:00 PM 13.36 56.048 0.06 7.3 1.28 10.73
9/29/2021 1:00:00 PM 13.54 56.372 0.06 7.31 1.32 10.71
9/29/2021 1:15:00 PM 13.71 56.678 0.06 7.33 1.33 10.71
9/29/2021 1:30:00 PM 13.86 56.948 0.06 7.35 1.25 10.67
9/29/2021 1:45:00 PM 14.1 57.38 0.06 7.37 1.31 10.69
9/29/2021 2:00:00 PM 14.25 57.65 0.06 7.38 1.29 10.64
9/29/2021 2:15:00 PM 14.39 57.902 0.06 7.4 1.24 10.62
9/29/2021 2:30:00 PM 14.5 58.1 0.06 7.41 1.2 10.57
9/29/2021 2:45:00 PM 14.61 58.298 0.06 7.41 1.22 10.52
9/29/2021 3:00:00 PM 14.69 58.442 0.06 7.41 1.21 10.49
9/29/2021 3:15:00 PM 14.78 58.604 0.06 7.41 1.36 10.45
9/29/2021 3:30:00 PM 14.83 58.694 0.06 7.41 1.21 10.4
9/29/2021 3:45:00 PM 14.89 58.802 0.06 7.41 1.25 10.38
9/29/2021 4:00:00 PM 14.95 58.91 0.06 7.42 1.27 10.36
9/29/2021 4:15:00 PM 14.95 58.91 0.06 7.4 1.3 10.3
9/29/2021 4:30:00 PM 14.97 58.946 0.06 7.38 1.24 10.24
9/29/2021 4:45:00 PM 14.98 58.964 0.06 7.36 1.28 10.21
9/29/2021 5:00:00 PM 15 59 0.06 7.35 1.32 10.16
9/29/2021 5:15:00 PM 15.01 59.018 0.06 7.34 1.28 10.1
9/29/2021 5:30:00 PM 14.99 58.982 0.06 7.31 1.29 10.04
9/29/2021 5:45:00 PM 14.97 58.946 0.06 7.29 1.53 9.96
9/29/2021 6:00:00 PM 14.94 58.892 0.06 7.25 1.84 9.87
9/29/2021 6:15:00 PM 14.9 58.82 0.06 7.22 1.32 9.8
9/29/2021 6:30:00 PM 14.87 58.766 0.06 7.2 1.34 9.74
9/29/2021 6:45:00 PM 14.84 58.712 0.06 7.18 1.38 9.69
9/29/2021 7:00:00 PM 14.8 58.64 0.061 7.14 1.35 9.64
9/29/2021 7:15:00 PM 14.76 58.568 0.061 7.13 1.34 9.59
9/29/2021 7:30:00 PM 14.71 58.478 0.061 7.12 1.44 9.55
9/29/2021 7:45:00 PM 14.65 58.37 0.061 7.1 1.49 9.53
9/29/2021 8:00:00 PM 14.59 58.262 0.061 7.08 1.49 9.52
9/29/2021 8:15:00 PM 14.52 58.136 0.061 7.07 1.64 9.52
9/29/2021 8:30:00 PM 14.44 57.992 0.061 7.07 1.73 9.53
9/29/2021 8:45:00 PM 14.35 57.83 0.062 7.06 1.65 9.54
9/29/2021 9:00:00 PM 14.26 57.668 0.062 7.05 1.71 9.55
9/29/2021 9:15:00 PM 14.16 57.488 0.062 7.05 1.87 9.57
9/29/2021 9:30:00 PM 14.06 57.308 0.062 7.05 1.72 9.58
9/29/2021 9:45:00 PM 13.97 57.146 0.062 7.04 1.71 9.6
9/29/2021 10:00:00 PM 13.86 56.948 0.062 7.04 1.84 9.63
9/29/2021 10:15:00 PM 13.76 56.768 0.062 7.03 1.64 9.65
9/29/2021 10:30:00 PM 13.66 56.588 0.062 7.04 1.9 9.67
9/29/2021 10:45:00 PM 13.55 56.39 0.062 7.03 1.81 9.7
9/29/2021 11:00:00 PM 13.45 56.21 0.062 7.03 1.65 9.72
9/29/2021 11:15:00 PM 13.34 56.012 0.062 7.02 1.66 9.75
9/29/2021 11:30:00 PM 13.24 55.832 0.063 7.02 1.72 9.77
9/29/2021 11:45:00 PM 13.14 55.652 0.063 7.02 1.71 9.8
9/30/2021 12:00:00 AM 13.04 55.472 0.063 7.02 1.77 9.83
9/30/2021 12:15:00 AM 12.94 55.292 0.063 7.02 1.74 9.85
9/30/2021 12:30:00 AM 12.84 55.112 0.063 7.02 1.78 9.87
9/30/2021 12:45:00 AM 12.75 54.95 0.063 7.02 1.8 9.9
9/30/2021 1:00:00 AM 12.67 54.806 0.063 7.02 1.69 9.92
9/30/2021 1:15:00 AM 12.59 54.662 0.063 7.02 1.66 9.94
9/30/2021 1:30:00 AM 12.5 54.5 0.063 7.02 1.75 9.96
9/30/2021 1:45:00 AM 12.42 54.356 0.063 7.02 2.07 9.98
9/30/2021 2:00:00 AM 12.33 54.194 0.063 7.02 1.74 10.01
9/30/2021 2:15:00 AM 12.26 54.068 0.063 7.02 1.72 10.03
9/30/2021 2:30:00 AM 12.18 53.924 0.063 7.02 1.68 10.05
9/30/2021 2:45:00 AM 12.1 53.78 0.063 7.01 1.69 10.07
9/30/2021 3:00:00 AM 12.03 53.654 0.063 7.01 1.74 10.09
9/30/2021 3:15:00 AM 11.97 53.546 0.063 7.01 1.75 10.1
9/30/2021 3:30:00 AM 11.91 53.438 0.063 7.01 1.72 10.13
9/30/2021 3:45:00 AM 11.85 53.33 0.063 7.01 1.73 10.14
9/30/2021 4:00:00 AM 11.8 53.24 0.063 7.01 1.72 10.15
9/30/2021 4:15:00 AM 11.75 53.15 0.063 7.01 1.66 10.17
9/30/2021 4:30:00 AM 11.69 53.042 0.063 7.01 1.64 10.18
9/30/2021 4:45:00 AM 11.64 52.952 0.063 7.01 1.7 10.2
9/30/2021 5:00:00 AM 11.59 52.862 0.063 7.01 1.59 10.21
9/30/2021 5:15:00 AM 11.54 52.772 0.063 7.01 1.62 10.23
9/30/2021 5:30:00 AM 11.5 52.7 0.064 7.01 1.69 10.24
9/30/2021 5:45:00 AM 11.46 52.628 0.064 7.01 1.67 10.25
9/30/2021 6:00:00 AM 11.41 52.538 0.063 7.01 1.69 10.27
9/30/2021 6:15:00 AM 11.36 52.448 0.063 7.01 1.65 10.28
9/30/2021 6:30:00 AM 11.31 52.358 0.063 7.01 1.61 10.3
9/30/2021 6:45:00 AM 11.26 52.268 0.063 7.01 1.59 10.31
9/30/2021 7:00:00 AM 11.22 52.196 0.063 7.01 1.7 10.32
9/30/2021 7:15:00 AM 11.18 52.124 0.063 7.01 1.59 10.34
9/30/2021 7:30:00 AM 11.14 52.052 0.063 7.02 1.61 10.36
9/30/2021 7:45:00 AM 11.11 51.998 0.063 7.02 1.56 10.4
9/30/2021 8:00:00 AM 11.08 51.944 0.063 7.03 1.56 10.45
9/30/2021 8:15:00 AM 11.05 51.89 0.063 7.04 1.59 10.55
9/30/2021 8:30:00 AM 11.04 51.872 0.063 7.06 1.53 10.65
9/30/2021 8:45:00 AM 11.04 51.872 0.063 7.08 1.43 10.75
9/30/2021 9:00:00 AM 11.04 51.872 0.062 7.1 1.46 10.84
9/30/2021 9:15:00 AM 11.05 51.89 0.062 7.12 1.42 10.91
9/30/2021 9:30:00 AM 11.06 51.908 0.062 7.14 1.4 10.97
9/30/2021 9:45:00 AM 11.08 51.944 0.062 7.16 1.33 11.03
9/30/2021 10:00:00 AM 11.12 52.016 0.062 7.18 1.31 11.1
9/30/2021 10:15:00 AM